<?xml version="1.0" encoding="UTF-8" standalone="no" ?>
<gpx xmlns="http://www.topografix.com/GPX/1/1" xmlns:xsi="http://www.w3.org/2001/XMLSchema-instance" xsi:schemaLocation="http://www.topografix.com/GPX/1/1 http://www.topografix.com/GPX/1/1/gpx.xsd" version="1.1" creator="VisuGPX - https://www.visugpx.com">
  <metadata>
    <name>rando</name>
    <desc><![CDATA[rando avec les Tire-Clous, trop de vent pour décoller]]></desc>
  </metadata>
  <trk>
    <name><![CDATA[Track 001]]></name>
    <trkseg>
      <trkpt lat="44.97636" lon="5.83858">
        <ele>1783.9</ele>
        <time>2012-10-13T07:56:19Z</time>
      </trkpt>
      <trkpt lat="44.97639" lon="5.83869">
        <ele>1777.1</ele>
        <time>2012-10-13T07:56:24Z</time>
      </trkpt>
      <trkpt lat="44.97641" lon="5.83885">
        <ele>1765.1</ele>
        <time>2012-10-13T07:56:29Z</time>
      </trkpt>
      <trkpt lat="44.97645" lon="5.83908">
        <ele>1741.6</ele>
        <time>2012-10-13T07:56:34Z</time>
      </trkpt>
      <trkpt lat="44.97648" lon="5.83914">
        <ele>1739.2</ele>
        <time>2012-10-13T07:56:39Z</time>
      </trkpt>
      <trkpt lat="44.97651" lon="5.83918">
        <ele>1738.2</ele>
        <time>2012-10-13T07:56:44Z</time>
      </trkpt>
      <trkpt lat="44.97655" lon="5.83921">
        <ele>1737.7</ele>
        <time>2012-10-13T07:56:49Z</time>
      </trkpt>
      <trkpt lat="44.97659" lon="5.83924">
        <ele>1738.2</ele>
        <time>2012-10-13T07:56:54Z</time>
      </trkpt>
      <trkpt lat="44.97662" lon="5.83926">
        <ele>1739.2</ele>
        <time>2012-10-13T07:56:59Z</time>
      </trkpt>
      <trkpt lat="44.97666" lon="5.83928">
        <ele>1740.1</ele>
        <time>2012-10-13T07:57:04Z</time>
      </trkpt>
      <trkpt lat="44.9767" lon="5.83932">
        <ele>1741.1</ele>
        <time>2012-10-13T07:57:09Z</time>
      </trkpt>
      <trkpt lat="44.97673" lon="5.83936">
        <ele>1742</ele>
        <time>2012-10-13T07:57:14Z</time>
      </trkpt>
      <trkpt lat="44.97676" lon="5.83941">
        <ele>1742</ele>
        <time>2012-10-13T07:57:19Z</time>
      </trkpt>
      <trkpt lat="44.9768" lon="5.83946">
        <ele>1742</ele>
        <time>2012-10-13T07:57:24Z</time>
      </trkpt>
      <trkpt lat="44.97682" lon="5.83952">
        <ele>1743</ele>
        <time>2012-10-13T07:57:29Z</time>
      </trkpt>
      <trkpt lat="44.97686" lon="5.83955">
        <ele>1743.5</ele>
        <time>2012-10-13T07:57:34Z</time>
      </trkpt>
      <trkpt lat="44.97689" lon="5.83956">
        <ele>1744</ele>
        <time>2012-10-13T07:57:39Z</time>
      </trkpt>
      <trkpt lat="44.97694" lon="5.83958">
        <ele>1744.9</ele>
        <time>2012-10-13T07:57:44Z</time>
      </trkpt>
      <trkpt lat="44.97698" lon="5.8396">
        <ele>1745.9</ele>
        <time>2012-10-13T07:57:49Z</time>
      </trkpt>
      <trkpt lat="44.97701" lon="5.83963">
        <ele>1747.3</ele>
        <time>2012-10-13T07:57:54Z</time>
      </trkpt>
      <trkpt lat="44.97705" lon="5.83965">
        <ele>1748.3</ele>
        <time>2012-10-13T07:57:59Z</time>
      </trkpt>
      <trkpt lat="44.97707" lon="5.83969">
        <ele>1749.3</ele>
        <time>2012-10-13T07:58:04Z</time>
      </trkpt>
      <trkpt lat="44.97709" lon="5.83972">
        <ele>1750.7</ele>
        <time>2012-10-13T07:58:09Z</time>
      </trkpt>
      <trkpt lat="44.97712" lon="5.83975">
        <ele>1751.7</ele>
        <time>2012-10-13T07:58:14Z</time>
      </trkpt>
      <trkpt lat="44.97716" lon="5.83978">
        <ele>1752.6</ele>
        <time>2012-10-13T07:58:19Z</time>
      </trkpt>
      <trkpt lat="44.97719" lon="5.83982">
        <ele>1753.1</ele>
        <time>2012-10-13T07:58:24Z</time>
      </trkpt>
      <trkpt lat="44.97721" lon="5.83984">
        <ele>1753.6</ele>
        <time>2012-10-13T07:58:29Z</time>
      </trkpt>
      <trkpt lat="44.97723" lon="5.83989">
        <ele>1755</ele>
        <time>2012-10-13T07:58:34Z</time>
      </trkpt>
      <trkpt lat="44.97726" lon="5.83993">
        <ele>1756.5</ele>
        <time>2012-10-13T07:58:39Z</time>
      </trkpt>
      <trkpt lat="44.97729" lon="5.83997">
        <ele>1756.9</ele>
        <time>2012-10-13T07:58:44Z</time>
      </trkpt>
      <trkpt lat="44.97732" lon="5.84">
        <ele>1757.4</ele>
        <time>2012-10-13T07:58:49Z</time>
      </trkpt>
      <trkpt lat="44.97735" lon="5.84005">
        <ele>1757.9</ele>
        <time>2012-10-13T07:58:54Z</time>
      </trkpt>
      <trkpt lat="44.97738" lon="5.84008">
        <ele>1758.9</ele>
        <time>2012-10-13T07:58:59Z</time>
      </trkpt>
      <trkpt lat="44.97741" lon="5.84011">
        <ele>1759.8</ele>
        <time>2012-10-13T07:59:04Z</time>
      </trkpt>
      <trkpt lat="44.97744" lon="5.84015">
        <ele>1760.8</ele>
        <time>2012-10-13T07:59:09Z</time>
      </trkpt>
      <trkpt lat="44.97747" lon="5.84018">
        <ele>1761.8</ele>
        <time>2012-10-13T07:59:14Z</time>
      </trkpt>
      <trkpt lat="44.97751" lon="5.84021">
        <ele>1762.7</ele>
        <time>2012-10-13T07:59:19Z</time>
      </trkpt>
      <trkpt lat="44.97753" lon="5.84025">
        <ele>1763.7</ele>
        <time>2012-10-13T07:59:24Z</time>
      </trkpt>
      <trkpt lat="44.97757" lon="5.84028">
        <ele>1764.6</ele>
        <time>2012-10-13T07:59:29Z</time>
      </trkpt>
      <trkpt lat="44.97761" lon="5.84031">
        <ele>1765.6</ele>
        <time>2012-10-13T07:59:34Z</time>
      </trkpt>
      <trkpt lat="44.97766" lon="5.84033">
        <ele>1766.6</ele>
        <time>2012-10-13T07:59:39Z</time>
      </trkpt>
      <trkpt lat="44.97769" lon="5.84036">
        <ele>1768</ele>
        <time>2012-10-13T07:59:44Z</time>
      </trkpt>
      <trkpt lat="44.97773" lon="5.8404">
        <ele>1769</ele>
        <time>2012-10-13T07:59:49Z</time>
      </trkpt>
      <trkpt lat="44.97777" lon="5.84045">
        <ele>1769.4</ele>
        <time>2012-10-13T07:59:54Z</time>
      </trkpt>
      <trkpt lat="44.9778" lon="5.8405">
        <ele>1770.4</ele>
        <time>2012-10-13T07:59:59Z</time>
      </trkpt>
      <trkpt lat="44.97784" lon="5.84054">
        <ele>1772.3</ele>
        <time>2012-10-13T08:00:04Z</time>
      </trkpt>
      <trkpt lat="44.97787" lon="5.84058">
        <ele>1773.8</ele>
        <time>2012-10-13T08:00:09Z</time>
      </trkpt>
      <trkpt lat="44.9779" lon="5.84061">
        <ele>1775.7</ele>
        <time>2012-10-13T08:00:14Z</time>
      </trkpt>
      <trkpt lat="44.97794" lon="5.84062">
        <ele>1777.6</ele>
        <time>2012-10-13T08:00:19Z</time>
      </trkpt>
      <trkpt lat="44.97799" lon="5.84065">
        <ele>1779.1</ele>
        <time>2012-10-13T08:00:24Z</time>
      </trkpt>
      <trkpt lat="44.97803" lon="5.84068">
        <ele>1780.5</ele>
        <time>2012-10-13T08:00:29Z</time>
      </trkpt>
      <trkpt lat="44.97807" lon="5.84071">
        <ele>1781.9</ele>
        <time>2012-10-13T08:00:34Z</time>
      </trkpt>
      <trkpt lat="44.97811" lon="5.84076">
        <ele>1782.9</ele>
        <time>2012-10-13T08:00:39Z</time>
      </trkpt>
      <trkpt lat="44.97816" lon="5.84078">
        <ele>1784.8</ele>
        <time>2012-10-13T08:00:44Z</time>
      </trkpt>
      <trkpt lat="44.9782" lon="5.8408">
        <ele>1786.7</ele>
        <time>2012-10-13T08:00:49Z</time>
      </trkpt>
      <trkpt lat="44.97824" lon="5.84081">
        <ele>1788.2</ele>
        <time>2012-10-13T08:00:54Z</time>
      </trkpt>
      <trkpt lat="44.97829" lon="5.84083">
        <ele>1789.6</ele>
        <time>2012-10-13T08:00:59Z</time>
      </trkpt>
      <trkpt lat="44.97833" lon="5.84084">
        <ele>1791.6</ele>
        <time>2012-10-13T08:01:04Z</time>
      </trkpt>
      <trkpt lat="44.97837" lon="5.84086">
        <ele>1792.5</ele>
        <time>2012-10-13T08:01:09Z</time>
      </trkpt>
      <trkpt lat="44.97842" lon="5.84089">
        <ele>1793</ele>
        <time>2012-10-13T08:01:14Z</time>
      </trkpt>
      <trkpt lat="44.97847" lon="5.84094">
        <ele>1792.5</ele>
        <time>2012-10-13T08:01:19Z</time>
      </trkpt>
      <trkpt lat="44.97851" lon="5.84097">
        <ele>1792.5</ele>
        <time>2012-10-13T08:01:24Z</time>
      </trkpt>
      <trkpt lat="44.97856" lon="5.841">
        <ele>1793.5</ele>
        <time>2012-10-13T08:01:29Z</time>
      </trkpt>
      <trkpt lat="44.9786" lon="5.84103">
        <ele>1794</ele>
        <time>2012-10-13T08:01:34Z</time>
      </trkpt>
      <trkpt lat="44.97865" lon="5.84105">
        <ele>1794.4</ele>
        <time>2012-10-13T08:01:39Z</time>
      </trkpt>
      <trkpt lat="44.97869" lon="5.84106">
        <ele>1794.4</ele>
        <time>2012-10-13T08:01:44Z</time>
      </trkpt>
      <trkpt lat="44.97873" lon="5.84109">
        <ele>1795.9</ele>
        <time>2012-10-13T08:01:49Z</time>
      </trkpt>
      <trkpt lat="44.97878" lon="5.8411">
        <ele>1796.4</ele>
        <time>2012-10-13T08:01:54Z</time>
      </trkpt>
      <trkpt lat="44.97883" lon="5.84112">
        <ele>1797.3</ele>
        <time>2012-10-13T08:01:59Z</time>
      </trkpt>
      <trkpt lat="44.97888" lon="5.84114">
        <ele>1798.8</ele>
        <time>2012-10-13T08:02:04Z</time>
      </trkpt>
      <trkpt lat="44.97892" lon="5.84116">
        <ele>1799.2</ele>
        <time>2012-10-13T08:02:09Z</time>
      </trkpt>
      <trkpt lat="44.97897" lon="5.8412">
        <ele>1800.2</ele>
        <time>2012-10-13T08:02:14Z</time>
      </trkpt>
      <trkpt lat="44.979" lon="5.84123">
        <ele>1800.7</ele>
        <time>2012-10-13T08:02:19Z</time>
      </trkpt>
      <trkpt lat="44.97904" lon="5.84127">
        <ele>1801.6</ele>
        <time>2012-10-13T08:02:24Z</time>
      </trkpt>
      <trkpt lat="44.97908" lon="5.8413">
        <ele>1802.6</ele>
        <time>2012-10-13T08:02:29Z</time>
      </trkpt>
      <trkpt lat="44.97912" lon="5.84135">
        <ele>1803.1</ele>
        <time>2012-10-13T08:02:34Z</time>
      </trkpt>
      <trkpt lat="44.97916" lon="5.84138">
        <ele>1804.1</ele>
        <time>2012-10-13T08:02:39Z</time>
      </trkpt>
      <trkpt lat="44.97921" lon="5.84141">
        <ele>1804.5</ele>
        <time>2012-10-13T08:02:44Z</time>
      </trkpt>
      <trkpt lat="44.97925" lon="5.84144">
        <ele>1805.5</ele>
        <time>2012-10-13T08:02:49Z</time>
      </trkpt>
      <trkpt lat="44.97929" lon="5.84147">
        <ele>1806</ele>
        <time>2012-10-13T08:02:54Z</time>
      </trkpt>
      <trkpt lat="44.97933" lon="5.84151">
        <ele>1807.4</ele>
        <time>2012-10-13T08:02:59Z</time>
      </trkpt>
      <trkpt lat="44.97938" lon="5.84153">
        <ele>1808.4</ele>
        <time>2012-10-13T08:03:04Z</time>
      </trkpt>
      <trkpt lat="44.97944" lon="5.84155">
        <ele>1809.3</ele>
        <time>2012-10-13T08:03:09Z</time>
      </trkpt>
      <trkpt lat="44.97951" lon="5.84155">
        <ele>1809.8</ele>
        <time>2012-10-13T08:03:14Z</time>
      </trkpt>
      <trkpt lat="44.97958" lon="5.84153">
        <ele>1810.3</ele>
        <time>2012-10-13T08:03:19Z</time>
      </trkpt>
      <trkpt lat="44.97963" lon="5.84146">
        <ele>1808.9</ele>
        <time>2012-10-13T08:03:24Z</time>
      </trkpt>
      <trkpt lat="44.9797" lon="5.84146">
        <ele>1808.9</ele>
        <time>2012-10-13T08:03:29Z</time>
      </trkpt>
      <trkpt lat="44.97977" lon="5.84148">
        <ele>1808.9</ele>
        <time>2012-10-13T08:03:34Z</time>
      </trkpt>
      <trkpt lat="44.97982" lon="5.8415">
        <ele>1808.4</ele>
        <time>2012-10-13T08:03:39Z</time>
      </trkpt>
      <trkpt lat="44.97985" lon="5.84156">
        <ele>1809.3</ele>
        <time>2012-10-13T08:03:44Z</time>
      </trkpt>
      <trkpt lat="44.97984" lon="5.84164">
        <ele>1811.3</ele>
        <time>2012-10-13T08:03:49Z</time>
      </trkpt>
      <trkpt lat="44.97984" lon="5.84169">
        <ele>1812.2</ele>
        <time>2012-10-13T08:03:54Z</time>
      </trkpt>
      <trkpt lat="44.97988" lon="5.84173">
        <ele>1813.7</ele>
        <time>2012-10-13T08:03:59Z</time>
      </trkpt>
      <trkpt lat="44.97992" lon="5.84175">
        <ele>1815.6</ele>
        <time>2012-10-13T08:04:04Z</time>
      </trkpt>
      <trkpt lat="44.97996" lon="5.84176">
        <ele>1818</ele>
        <time>2012-10-13T08:04:09Z</time>
      </trkpt>
      <trkpt lat="44.98002" lon="5.84173">
        <ele>1819.9</ele>
        <time>2012-10-13T08:04:14Z</time>
      </trkpt>
      <trkpt lat="44.98006" lon="5.84168">
        <ele>1821.4</ele>
        <time>2012-10-13T08:04:19Z</time>
      </trkpt>
      <trkpt lat="44.98011" lon="5.84168">
        <ele>1821.8</ele>
        <time>2012-10-13T08:04:24Z</time>
      </trkpt>
      <trkpt lat="44.98016" lon="5.84171">
        <ele>1822.8</ele>
        <time>2012-10-13T08:04:29Z</time>
      </trkpt>
      <trkpt lat="44.9802" lon="5.84175">
        <ele>1823.8</ele>
        <time>2012-10-13T08:04:34Z</time>
      </trkpt>
      <trkpt lat="44.98026" lon="5.84179">
        <ele>1824.2</ele>
        <time>2012-10-13T08:04:39Z</time>
      </trkpt>
      <trkpt lat="44.98032" lon="5.84181">
        <ele>1825.7</ele>
        <time>2012-10-13T08:04:44Z</time>
      </trkpt>
      <trkpt lat="44.98037" lon="5.84185">
        <ele>1826.2</ele>
        <time>2012-10-13T08:04:49Z</time>
      </trkpt>
      <trkpt lat="44.98041" lon="5.84188">
        <ele>1826.6</ele>
        <time>2012-10-13T08:04:54Z</time>
      </trkpt>
      <trkpt lat="44.98045" lon="5.84191">
        <ele>1828.1</ele>
        <time>2012-10-13T08:04:59Z</time>
      </trkpt>
      <trkpt lat="44.98049" lon="5.84194">
        <ele>1829</ele>
        <time>2012-10-13T08:05:04Z</time>
      </trkpt>
      <trkpt lat="44.98052" lon="5.84197">
        <ele>1830.5</ele>
        <time>2012-10-13T08:05:09Z</time>
      </trkpt>
      <trkpt lat="44.98057" lon="5.84198">
        <ele>1831.9</ele>
        <time>2012-10-13T08:05:14Z</time>
      </trkpt>
      <trkpt lat="44.98063" lon="5.842">
        <ele>1833.4</ele>
        <time>2012-10-13T08:05:19Z</time>
      </trkpt>
      <trkpt lat="44.98067" lon="5.84204">
        <ele>1834.3</ele>
        <time>2012-10-13T08:05:24Z</time>
      </trkpt>
      <trkpt lat="44.98072" lon="5.84206">
        <ele>1834.8</ele>
        <time>2012-10-13T08:05:29Z</time>
      </trkpt>
      <trkpt lat="44.98077" lon="5.84209">
        <ele>1835.8</ele>
        <time>2012-10-13T08:05:34Z</time>
      </trkpt>
      <trkpt lat="44.9808" lon="5.84216">
        <ele>1836.7</ele>
        <time>2012-10-13T08:05:39Z</time>
      </trkpt>
      <trkpt lat="44.98084" lon="5.84219">
        <ele>1837.7</ele>
        <time>2012-10-13T08:05:44Z</time>
      </trkpt>
      <trkpt lat="44.98087" lon="5.84224">
        <ele>1839.6</ele>
        <time>2012-10-13T08:05:49Z</time>
      </trkpt>
      <trkpt lat="44.9809" lon="5.84228">
        <ele>1842.5</ele>
        <time>2012-10-13T08:05:54Z</time>
      </trkpt>
      <trkpt lat="44.98092" lon="5.84236">
        <ele>1843.5</ele>
        <time>2012-10-13T08:05:59Z</time>
      </trkpt>
      <trkpt lat="44.98097" lon="5.84234">
        <ele>1844.9</ele>
        <time>2012-10-13T08:06:04Z</time>
      </trkpt>
      <trkpt lat="44.98101" lon="5.84232">
        <ele>1846.3</ele>
        <time>2012-10-13T08:06:09Z</time>
      </trkpt>
      <trkpt lat="44.98106" lon="5.84229">
        <ele>1846.3</ele>
        <time>2012-10-13T08:06:14Z</time>
      </trkpt>
      <trkpt lat="44.9811" lon="5.84233">
        <ele>1847.3</ele>
        <time>2012-10-13T08:06:19Z</time>
      </trkpt>
      <trkpt lat="44.98111" lon="5.84238">
        <ele>1849.2</ele>
        <time>2012-10-13T08:06:24Z</time>
      </trkpt>
      <trkpt lat="44.98112" lon="5.84244">
        <ele>1850.2</ele>
        <time>2012-10-13T08:06:29Z</time>
      </trkpt>
      <trkpt lat="44.98113" lon="5.84248">
        <ele>1851.2</ele>
        <time>2012-10-13T08:06:34Z</time>
      </trkpt>
      <trkpt lat="44.98115" lon="5.84253">
        <ele>1852.6</ele>
        <time>2012-10-13T08:06:39Z</time>
      </trkpt>
      <trkpt lat="44.98115" lon="5.84259">
        <ele>1854</ele>
        <time>2012-10-13T08:06:44Z</time>
      </trkpt>
      <trkpt lat="44.98116" lon="5.84265">
        <ele>1855</ele>
        <time>2012-10-13T08:06:49Z</time>
      </trkpt>
      <trkpt lat="44.9812" lon="5.84267">
        <ele>1856.9</ele>
        <time>2012-10-13T08:06:54Z</time>
      </trkpt>
      <trkpt lat="44.98124" lon="5.84269">
        <ele>1856.9</ele>
        <time>2012-10-13T08:06:59Z</time>
      </trkpt>
      <trkpt lat="44.98129" lon="5.84269">
        <ele>1857.4</ele>
        <time>2012-10-13T08:07:04Z</time>
      </trkpt>
      <trkpt lat="44.98132" lon="5.8427">
        <ele>1858.8</ele>
        <time>2012-10-13T08:07:09Z</time>
      </trkpt>
      <trkpt lat="44.98134" lon="5.84276">
        <ele>1860.3</ele>
        <time>2012-10-13T08:07:14Z</time>
      </trkpt>
      <trkpt lat="44.98134" lon="5.84282">
        <ele>1861.7</ele>
        <time>2012-10-13T08:07:19Z</time>
      </trkpt>
      <trkpt lat="44.98133" lon="5.84287">
        <ele>1862.7</ele>
        <time>2012-10-13T08:07:24Z</time>
      </trkpt>
      <trkpt lat="44.98133" lon="5.84292">
        <ele>1863.7</ele>
        <time>2012-10-13T08:07:29Z</time>
      </trkpt>
      <trkpt lat="44.9813" lon="5.84295">
        <ele>1865.1</ele>
        <time>2012-10-13T08:07:34Z</time>
      </trkpt>
      <trkpt lat="44.98129" lon="5.84301">
        <ele>1866.1</ele>
        <time>2012-10-13T08:07:39Z</time>
      </trkpt>
      <trkpt lat="44.98129" lon="5.84307">
        <ele>1867</ele>
        <time>2012-10-13T08:07:44Z</time>
      </trkpt>
      <trkpt lat="44.98126" lon="5.84313">
        <ele>1867.5</ele>
        <time>2012-10-13T08:07:49Z</time>
      </trkpt>
      <trkpt lat="44.98122" lon="5.84319">
        <ele>1868.5</ele>
        <time>2012-10-13T08:07:54Z</time>
      </trkpt>
      <trkpt lat="44.98119" lon="5.84325">
        <ele>1868.9</ele>
        <time>2012-10-13T08:07:59Z</time>
      </trkpt>
      <trkpt lat="44.98118" lon="5.84331">
        <ele>1869.9</ele>
        <time>2012-10-13T08:08:04Z</time>
      </trkpt>
      <trkpt lat="44.98118" lon="5.84336">
        <ele>1871.3</ele>
        <time>2012-10-13T08:08:09Z</time>
      </trkpt>
      <trkpt lat="44.98119" lon="5.8434">
        <ele>1871.8</ele>
        <time>2012-10-13T08:08:14Z</time>
      </trkpt>
      <trkpt lat="44.9812" lon="5.84344">
        <ele>1871.8</ele>
        <time>2012-10-13T08:08:19Z</time>
      </trkpt>
      <trkpt lat="44.9812" lon="5.84344">
        <ele>1871.8</ele>
        <time>2012-10-13T08:08:24Z</time>
      </trkpt>
      <trkpt lat="44.98121" lon="5.84344">
        <ele>1872.8</ele>
        <time>2012-10-13T08:08:29Z</time>
      </trkpt>
      <trkpt lat="44.98123" lon="5.84346">
        <ele>1873.3</ele>
        <time>2012-10-13T08:08:34Z</time>
      </trkpt>
      <trkpt lat="44.98125" lon="5.84349">
        <ele>1874.2</ele>
        <time>2012-10-13T08:08:39Z</time>
      </trkpt>
      <trkpt lat="44.98128" lon="5.8435">
        <ele>1875.2</ele>
        <time>2012-10-13T08:08:44Z</time>
      </trkpt>
      <trkpt lat="44.98131" lon="5.84351">
        <ele>1876.2</ele>
        <time>2012-10-13T08:08:49Z</time>
      </trkpt>
      <trkpt lat="44.98133" lon="5.84354">
        <ele>1877.1</ele>
        <time>2012-10-13T08:08:54Z</time>
      </trkpt>
      <trkpt lat="44.98135" lon="5.84356">
        <ele>1878.6</ele>
        <time>2012-10-13T08:08:59Z</time>
      </trkpt>
      <trkpt lat="44.98137" lon="5.84359">
        <ele>1878.6</ele>
        <time>2012-10-13T08:09:04Z</time>
      </trkpt>
      <trkpt lat="44.98141" lon="5.84357">
        <ele>1880</ele>
        <time>2012-10-13T08:09:09Z</time>
      </trkpt>
      <trkpt lat="44.98145" lon="5.84357">
        <ele>1881.4</ele>
        <time>2012-10-13T08:09:14Z</time>
      </trkpt>
      <trkpt lat="44.9815" lon="5.84357">
        <ele>1881.9</ele>
        <time>2012-10-13T08:09:19Z</time>
      </trkpt>
      <trkpt lat="44.98154" lon="5.84358">
        <ele>1882.9</ele>
        <time>2012-10-13T08:09:24Z</time>
      </trkpt>
      <trkpt lat="44.98157" lon="5.84363">
        <ele>1883.8</ele>
        <time>2012-10-13T08:09:29Z</time>
      </trkpt>
      <trkpt lat="44.98157" lon="5.84368">
        <ele>1885.3</ele>
        <time>2012-10-13T08:09:34Z</time>
      </trkpt>
      <trkpt lat="44.98159" lon="5.8437">
        <ele>1885.8</ele>
        <time>2012-10-13T08:09:39Z</time>
      </trkpt>
      <trkpt lat="44.98163" lon="5.84368">
        <ele>1886.7</ele>
        <time>2012-10-13T08:09:44Z</time>
      </trkpt>
      <trkpt lat="44.98166" lon="5.84368">
        <ele>1888.2</ele>
        <time>2012-10-13T08:09:49Z</time>
      </trkpt>
      <trkpt lat="44.98169" lon="5.8437">
        <ele>1889.1</ele>
        <time>2012-10-13T08:09:54Z</time>
      </trkpt>
      <trkpt lat="44.98171" lon="5.84373">
        <ele>1890.1</ele>
        <time>2012-10-13T08:09:59Z</time>
      </trkpt>
      <trkpt lat="44.98172" lon="5.84376">
        <ele>1890.1</ele>
        <time>2012-10-13T08:10:04Z</time>
      </trkpt>
      <trkpt lat="44.98172" lon="5.84376">
        <ele>1890.1</ele>
        <time>2012-10-13T08:10:09Z</time>
      </trkpt>
      <trkpt lat="44.98172" lon="5.84376">
        <ele>1890.1</ele>
        <time>2012-10-13T08:10:14Z</time>
      </trkpt>
      <trkpt lat="44.98172" lon="5.84376">
        <ele>1890.6</ele>
        <time>2012-10-13T08:10:19Z</time>
      </trkpt>
      <trkpt lat="44.98172" lon="5.84376">
        <ele>1890.6</ele>
        <time>2012-10-13T08:10:24Z</time>
      </trkpt>
      <trkpt lat="44.98172" lon="5.84376">
        <ele>1890.6</ele>
        <time>2012-10-13T08:10:29Z</time>
      </trkpt>
      <trkpt lat="44.98172" lon="5.84376">
        <ele>1890.6</ele>
        <time>2012-10-13T08:10:34Z</time>
      </trkpt>
      <trkpt lat="44.98172" lon="5.84376">
        <ele>1890.6</ele>
        <time>2012-10-13T08:10:39Z</time>
      </trkpt>
      <trkpt lat="44.98173" lon="5.84379">
        <ele>1890.6</ele>
        <time>2012-10-13T08:10:44Z</time>
      </trkpt>
      <trkpt lat="44.98173" lon="5.84385">
        <ele>1890.6</ele>
        <time>2012-10-13T08:10:49Z</time>
      </trkpt>
      <trkpt lat="44.98172" lon="5.84389">
        <ele>1891.5</ele>
        <time>2012-10-13T08:10:54Z</time>
      </trkpt>
      <trkpt lat="44.98171" lon="5.84393">
        <ele>1892.5</ele>
        <time>2012-10-13T08:10:59Z</time>
      </trkpt>
      <trkpt lat="44.98173" lon="5.84397">
        <ele>1893.9</ele>
        <time>2012-10-13T08:11:04Z</time>
      </trkpt>
      <trkpt lat="44.98174" lon="5.84401">
        <ele>1895.4</ele>
        <time>2012-10-13T08:11:09Z</time>
      </trkpt>
      <trkpt lat="44.98175" lon="5.84405">
        <ele>1896.3</ele>
        <time>2012-10-13T08:11:14Z</time>
      </trkpt>
      <trkpt lat="44.98177" lon="5.84409">
        <ele>1897.3</ele>
        <time>2012-10-13T08:11:19Z</time>
      </trkpt>
      <trkpt lat="44.98179" lon="5.84412">
        <ele>1898.7</ele>
        <time>2012-10-13T08:11:24Z</time>
      </trkpt>
      <trkpt lat="44.98181" lon="5.84416">
        <ele>1900.2</ele>
        <time>2012-10-13T08:11:29Z</time>
      </trkpt>
      <trkpt lat="44.98184" lon="5.8442">
        <ele>1901.6</ele>
        <time>2012-10-13T08:11:34Z</time>
      </trkpt>
      <trkpt lat="44.98185" lon="5.84424">
        <ele>1903.1</ele>
        <time>2012-10-13T08:11:39Z</time>
      </trkpt>
      <trkpt lat="44.98184" lon="5.8443">
        <ele>1904.5</ele>
        <time>2012-10-13T08:11:44Z</time>
      </trkpt>
      <trkpt lat="44.98185" lon="5.84434">
        <ele>1906</ele>
        <time>2012-10-13T08:11:49Z</time>
      </trkpt>
      <trkpt lat="44.98188" lon="5.84439">
        <ele>1907.4</ele>
        <time>2012-10-13T08:11:54Z</time>
      </trkpt>
      <trkpt lat="44.98191" lon="5.84441">
        <ele>1908.4</ele>
        <time>2012-10-13T08:11:59Z</time>
      </trkpt>
      <trkpt lat="44.98195" lon="5.84445">
        <ele>1909.3</ele>
        <time>2012-10-13T08:12:04Z</time>
      </trkpt>
      <trkpt lat="44.98197" lon="5.84449">
        <ele>1910.8</ele>
        <time>2012-10-13T08:12:09Z</time>
      </trkpt>
      <trkpt lat="44.982" lon="5.84453">
        <ele>1912.2</ele>
        <time>2012-10-13T08:12:14Z</time>
      </trkpt>
      <trkpt lat="44.982" lon="5.84457">
        <ele>1912.7</ele>
        <time>2012-10-13T08:12:19Z</time>
      </trkpt>
      <trkpt lat="44.982" lon="5.84462">
        <ele>1913.2</ele>
        <time>2012-10-13T08:12:24Z</time>
      </trkpt>
      <trkpt lat="44.98203" lon="5.84465">
        <ele>1913.6</ele>
        <time>2012-10-13T08:12:29Z</time>
      </trkpt>
      <trkpt lat="44.98205" lon="5.84469">
        <ele>1914.1</ele>
        <time>2012-10-13T08:12:34Z</time>
      </trkpt>
      <trkpt lat="44.98208" lon="5.84473">
        <ele>1914.6</ele>
        <time>2012-10-13T08:12:39Z</time>
      </trkpt>
      <trkpt lat="44.9821" lon="5.84476">
        <ele>1916</ele>
        <time>2012-10-13T08:12:44Z</time>
      </trkpt>
      <trkpt lat="44.9821" lon="5.84476">
        <ele>1916</ele>
        <time>2012-10-13T08:12:49Z</time>
      </trkpt>
      <trkpt lat="44.9821" lon="5.84476">
        <ele>1916</ele>
        <time>2012-10-13T08:12:54Z</time>
      </trkpt>
      <trkpt lat="44.9821" lon="5.84476">
        <ele>1916</ele>
        <time>2012-10-13T08:12:59Z</time>
      </trkpt>
      <trkpt lat="44.9821" lon="5.84476">
        <ele>1916</ele>
        <time>2012-10-13T08:13:04Z</time>
      </trkpt>
      <trkpt lat="44.9821" lon="5.84476">
        <ele>1916</ele>
        <time>2012-10-13T08:13:09Z</time>
      </trkpt>
      <trkpt lat="44.9821" lon="5.84476">
        <ele>1916</ele>
        <time>2012-10-13T08:13:14Z</time>
      </trkpt>
      <trkpt lat="44.9821" lon="5.84476">
        <ele>1916</ele>
        <time>2012-10-13T08:13:19Z</time>
      </trkpt>
      <trkpt lat="44.9821" lon="5.84477">
        <ele>1916</ele>
        <time>2012-10-13T08:13:24Z</time>
      </trkpt>
      <trkpt lat="44.98212" lon="5.84483">
        <ele>1916</ele>
        <time>2012-10-13T08:13:29Z</time>
      </trkpt>
      <trkpt lat="44.98214" lon="5.84491">
        <ele>1916</ele>
        <time>2012-10-13T08:13:34Z</time>
      </trkpt>
      <trkpt lat="44.98215" lon="5.84499">
        <ele>1916</ele>
        <time>2012-10-13T08:13:39Z</time>
      </trkpt>
      <trkpt lat="44.98214" lon="5.84507">
        <ele>1916</ele>
        <time>2012-10-13T08:13:44Z</time>
      </trkpt>
      <trkpt lat="44.98214" lon="5.84515">
        <ele>1916</ele>
        <time>2012-10-13T08:13:49Z</time>
      </trkpt>
      <trkpt lat="44.98217" lon="5.84521">
        <ele>1916.5</ele>
        <time>2012-10-13T08:13:54Z</time>
      </trkpt>
      <trkpt lat="44.9822" lon="5.84529">
        <ele>1916</ele>
        <time>2012-10-13T08:13:59Z</time>
      </trkpt>
      <trkpt lat="44.98224" lon="5.84538">
        <ele>1916</ele>
        <time>2012-10-13T08:14:04Z</time>
      </trkpt>
      <trkpt lat="44.98226" lon="5.84548">
        <ele>1916</ele>
        <time>2012-10-13T08:14:09Z</time>
      </trkpt>
      <trkpt lat="44.98225" lon="5.84557">
        <ele>1916.5</ele>
        <time>2012-10-13T08:14:14Z</time>
      </trkpt>
      <trkpt lat="44.98228" lon="5.84563">
        <ele>1917</ele>
        <time>2012-10-13T08:14:19Z</time>
      </trkpt>
      <trkpt lat="44.9823" lon="5.84571">
        <ele>1917.5</ele>
        <time>2012-10-13T08:14:24Z</time>
      </trkpt>
      <trkpt lat="44.98231" lon="5.84579">
        <ele>1918</ele>
        <time>2012-10-13T08:14:29Z</time>
      </trkpt>
      <trkpt lat="44.98233" lon="5.84587">
        <ele>1918</ele>
        <time>2012-10-13T08:14:34Z</time>
      </trkpt>
      <trkpt lat="44.98232" lon="5.84595">
        <ele>1918.4</ele>
        <time>2012-10-13T08:14:39Z</time>
      </trkpt>
      <trkpt lat="44.98231" lon="5.84598">
        <ele>1918.4</ele>
        <time>2012-10-13T08:14:44Z</time>
      </trkpt>
      <trkpt lat="44.98235" lon="5.84594">
        <ele>1918</ele>
        <time>2012-10-13T08:14:49Z</time>
      </trkpt>
      <trkpt lat="44.98243" lon="5.84595">
        <ele>1917</ele>
        <time>2012-10-13T08:14:54Z</time>
      </trkpt>
      <trkpt lat="44.9825" lon="5.84598">
        <ele>1917</ele>
        <time>2012-10-13T08:14:59Z</time>
      </trkpt>
      <trkpt lat="44.98257" lon="5.84597">
        <ele>1917.5</ele>
        <time>2012-10-13T08:15:04Z</time>
      </trkpt>
      <trkpt lat="44.98263" lon="5.84592">
        <ele>1917.5</ele>
        <time>2012-10-13T08:15:09Z</time>
      </trkpt>
      <trkpt lat="44.9827" lon="5.84588">
        <ele>1916.5</ele>
        <time>2012-10-13T08:15:14Z</time>
      </trkpt>
      <trkpt lat="44.98275" lon="5.84583">
        <ele>1916.5</ele>
        <time>2012-10-13T08:15:19Z</time>
      </trkpt>
      <trkpt lat="44.98282" lon="5.84577">
        <ele>1917</ele>
        <time>2012-10-13T08:15:24Z</time>
      </trkpt>
      <trkpt lat="44.98287" lon="5.84572">
        <ele>1917.5</ele>
        <time>2012-10-13T08:15:29Z</time>
      </trkpt>
      <trkpt lat="44.98294" lon="5.84568">
        <ele>1918.9</ele>
        <time>2012-10-13T08:15:34Z</time>
      </trkpt>
      <trkpt lat="44.98299" lon="5.84564">
        <ele>1919.9</ele>
        <time>2012-10-13T08:15:39Z</time>
      </trkpt>
      <trkpt lat="44.98302" lon="5.84558">
        <ele>1920.4</ele>
        <time>2012-10-13T08:15:44Z</time>
      </trkpt>
      <trkpt lat="44.98307" lon="5.84557">
        <ele>1920.4</ele>
        <time>2012-10-13T08:15:49Z</time>
      </trkpt>
      <trkpt lat="44.98311" lon="5.84555">
        <ele>1920.9</ele>
        <time>2012-10-13T08:15:54Z</time>
      </trkpt>
      <trkpt lat="44.98317" lon="5.84554">
        <ele>1919.9</ele>
        <time>2012-10-13T08:15:59Z</time>
      </trkpt>
      <trkpt lat="44.98323" lon="5.84558">
        <ele>1918.4</ele>
        <time>2012-10-13T08:16:04Z</time>
      </trkpt>
      <trkpt lat="44.9833" lon="5.84558">
        <ele>1918</ele>
        <time>2012-10-13T08:16:09Z</time>
      </trkpt>
      <trkpt lat="44.98336" lon="5.84558">
        <ele>1918</ele>
        <time>2012-10-13T08:16:14Z</time>
      </trkpt>
      <trkpt lat="44.98339" lon="5.84558">
        <ele>1918</ele>
        <time>2012-10-13T08:16:19Z</time>
      </trkpt>
      <trkpt lat="44.98344" lon="5.84562">
        <ele>1917</ele>
        <time>2012-10-13T08:16:24Z</time>
      </trkpt>
      <trkpt lat="44.98348" lon="5.84568">
        <ele>1917</ele>
        <time>2012-10-13T08:16:29Z</time>
      </trkpt>
      <trkpt lat="44.98353" lon="5.84574">
        <ele>1917</ele>
        <time>2012-10-13T08:16:34Z</time>
      </trkpt>
      <trkpt lat="44.98359" lon="5.84575">
        <ele>1917</ele>
        <time>2012-10-13T08:16:39Z</time>
      </trkpt>
      <trkpt lat="44.98365" lon="5.84575">
        <ele>1916.5</ele>
        <time>2012-10-13T08:16:44Z</time>
      </trkpt>
      <trkpt lat="44.98371" lon="5.84578">
        <ele>1916</ele>
        <time>2012-10-13T08:16:49Z</time>
      </trkpt>
      <trkpt lat="44.98378" lon="5.84578">
        <ele>1914.6</ele>
        <time>2012-10-13T08:16:54Z</time>
      </trkpt>
      <trkpt lat="44.98384" lon="5.84582">
        <ele>1913.6</ele>
        <time>2012-10-13T08:16:59Z</time>
      </trkpt>
      <trkpt lat="44.9839" lon="5.84586">
        <ele>1912.7</ele>
        <time>2012-10-13T08:17:04Z</time>
      </trkpt>
      <trkpt lat="44.98396" lon="5.84587">
        <ele>1912.2</ele>
        <time>2012-10-13T08:17:09Z</time>
      </trkpt>
      <trkpt lat="44.984" lon="5.84591">
        <ele>1911.7</ele>
        <time>2012-10-13T08:17:14Z</time>
      </trkpt>
      <trkpt lat="44.98402" lon="5.84592">
        <ele>1911.2</ele>
        <time>2012-10-13T08:17:19Z</time>
      </trkpt>
      <trkpt lat="44.98405" lon="5.84594">
        <ele>1910.8</ele>
        <time>2012-10-13T08:17:24Z</time>
      </trkpt>
      <trkpt lat="44.98411" lon="5.84597">
        <ele>1909.8</ele>
        <time>2012-10-13T08:17:29Z</time>
      </trkpt>
      <trkpt lat="44.98418" lon="5.84599">
        <ele>1908.4</ele>
        <time>2012-10-13T08:17:34Z</time>
      </trkpt>
      <trkpt lat="44.98424" lon="5.846">
        <ele>1907.4</ele>
        <time>2012-10-13T08:17:39Z</time>
      </trkpt>
      <trkpt lat="44.98431" lon="5.846">
        <ele>1906.9</ele>
        <time>2012-10-13T08:17:44Z</time>
      </trkpt>
      <trkpt lat="44.98437" lon="5.84599">
        <ele>1906.9</ele>
        <time>2012-10-13T08:17:49Z</time>
      </trkpt>
      <trkpt lat="44.98443" lon="5.84597">
        <ele>1906.4</ele>
        <time>2012-10-13T08:17:54Z</time>
      </trkpt>
      <trkpt lat="44.9845" lon="5.84593">
        <ele>1906</ele>
        <time>2012-10-13T08:17:59Z</time>
      </trkpt>
      <trkpt lat="44.98456" lon="5.84587">
        <ele>1905.5</ele>
        <time>2012-10-13T08:18:04Z</time>
      </trkpt>
      <trkpt lat="44.98462" lon="5.84581">
        <ele>1905</ele>
        <time>2012-10-13T08:18:09Z</time>
      </trkpt>
      <trkpt lat="44.98465" lon="5.84579">
        <ele>1905</ele>
        <time>2012-10-13T08:18:14Z</time>
      </trkpt>
      <trkpt lat="44.98465" lon="5.84579">
        <ele>1905</ele>
        <time>2012-10-13T08:18:19Z</time>
      </trkpt>
      <trkpt lat="44.98465" lon="5.84579">
        <ele>1905</ele>
        <time>2012-10-13T08:18:24Z</time>
      </trkpt>
      <trkpt lat="44.98465" lon="5.84579">
        <ele>1905</ele>
        <time>2012-10-13T08:18:29Z</time>
      </trkpt>
      <trkpt lat="44.98465" lon="5.84579">
        <ele>1905</ele>
        <time>2012-10-13T08:18:34Z</time>
      </trkpt>
      <trkpt lat="44.98465" lon="5.84579">
        <ele>1905</ele>
        <time>2012-10-13T08:18:39Z</time>
      </trkpt>
      <trkpt lat="44.98465" lon="5.84579">
        <ele>1905</ele>
        <time>2012-10-13T08:18:44Z</time>
      </trkpt>
      <trkpt lat="44.98469" lon="5.84576">
        <ele>1905.5</ele>
        <time>2012-10-13T08:18:49Z</time>
      </trkpt>
      <trkpt lat="44.98476" lon="5.84574">
        <ele>1905.5</ele>
        <time>2012-10-13T08:18:54Z</time>
      </trkpt>
      <trkpt lat="44.98482" lon="5.84576">
        <ele>1905.5</ele>
        <time>2012-10-13T08:18:59Z</time>
      </trkpt>
      <trkpt lat="44.98488" lon="5.84576">
        <ele>1905</ele>
        <time>2012-10-13T08:19:04Z</time>
      </trkpt>
      <trkpt lat="44.98493" lon="5.84578">
        <ele>1904</ele>
        <time>2012-10-13T08:19:09Z</time>
      </trkpt>
      <trkpt lat="44.98497" lon="5.84579">
        <ele>1903.1</ele>
        <time>2012-10-13T08:19:14Z</time>
      </trkpt>
      <trkpt lat="44.98501" lon="5.84582">
        <ele>1901.6</ele>
        <time>2012-10-13T08:19:19Z</time>
      </trkpt>
      <trkpt lat="44.98508" lon="5.84585">
        <ele>1900.7</ele>
        <time>2012-10-13T08:19:24Z</time>
      </trkpt>
      <trkpt lat="44.98515" lon="5.84586">
        <ele>1901.1</ele>
        <time>2012-10-13T08:19:29Z</time>
      </trkpt>
      <trkpt lat="44.98521" lon="5.84584">
        <ele>1902.1</ele>
        <time>2012-10-13T08:19:34Z</time>
      </trkpt>
      <trkpt lat="44.98523" lon="5.84575">
        <ele>1903.5</ele>
        <time>2012-10-13T08:19:39Z</time>
      </trkpt>
      <trkpt lat="44.9853" lon="5.84576">
        <ele>1905.5</ele>
        <time>2012-10-13T08:19:44Z</time>
      </trkpt>
      <trkpt lat="44.98535" lon="5.84579">
        <ele>1906.4</ele>
        <time>2012-10-13T08:19:49Z</time>
      </trkpt>
      <trkpt lat="44.98541" lon="5.84583">
        <ele>1907.4</ele>
        <time>2012-10-13T08:19:54Z</time>
      </trkpt>
      <trkpt lat="44.98545" lon="5.84585">
        <ele>1908.4</ele>
        <time>2012-10-13T08:19:59Z</time>
      </trkpt>
      <trkpt lat="44.9855" lon="5.84588">
        <ele>1909.3</ele>
        <time>2012-10-13T08:20:04Z</time>
      </trkpt>
      <trkpt lat="44.98555" lon="5.84592">
        <ele>1910.3</ele>
        <time>2012-10-13T08:20:09Z</time>
      </trkpt>
      <trkpt lat="44.9856" lon="5.84595">
        <ele>1911.2</ele>
        <time>2012-10-13T08:20:14Z</time>
      </trkpt>
      <trkpt lat="44.98565" lon="5.84599">
        <ele>1912.7</ele>
        <time>2012-10-13T08:20:19Z</time>
      </trkpt>
      <trkpt lat="44.98569" lon="5.84602">
        <ele>1913.6</ele>
        <time>2012-10-13T08:20:24Z</time>
      </trkpt>
      <trkpt lat="44.98573" lon="5.84606">
        <ele>1915.1</ele>
        <time>2012-10-13T08:20:29Z</time>
      </trkpt>
      <trkpt lat="44.98578" lon="5.84609">
        <ele>1916.5</ele>
        <time>2012-10-13T08:20:34Z</time>
      </trkpt>
      <trkpt lat="44.98582" lon="5.84612">
        <ele>1917.5</ele>
        <time>2012-10-13T08:20:39Z</time>
      </trkpt>
      <trkpt lat="44.98586" lon="5.84615">
        <ele>1918.9</ele>
        <time>2012-10-13T08:20:44Z</time>
      </trkpt>
      <trkpt lat="44.98589" lon="5.84618">
        <ele>1920.4</ele>
        <time>2012-10-13T08:20:49Z</time>
      </trkpt>
      <trkpt lat="44.98592" lon="5.84623">
        <ele>1921.3</ele>
        <time>2012-10-13T08:20:54Z</time>
      </trkpt>
      <trkpt lat="44.98595" lon="5.84626">
        <ele>1922.8</ele>
        <time>2012-10-13T08:20:59Z</time>
      </trkpt>
      <trkpt lat="44.98598" lon="5.8463">
        <ele>1924.2</ele>
        <time>2012-10-13T08:21:04Z</time>
      </trkpt>
      <trkpt lat="44.98601" lon="5.84636">
        <ele>1925.2</ele>
        <time>2012-10-13T08:21:09Z</time>
      </trkpt>
      <trkpt lat="44.98605" lon="5.84641">
        <ele>1925.2</ele>
        <time>2012-10-13T08:21:14Z</time>
      </trkpt>
      <trkpt lat="44.98609" lon="5.84646">
        <ele>1925.7</ele>
        <time>2012-10-13T08:21:19Z</time>
      </trkpt>
      <trkpt lat="44.98611" lon="5.84652">
        <ele>1926.1</ele>
        <time>2012-10-13T08:21:24Z</time>
      </trkpt>
      <trkpt lat="44.98614" lon="5.84658">
        <ele>1926.6</ele>
        <time>2012-10-13T08:21:29Z</time>
      </trkpt>
      <trkpt lat="44.98617" lon="5.84664">
        <ele>1927.6</ele>
        <time>2012-10-13T08:21:34Z</time>
      </trkpt>
      <trkpt lat="44.98619" lon="5.84669">
        <ele>1929</ele>
        <time>2012-10-13T08:21:39Z</time>
      </trkpt>
      <trkpt lat="44.98622" lon="5.84674">
        <ele>1930.5</ele>
        <time>2012-10-13T08:21:44Z</time>
      </trkpt>
      <trkpt lat="44.98627" lon="5.84679">
        <ele>1931.4</ele>
        <time>2012-10-13T08:21:49Z</time>
      </trkpt>
      <trkpt lat="44.98632" lon="5.84682">
        <ele>1931.9</ele>
        <time>2012-10-13T08:21:54Z</time>
      </trkpt>
      <trkpt lat="44.98638" lon="5.84679">
        <ele>1932.4</ele>
        <time>2012-10-13T08:21:59Z</time>
      </trkpt>
      <trkpt lat="44.98645" lon="5.84675">
        <ele>1933.3</ele>
        <time>2012-10-13T08:22:04Z</time>
      </trkpt>
      <trkpt lat="44.9865" lon="5.84671">
        <ele>1933.8</ele>
        <time>2012-10-13T08:22:09Z</time>
      </trkpt>
      <trkpt lat="44.98655" lon="5.84666">
        <ele>1935.3</ele>
        <time>2012-10-13T08:22:14Z</time>
      </trkpt>
      <trkpt lat="44.9866" lon="5.84664">
        <ele>1936.2</ele>
        <time>2012-10-13T08:22:19Z</time>
      </trkpt>
      <trkpt lat="44.98665" lon="5.84665">
        <ele>1936.7</ele>
        <time>2012-10-13T08:22:24Z</time>
      </trkpt>
      <trkpt lat="44.98669" lon="5.84671">
        <ele>1937.7</ele>
        <time>2012-10-13T08:22:29Z</time>
      </trkpt>
      <trkpt lat="44.9867" lon="5.84679">
        <ele>1938.2</ele>
        <time>2012-10-13T08:22:34Z</time>
      </trkpt>
      <trkpt lat="44.98669" lon="5.84687">
        <ele>1939.1</ele>
        <time>2012-10-13T08:22:39Z</time>
      </trkpt>
      <trkpt lat="44.98669" lon="5.84694">
        <ele>1940.6</ele>
        <time>2012-10-13T08:22:44Z</time>
      </trkpt>
      <trkpt lat="44.98669" lon="5.84702">
        <ele>1941</ele>
        <time>2012-10-13T08:22:49Z</time>
      </trkpt>
      <trkpt lat="44.98669" lon="5.8471">
        <ele>1941.5</ele>
        <time>2012-10-13T08:22:54Z</time>
      </trkpt>
      <trkpt lat="44.98669" lon="5.84719">
        <ele>1941.5</ele>
        <time>2012-10-13T08:22:59Z</time>
      </trkpt>
      <trkpt lat="44.9867" lon="5.84728">
        <ele>1941.5</ele>
        <time>2012-10-13T08:23:04Z</time>
      </trkpt>
      <trkpt lat="44.9867" lon="5.84738">
        <ele>1941.5</ele>
        <time>2012-10-13T08:23:09Z</time>
      </trkpt>
      <trkpt lat="44.98669" lon="5.84746">
        <ele>1942</ele>
        <time>2012-10-13T08:23:14Z</time>
      </trkpt>
      <trkpt lat="44.98668" lon="5.84753">
        <ele>1943.4</ele>
        <time>2012-10-13T08:23:19Z</time>
      </trkpt>
      <trkpt lat="44.98668" lon="5.8476">
        <ele>1944.9</ele>
        <time>2012-10-13T08:23:24Z</time>
      </trkpt>
      <trkpt lat="44.98667" lon="5.84765">
        <ele>1945.8</ele>
        <time>2012-10-13T08:23:29Z</time>
      </trkpt>
      <trkpt lat="44.98666" lon="5.84771">
        <ele>1946.8</ele>
        <time>2012-10-13T08:23:34Z</time>
      </trkpt>
      <trkpt lat="44.98665" lon="5.84777">
        <ele>1947.3</ele>
        <time>2012-10-13T08:23:39Z</time>
      </trkpt>
      <trkpt lat="44.98665" lon="5.84785">
        <ele>1947.8</ele>
        <time>2012-10-13T08:23:44Z</time>
      </trkpt>
      <trkpt lat="44.98667" lon="5.84792">
        <ele>1949.2</ele>
        <time>2012-10-13T08:23:49Z</time>
      </trkpt>
      <trkpt lat="44.98667" lon="5.848">
        <ele>1950.2</ele>
        <time>2012-10-13T08:23:54Z</time>
      </trkpt>
      <trkpt lat="44.98668" lon="5.84806">
        <ele>1951.1</ele>
        <time>2012-10-13T08:23:59Z</time>
      </trkpt>
      <trkpt lat="44.98671" lon="5.84813">
        <ele>1952.6</ele>
        <time>2012-10-13T08:24:04Z</time>
      </trkpt>
      <trkpt lat="44.98673" lon="5.84819">
        <ele>1954</ele>
        <time>2012-10-13T08:24:09Z</time>
      </trkpt>
      <trkpt lat="44.98676" lon="5.84824">
        <ele>1955.5</ele>
        <time>2012-10-13T08:24:14Z</time>
      </trkpt>
      <trkpt lat="44.98679" lon="5.84829">
        <ele>1956.4</ele>
        <time>2012-10-13T08:24:19Z</time>
      </trkpt>
      <trkpt lat="44.98682" lon="5.84834">
        <ele>1956.9</ele>
        <time>2012-10-13T08:24:24Z</time>
      </trkpt>
      <trkpt lat="44.98683" lon="5.84838">
        <ele>1957.4</ele>
        <time>2012-10-13T08:24:29Z</time>
      </trkpt>
      <trkpt lat="44.98687" lon="5.84844">
        <ele>1958.3</ele>
        <time>2012-10-13T08:24:34Z</time>
      </trkpt>
      <trkpt lat="44.9869" lon="5.8485">
        <ele>1960.3</ele>
        <time>2012-10-13T08:24:39Z</time>
      </trkpt>
      <trkpt lat="44.98691" lon="5.84855">
        <ele>1961.2</ele>
        <time>2012-10-13T08:24:44Z</time>
      </trkpt>
      <trkpt lat="44.98692" lon="5.8486">
        <ele>1962.7</ele>
        <time>2012-10-13T08:24:49Z</time>
      </trkpt>
      <trkpt lat="44.98693" lon="5.84865">
        <ele>1964.6</ele>
        <time>2012-10-13T08:24:54Z</time>
      </trkpt>
      <trkpt lat="44.98694" lon="5.84869">
        <ele>1966.5</ele>
        <time>2012-10-13T08:24:59Z</time>
      </trkpt>
      <trkpt lat="44.98696" lon="5.84873">
        <ele>1968</ele>
        <time>2012-10-13T08:25:04Z</time>
      </trkpt>
      <trkpt lat="44.98696" lon="5.84877">
        <ele>1968.9</ele>
        <time>2012-10-13T08:25:09Z</time>
      </trkpt>
      <trkpt lat="44.98695" lon="5.84881">
        <ele>1969.9</ele>
        <time>2012-10-13T08:25:14Z</time>
      </trkpt>
      <trkpt lat="44.98694" lon="5.84884">
        <ele>1969.9</ele>
        <time>2012-10-13T08:25:19Z</time>
      </trkpt>
      <trkpt lat="44.98694" lon="5.84888">
        <ele>1970.4</ele>
        <time>2012-10-13T08:25:24Z</time>
      </trkpt>
      <trkpt lat="44.98693" lon="5.84892">
        <ele>1971.3</ele>
        <time>2012-10-13T08:25:29Z</time>
      </trkpt>
      <trkpt lat="44.98691" lon="5.84896">
        <ele>1972.3</ele>
        <time>2012-10-13T08:25:34Z</time>
      </trkpt>
      <trkpt lat="44.98689" lon="5.849">
        <ele>1973.7</ele>
        <time>2012-10-13T08:25:39Z</time>
      </trkpt>
      <trkpt lat="44.98688" lon="5.84904">
        <ele>1975.2</ele>
        <time>2012-10-13T08:25:44Z</time>
      </trkpt>
      <trkpt lat="44.98686" lon="5.84907">
        <ele>1976.1</ele>
        <time>2012-10-13T08:25:49Z</time>
      </trkpt>
      <trkpt lat="44.98685" lon="5.84912">
        <ele>1977.1</ele>
        <time>2012-10-13T08:25:54Z</time>
      </trkpt>
      <trkpt lat="44.98683" lon="5.84916">
        <ele>1978</ele>
        <time>2012-10-13T08:25:59Z</time>
      </trkpt>
      <trkpt lat="44.98681" lon="5.84922">
        <ele>1978</ele>
        <time>2012-10-13T08:26:04Z</time>
      </trkpt>
      <trkpt lat="44.9868" lon="5.84926">
        <ele>1979.5</ele>
        <time>2012-10-13T08:26:09Z</time>
      </trkpt>
      <trkpt lat="44.9868" lon="5.84931">
        <ele>1980.9</ele>
        <time>2012-10-13T08:26:14Z</time>
      </trkpt>
      <trkpt lat="44.98679" lon="5.84935">
        <ele>1981.9</ele>
        <time>2012-10-13T08:26:19Z</time>
      </trkpt>
      <trkpt lat="44.98677" lon="5.84939">
        <ele>1981.9</ele>
        <time>2012-10-13T08:26:24Z</time>
      </trkpt>
      <trkpt lat="44.98677" lon="5.84939">
        <ele>1981.9</ele>
        <time>2012-10-13T08:26:29Z</time>
      </trkpt>
      <trkpt lat="44.98676" lon="5.84941">
        <ele>1982.4</ele>
        <time>2012-10-13T08:26:34Z</time>
      </trkpt>
      <trkpt lat="44.98674" lon="5.84948">
        <ele>1983.3</ele>
        <time>2012-10-13T08:26:39Z</time>
      </trkpt>
      <trkpt lat="44.98674" lon="5.84955">
        <ele>1983.8</ele>
        <time>2012-10-13T08:26:44Z</time>
      </trkpt>
      <trkpt lat="44.98675" lon="5.84963">
        <ele>1985.3</ele>
        <time>2012-10-13T08:26:49Z</time>
      </trkpt>
      <trkpt lat="44.98675" lon="5.84967">
        <ele>1986.2</ele>
        <time>2012-10-13T08:26:54Z</time>
      </trkpt>
      <trkpt lat="44.98679" lon="5.84969">
        <ele>1987.2</ele>
        <time>2012-10-13T08:26:59Z</time>
      </trkpt>
      <trkpt lat="44.98682" lon="5.84969">
        <ele>1987.7</ele>
        <time>2012-10-13T08:27:04Z</time>
      </trkpt>
      <trkpt lat="44.98683" lon="5.8497">
        <ele>1988.1</ele>
        <time>2012-10-13T08:27:09Z</time>
      </trkpt>
      <trkpt lat="44.98683" lon="5.8497">
        <ele>1988.1</ele>
        <time>2012-10-13T08:27:14Z</time>
      </trkpt>
      <trkpt lat="44.98686" lon="5.8497">
        <ele>1988.6</ele>
        <time>2012-10-13T08:27:19Z</time>
      </trkpt>
      <trkpt lat="44.98689" lon="5.8497">
        <ele>1989.1</ele>
        <time>2012-10-13T08:27:24Z</time>
      </trkpt>
      <trkpt lat="44.98692" lon="5.84971">
        <ele>1990.1</ele>
        <time>2012-10-13T08:27:29Z</time>
      </trkpt>
      <trkpt lat="44.98692" lon="5.84971">
        <ele>1990.1</ele>
        <time>2012-10-13T08:27:34Z</time>
      </trkpt>
      <trkpt lat="44.98692" lon="5.84971">
        <ele>1990.1</ele>
        <time>2012-10-13T08:27:39Z</time>
      </trkpt>
      <trkpt lat="44.98692" lon="5.84971">
        <ele>1990.1</ele>
        <time>2012-10-13T08:27:44Z</time>
      </trkpt>
      <trkpt lat="44.98692" lon="5.84971">
        <ele>1990.1</ele>
        <time>2012-10-13T08:27:49Z</time>
      </trkpt>
      <trkpt lat="44.98692" lon="5.84971">
        <ele>1990.1</ele>
        <time>2012-10-13T08:27:54Z</time>
      </trkpt>
      <trkpt lat="44.98692" lon="5.84971">
        <ele>1990.1</ele>
        <time>2012-10-13T08:27:59Z</time>
      </trkpt>
      <trkpt lat="44.98693" lon="5.84971">
        <ele>1990.5</ele>
        <time>2012-10-13T08:28:04Z</time>
      </trkpt>
      <trkpt lat="44.98695" lon="5.84972">
        <ele>1991</ele>
        <time>2012-10-13T08:28:09Z</time>
      </trkpt>
      <trkpt lat="44.98698" lon="5.84973">
        <ele>1991.5</ele>
        <time>2012-10-13T08:28:14Z</time>
      </trkpt>
      <trkpt lat="44.98701" lon="5.84975">
        <ele>1992</ele>
        <time>2012-10-13T08:28:19Z</time>
      </trkpt>
      <trkpt lat="44.98703" lon="5.84976">
        <ele>1992</ele>
        <time>2012-10-13T08:28:24Z</time>
      </trkpt>
      <trkpt lat="44.98705" lon="5.84977">
        <ele>1992</ele>
        <time>2012-10-13T08:28:29Z</time>
      </trkpt>
      <trkpt lat="44.98705" lon="5.84977">
        <ele>1992</ele>
        <time>2012-10-13T08:28:34Z</time>
      </trkpt>
      <trkpt lat="44.98705" lon="5.84977">
        <ele>1992</ele>
        <time>2012-10-13T08:28:39Z</time>
      </trkpt>
      <trkpt lat="44.98705" lon="5.84977">
        <ele>1992</ele>
        <time>2012-10-13T08:28:44Z</time>
      </trkpt>
      <trkpt lat="44.98705" lon="5.84977">
        <ele>1992</ele>
        <time>2012-10-13T08:28:49Z</time>
      </trkpt>
      <trkpt lat="44.98705" lon="5.84977">
        <ele>1992</ele>
        <time>2012-10-13T08:28:54Z</time>
      </trkpt>
      <trkpt lat="44.98705" lon="5.84977">
        <ele>1992</ele>
        <time>2012-10-13T08:28:59Z</time>
      </trkpt>
      <trkpt lat="44.98705" lon="5.84977">
        <ele>1992</ele>
        <time>2012-10-13T08:29:04Z</time>
      </trkpt>
      <trkpt lat="44.98709" lon="5.8498">
        <ele>1992.5</ele>
        <time>2012-10-13T08:29:09Z</time>
      </trkpt>
      <trkpt lat="44.98713" lon="5.84984">
        <ele>1993.4</ele>
        <time>2012-10-13T08:29:14Z</time>
      </trkpt>
      <trkpt lat="44.98715" lon="5.84987">
        <ele>1993.9</ele>
        <time>2012-10-13T08:29:19Z</time>
      </trkpt>
      <trkpt lat="44.98719" lon="5.8499">
        <ele>1993.9</ele>
        <time>2012-10-13T08:29:24Z</time>
      </trkpt>
      <trkpt lat="44.98723" lon="5.84994">
        <ele>1993.4</ele>
        <time>2012-10-13T08:29:29Z</time>
      </trkpt>
      <trkpt lat="44.98727" lon="5.84996">
        <ele>1993.9</ele>
        <time>2012-10-13T08:29:34Z</time>
      </trkpt>
      <trkpt lat="44.9873" lon="5.85001">
        <ele>1994.4</ele>
        <time>2012-10-13T08:29:39Z</time>
      </trkpt>
      <trkpt lat="44.98729" lon="5.85006">
        <ele>1995.4</ele>
        <time>2012-10-13T08:29:44Z</time>
      </trkpt>
      <trkpt lat="44.98726" lon="5.85007">
        <ele>1996.3</ele>
        <time>2012-10-13T08:29:49Z</time>
      </trkpt>
      <trkpt lat="44.98719" lon="5.8501">
        <ele>1997.3</ele>
        <time>2012-10-13T08:29:54Z</time>
      </trkpt>
      <trkpt lat="44.98712" lon="5.85013">
        <ele>1998.7</ele>
        <time>2012-10-13T08:29:59Z</time>
      </trkpt>
      <trkpt lat="44.98707" lon="5.85015">
        <ele>1999.7</ele>
        <time>2012-10-13T08:30:04Z</time>
      </trkpt>
      <trkpt lat="44.98703" lon="5.85019">
        <ele>1998.7</ele>
        <time>2012-10-13T08:30:09Z</time>
      </trkpt>
      <trkpt lat="44.98703" lon="5.85026">
        <ele>1998.7</ele>
        <time>2012-10-13T08:30:14Z</time>
      </trkpt>
      <trkpt lat="44.98707" lon="5.85032">
        <ele>1999.2</ele>
        <time>2012-10-13T08:30:19Z</time>
      </trkpt>
      <trkpt lat="44.98713" lon="5.85034">
        <ele>2000.2</ele>
        <time>2012-10-13T08:30:24Z</time>
      </trkpt>
      <trkpt lat="44.9872" lon="5.85037">
        <ele>2001.1</ele>
        <time>2012-10-13T08:30:29Z</time>
      </trkpt>
      <trkpt lat="44.98725" lon="5.85039">
        <ele>2002.1</ele>
        <time>2012-10-13T08:30:34Z</time>
      </trkpt>
      <trkpt lat="44.98728" lon="5.85038">
        <ele>2003</ele>
        <time>2012-10-13T08:30:39Z</time>
      </trkpt>
      <trkpt lat="44.98731" lon="5.85038">
        <ele>2004.5</ele>
        <time>2012-10-13T08:30:44Z</time>
      </trkpt>
      <trkpt lat="44.98737" lon="5.85036">
        <ele>2005.4</ele>
        <time>2012-10-13T08:30:49Z</time>
      </trkpt>
      <trkpt lat="44.98742" lon="5.85037">
        <ele>2006.4</ele>
        <time>2012-10-13T08:30:54Z</time>
      </trkpt>
      <trkpt lat="44.98747" lon="5.85035">
        <ele>2007.9</ele>
        <time>2012-10-13T08:30:59Z</time>
      </trkpt>
      <trkpt lat="44.98752" lon="5.85031">
        <ele>2009.3</ele>
        <time>2012-10-13T08:31:04Z</time>
      </trkpt>
      <trkpt lat="44.98756" lon="5.85025">
        <ele>2010.3</ele>
        <time>2012-10-13T08:31:09Z</time>
      </trkpt>
      <trkpt lat="44.98761" lon="5.8502">
        <ele>2011.2</ele>
        <time>2012-10-13T08:31:14Z</time>
      </trkpt>
      <trkpt lat="44.98766" lon="5.85015">
        <ele>2012.2</ele>
        <time>2012-10-13T08:31:19Z</time>
      </trkpt>
      <trkpt lat="44.98771" lon="5.85011">
        <ele>2013.1</ele>
        <time>2012-10-13T08:31:24Z</time>
      </trkpt>
      <trkpt lat="44.98774" lon="5.85007">
        <ele>2015.5</ele>
        <time>2012-10-13T08:31:29Z</time>
      </trkpt>
      <trkpt lat="44.98776" lon="5.85003">
        <ele>2017.5</ele>
        <time>2012-10-13T08:31:34Z</time>
      </trkpt>
      <trkpt lat="44.98781" lon="5.84999">
        <ele>2018.9</ele>
        <time>2012-10-13T08:31:39Z</time>
      </trkpt>
      <trkpt lat="44.98785" lon="5.84996">
        <ele>2019.9</ele>
        <time>2012-10-13T08:31:44Z</time>
      </trkpt>
      <trkpt lat="44.98787" lon="5.84992">
        <ele>2020.8</ele>
        <time>2012-10-13T08:31:49Z</time>
      </trkpt>
      <trkpt lat="44.9879" lon="5.84989">
        <ele>2021.8</ele>
        <time>2012-10-13T08:31:54Z</time>
      </trkpt>
      <trkpt lat="44.98794" lon="5.84984">
        <ele>2023.2</ele>
        <time>2012-10-13T08:31:59Z</time>
      </trkpt>
      <trkpt lat="44.98799" lon="5.8498">
        <ele>2024.2</ele>
        <time>2012-10-13T08:32:04Z</time>
      </trkpt>
      <trkpt lat="44.98803" lon="5.84977">
        <ele>2025.2</ele>
        <time>2012-10-13T08:32:09Z</time>
      </trkpt>
      <trkpt lat="44.98809" lon="5.84973">
        <ele>2026.1</ele>
        <time>2012-10-13T08:32:14Z</time>
      </trkpt>
      <trkpt lat="44.98814" lon="5.84968">
        <ele>2027.1</ele>
        <time>2012-10-13T08:32:19Z</time>
      </trkpt>
      <trkpt lat="44.9882" lon="5.84966">
        <ele>2028</ele>
        <time>2012-10-13T08:32:24Z</time>
      </trkpt>
      <trkpt lat="44.98825" lon="5.84963">
        <ele>2029.5</ele>
        <time>2012-10-13T08:32:29Z</time>
      </trkpt>
      <trkpt lat="44.9883" lon="5.8496">
        <ele>2030</ele>
        <time>2012-10-13T08:32:34Z</time>
      </trkpt>
      <trkpt lat="44.98836" lon="5.8496">
        <ele>2030.4</ele>
        <time>2012-10-13T08:32:39Z</time>
      </trkpt>
      <trkpt lat="44.98841" lon="5.84961">
        <ele>2031.4</ele>
        <time>2012-10-13T08:32:44Z</time>
      </trkpt>
      <trkpt lat="44.98846" lon="5.8496">
        <ele>2031.9</ele>
        <time>2012-10-13T08:32:49Z</time>
      </trkpt>
      <trkpt lat="44.98851" lon="5.84958">
        <ele>2032.4</ele>
        <time>2012-10-13T08:32:54Z</time>
      </trkpt>
      <trkpt lat="44.98856" lon="5.84955">
        <ele>2032.8</ele>
        <time>2012-10-13T08:32:59Z</time>
      </trkpt>
      <trkpt lat="44.9886" lon="5.84952">
        <ele>2032.8</ele>
        <time>2012-10-13T08:33:04Z</time>
      </trkpt>
      <trkpt lat="44.9886" lon="5.84951">
        <ele>2032.8</ele>
        <time>2012-10-13T08:33:09Z</time>
      </trkpt>
      <trkpt lat="44.9886" lon="5.84951">
        <ele>2032.8</ele>
        <time>2012-10-13T08:33:14Z</time>
      </trkpt>
      <trkpt lat="44.9886" lon="5.84951">
        <ele>2030.4</ele>
        <time>2012-10-13T08:33:19Z</time>
      </trkpt>
      <trkpt lat="44.98859" lon="5.8495">
        <ele>2030</ele>
        <time>2012-10-13T08:33:24Z</time>
      </trkpt>
      <trkpt lat="44.98859" lon="5.8495">
        <ele>2030</ele>
        <time>2012-10-13T08:33:29Z</time>
      </trkpt>
      <trkpt lat="44.98859" lon="5.8495">
        <ele>2030</ele>
        <time>2012-10-13T08:33:34Z</time>
      </trkpt>
      <trkpt lat="44.98859" lon="5.8495">
        <ele>2030</ele>
        <time>2012-10-13T08:33:39Z</time>
      </trkpt>
      <trkpt lat="44.98859" lon="5.8495">
        <ele>2030</ele>
        <time>2012-10-13T08:33:44Z</time>
      </trkpt>
      <trkpt lat="44.98859" lon="5.8495">
        <ele>2030</ele>
        <time>2012-10-13T08:33:49Z</time>
      </trkpt>
      <trkpt lat="44.98859" lon="5.8495">
        <ele>2030</ele>
        <time>2012-10-13T08:33:54Z</time>
      </trkpt>
      <trkpt lat="44.98859" lon="5.8495">
        <ele>2030</ele>
        <time>2012-10-13T08:33:59Z</time>
      </trkpt>
      <trkpt lat="44.98859" lon="5.8495">
        <ele>2030</ele>
        <time>2012-10-13T08:34:04Z</time>
      </trkpt>
      <trkpt lat="44.98859" lon="5.8495">
        <ele>2030</ele>
        <time>2012-10-13T08:34:09Z</time>
      </trkpt>
      <trkpt lat="44.98859" lon="5.8495">
        <ele>2030</ele>
        <time>2012-10-13T08:34:14Z</time>
      </trkpt>
      <trkpt lat="44.98859" lon="5.8495">
        <ele>2030</ele>
        <time>2012-10-13T08:34:19Z</time>
      </trkpt>
      <trkpt lat="44.98859" lon="5.8495">
        <ele>2030</ele>
        <time>2012-10-13T08:34:24Z</time>
      </trkpt>
      <trkpt lat="44.98859" lon="5.8495">
        <ele>2030</ele>
        <time>2012-10-13T08:34:29Z</time>
      </trkpt>
      <trkpt lat="44.98859" lon="5.8495">
        <ele>2030</ele>
        <time>2012-10-13T08:34:34Z</time>
      </trkpt>
      <trkpt lat="44.98859" lon="5.8495">
        <ele>2030</ele>
        <time>2012-10-13T08:34:39Z</time>
      </trkpt>
      <trkpt lat="44.98858" lon="5.84949">
        <ele>2030.4</ele>
        <time>2012-10-13T08:34:44Z</time>
      </trkpt>
      <trkpt lat="44.98858" lon="5.84949">
        <ele>2030.4</ele>
        <time>2012-10-13T08:34:49Z</time>
      </trkpt>
      <trkpt lat="44.98858" lon="5.84949">
        <ele>2030.4</ele>
        <time>2012-10-13T08:34:54Z</time>
      </trkpt>
      <trkpt lat="44.98858" lon="5.84949">
        <ele>2030.4</ele>
        <time>2012-10-13T08:34:59Z</time>
      </trkpt>
      <trkpt lat="44.98858" lon="5.84949">
        <ele>2030.4</ele>
        <time>2012-10-13T08:35:04Z</time>
      </trkpt>
      <trkpt lat="44.98858" lon="5.84949">
        <ele>2030.4</ele>
        <time>2012-10-13T08:35:09Z</time>
      </trkpt>
      <trkpt lat="44.98858" lon="5.84949">
        <ele>2030.4</ele>
        <time>2012-10-13T08:35:14Z</time>
      </trkpt>
      <trkpt lat="44.98858" lon="5.84949">
        <ele>2030.4</ele>
        <time>2012-10-13T08:35:19Z</time>
      </trkpt>
      <trkpt lat="44.98858" lon="5.84949">
        <ele>2030</ele>
        <time>2012-10-13T08:35:24Z</time>
      </trkpt>
      <trkpt lat="44.98858" lon="5.84949">
        <ele>2030</ele>
        <time>2012-10-13T08:35:29Z</time>
      </trkpt>
      <trkpt lat="44.98858" lon="5.8495">
        <ele>2030</ele>
        <time>2012-10-13T08:35:34Z</time>
      </trkpt>
      <trkpt lat="44.98863" lon="5.84947">
        <ele>2029.5</ele>
        <time>2012-10-13T08:35:39Z</time>
      </trkpt>
      <trkpt lat="44.98867" lon="5.84944">
        <ele>2029.5</ele>
        <time>2012-10-13T08:35:44Z</time>
      </trkpt>
      <trkpt lat="44.98872" lon="5.84943">
        <ele>2030</ele>
        <time>2012-10-13T08:35:49Z</time>
      </trkpt>
      <trkpt lat="44.98877" lon="5.84942">
        <ele>2030</ele>
        <time>2012-10-13T08:35:54Z</time>
      </trkpt>
      <trkpt lat="44.98881" lon="5.84943">
        <ele>2030</ele>
        <time>2012-10-13T08:35:59Z</time>
      </trkpt>
      <trkpt lat="44.98884" lon="5.84942">
        <ele>2030.9</ele>
        <time>2012-10-13T08:36:04Z</time>
      </trkpt>
      <trkpt lat="44.98885" lon="5.84941">
        <ele>2031.9</ele>
        <time>2012-10-13T08:36:09Z</time>
      </trkpt>
      <trkpt lat="44.98888" lon="5.84939">
        <ele>2033.3</ele>
        <time>2012-10-13T08:36:14Z</time>
      </trkpt>
      <trkpt lat="44.98891" lon="5.84936">
        <ele>2034.8</ele>
        <time>2012-10-13T08:36:19Z</time>
      </trkpt>
      <trkpt lat="44.98892" lon="5.84934">
        <ele>2035.7</ele>
        <time>2012-10-13T08:36:24Z</time>
      </trkpt>
      <trkpt lat="44.98895" lon="5.84931">
        <ele>2037.7</ele>
        <time>2012-10-13T08:36:29Z</time>
      </trkpt>
      <trkpt lat="44.98896" lon="5.84928">
        <ele>2037.7</ele>
        <time>2012-10-13T08:36:34Z</time>
      </trkpt>
      <trkpt lat="44.98898" lon="5.84926">
        <ele>2038.1</ele>
        <time>2012-10-13T08:36:39Z</time>
      </trkpt>
      <trkpt lat="44.98899" lon="5.84924">
        <ele>2038.6</ele>
        <time>2012-10-13T08:36:44Z</time>
      </trkpt>
      <trkpt lat="44.98901" lon="5.84921">
        <ele>2040.1</ele>
        <time>2012-10-13T08:36:49Z</time>
      </trkpt>
      <trkpt lat="44.98903" lon="5.84918">
        <ele>2041.5</ele>
        <time>2012-10-13T08:36:54Z</time>
      </trkpt>
      <trkpt lat="44.98904" lon="5.84916">
        <ele>2042.5</ele>
        <time>2012-10-13T08:36:59Z</time>
      </trkpt>
      <trkpt lat="44.98903" lon="5.84915">
        <ele>2042.9</ele>
        <time>2012-10-13T08:37:04Z</time>
      </trkpt>
      <trkpt lat="44.98904" lon="5.84911">
        <ele>2043.4</ele>
        <time>2012-10-13T08:37:09Z</time>
      </trkpt>
      <trkpt lat="44.98908" lon="5.84909">
        <ele>2043.9</ele>
        <time>2012-10-13T08:37:14Z</time>
      </trkpt>
      <trkpt lat="44.98912" lon="5.84904">
        <ele>2044.9</ele>
        <time>2012-10-13T08:37:19Z</time>
      </trkpt>
      <trkpt lat="44.98915" lon="5.849">
        <ele>2045.8</ele>
        <time>2012-10-13T08:37:24Z</time>
      </trkpt>
      <trkpt lat="44.98917" lon="5.84898">
        <ele>2046.8</ele>
        <time>2012-10-13T08:37:29Z</time>
      </trkpt>
      <trkpt lat="44.98917" lon="5.84896">
        <ele>2048.7</ele>
        <time>2012-10-13T08:37:34Z</time>
      </trkpt>
      <trkpt lat="44.98913" lon="5.84897">
        <ele>2050.6</ele>
        <time>2012-10-13T08:37:39Z</time>
      </trkpt>
      <trkpt lat="44.98913" lon="5.84891">
        <ele>2052.6</ele>
        <time>2012-10-13T08:37:44Z</time>
      </trkpt>
      <trkpt lat="44.98914" lon="5.84889">
        <ele>2053.5</ele>
        <time>2012-10-13T08:37:49Z</time>
      </trkpt>
      <trkpt lat="44.98914" lon="5.84889">
        <ele>2053.5</ele>
        <time>2012-10-13T08:37:54Z</time>
      </trkpt>
      <trkpt lat="44.98917" lon="5.84886">
        <ele>2053.5</ele>
        <time>2012-10-13T08:37:59Z</time>
      </trkpt>
      <trkpt lat="44.9892" lon="5.84883">
        <ele>2054.5</ele>
        <time>2012-10-13T08:38:04Z</time>
      </trkpt>
      <trkpt lat="44.98922" lon="5.8488">
        <ele>2055.4</ele>
        <time>2012-10-13T08:38:09Z</time>
      </trkpt>
      <trkpt lat="44.98922" lon="5.84878">
        <ele>2056.4</ele>
        <time>2012-10-13T08:38:14Z</time>
      </trkpt>
      <trkpt lat="44.98925" lon="5.84875">
        <ele>2057.8</ele>
        <time>2012-10-13T08:38:19Z</time>
      </trkpt>
      <trkpt lat="44.98926" lon="5.84874">
        <ele>2058.8</ele>
        <time>2012-10-13T08:38:24Z</time>
      </trkpt>
      <trkpt lat="44.98928" lon="5.84871">
        <ele>2060.2</ele>
        <time>2012-10-13T08:38:29Z</time>
      </trkpt>
      <trkpt lat="44.9893" lon="5.8487">
        <ele>2060.7</ele>
        <time>2012-10-13T08:38:34Z</time>
      </trkpt>
      <trkpt lat="44.98931" lon="5.84868">
        <ele>2060.7</ele>
        <time>2012-10-13T08:38:39Z</time>
      </trkpt>
      <trkpt lat="44.9893" lon="5.84868">
        <ele>2061.2</ele>
        <time>2012-10-13T08:38:44Z</time>
      </trkpt>
      <trkpt lat="44.9893" lon="5.84868">
        <ele>2061.2</ele>
        <time>2012-10-13T08:38:49Z</time>
      </trkpt>
      <trkpt lat="44.9893" lon="5.84867">
        <ele>2061.2</ele>
        <time>2012-10-13T08:38:54Z</time>
      </trkpt>
      <trkpt lat="44.9893" lon="5.84866">
        <ele>2062.2</ele>
        <time>2012-10-13T08:38:59Z</time>
      </trkpt>
      <trkpt lat="44.98932" lon="5.84864">
        <ele>2062.6</ele>
        <time>2012-10-13T08:39:04Z</time>
      </trkpt>
      <trkpt lat="44.98934" lon="5.8486">
        <ele>2063.1</ele>
        <time>2012-10-13T08:39:09Z</time>
      </trkpt>
      <trkpt lat="44.98935" lon="5.84855">
        <ele>2064.6</ele>
        <time>2012-10-13T08:39:14Z</time>
      </trkpt>
      <trkpt lat="44.98937" lon="5.84853">
        <ele>2066.5</ele>
        <time>2012-10-13T08:39:19Z</time>
      </trkpt>
      <trkpt lat="44.98938" lon="5.84852">
        <ele>2067.5</ele>
        <time>2012-10-13T08:39:24Z</time>
      </trkpt>
      <trkpt lat="44.98939" lon="5.84849">
        <ele>2068.4</ele>
        <time>2012-10-13T08:39:29Z</time>
      </trkpt>
      <trkpt lat="44.98941" lon="5.84846">
        <ele>2069.4</ele>
        <time>2012-10-13T08:39:34Z</time>
      </trkpt>
      <trkpt lat="44.98943" lon="5.84844">
        <ele>2070.8</ele>
        <time>2012-10-13T08:39:39Z</time>
      </trkpt>
      <trkpt lat="44.98945" lon="5.8484">
        <ele>2072.7</ele>
        <time>2012-10-13T08:39:44Z</time>
      </trkpt>
      <trkpt lat="44.98946" lon="5.84838">
        <ele>2074.2</ele>
        <time>2012-10-13T08:39:49Z</time>
      </trkpt>
      <trkpt lat="44.98948" lon="5.84836">
        <ele>2075.1</ele>
        <time>2012-10-13T08:39:54Z</time>
      </trkpt>
      <trkpt lat="44.98948" lon="5.84837">
        <ele>2075.1</ele>
        <time>2012-10-13T08:39:59Z</time>
      </trkpt>
      <trkpt lat="44.98947" lon="5.84837">
        <ele>2076.1</ele>
        <time>2012-10-13T08:40:04Z</time>
      </trkpt>
      <trkpt lat="44.98944" lon="5.84836">
        <ele>2077.5</ele>
        <time>2012-10-13T08:40:09Z</time>
      </trkpt>
      <trkpt lat="44.98941" lon="5.84837">
        <ele>2079.9</ele>
        <time>2012-10-13T08:40:14Z</time>
      </trkpt>
      <trkpt lat="44.98937" lon="5.84834">
        <ele>2080.9</ele>
        <time>2012-10-13T08:40:19Z</time>
      </trkpt>
      <trkpt lat="44.98934" lon="5.84831">
        <ele>2081.9</ele>
        <time>2012-10-13T08:40:24Z</time>
      </trkpt>
      <trkpt lat="44.98931" lon="5.8483">
        <ele>2084.3</ele>
        <time>2012-10-13T08:40:29Z</time>
      </trkpt>
      <trkpt lat="44.98929" lon="5.84828">
        <ele>2085.7</ele>
        <time>2012-10-13T08:40:34Z</time>
      </trkpt>
      <trkpt lat="44.98929" lon="5.84826">
        <ele>2086.7</ele>
        <time>2012-10-13T08:40:39Z</time>
      </trkpt>
      <trkpt lat="44.98933" lon="5.84822">
        <ele>2088.1</ele>
        <time>2012-10-13T08:40:44Z</time>
      </trkpt>
      <trkpt lat="44.98935" lon="5.8482">
        <ele>2089.6</ele>
        <time>2012-10-13T08:40:49Z</time>
      </trkpt>
      <trkpt lat="44.98937" lon="5.84817">
        <ele>2090.5</ele>
        <time>2012-10-13T08:40:54Z</time>
      </trkpt>
      <trkpt lat="44.98939" lon="5.84814">
        <ele>2091.5</ele>
        <time>2012-10-13T08:40:59Z</time>
      </trkpt>
      <trkpt lat="44.9894" lon="5.84811">
        <ele>2091.5</ele>
        <time>2012-10-13T08:41:04Z</time>
      </trkpt>
      <trkpt lat="44.98942" lon="5.8481">
        <ele>2092</ele>
        <time>2012-10-13T08:41:09Z</time>
      </trkpt>
      <trkpt lat="44.98945" lon="5.84808">
        <ele>2092</ele>
        <time>2012-10-13T08:41:14Z</time>
      </trkpt>
      <trkpt lat="44.98946" lon="5.84807">
        <ele>2092</ele>
        <time>2012-10-13T08:41:19Z</time>
      </trkpt>
      <trkpt lat="44.98948" lon="5.84803">
        <ele>2092.9</ele>
        <time>2012-10-13T08:41:24Z</time>
      </trkpt>
      <trkpt lat="44.98953" lon="5.84801">
        <ele>2092.4</ele>
        <time>2012-10-13T08:41:29Z</time>
      </trkpt>
      <trkpt lat="44.98954" lon="5.848">
        <ele>2093.4</ele>
        <time>2012-10-13T08:41:34Z</time>
      </trkpt>
      <trkpt lat="44.98955" lon="5.84797">
        <ele>2093.4</ele>
        <time>2012-10-13T08:41:39Z</time>
      </trkpt>
      <trkpt lat="44.98956" lon="5.84797">
        <ele>2093.4</ele>
        <time>2012-10-13T08:41:44Z</time>
      </trkpt>
      <trkpt lat="44.98956" lon="5.84796">
        <ele>2092.9</ele>
        <time>2012-10-13T08:41:49Z</time>
      </trkpt>
      <trkpt lat="44.98956" lon="5.84796">
        <ele>2092.9</ele>
        <time>2012-10-13T08:41:54Z</time>
      </trkpt>
      <trkpt lat="44.98956" lon="5.84795">
        <ele>2092.9</ele>
        <time>2012-10-13T08:41:59Z</time>
      </trkpt>
      <trkpt lat="44.98957" lon="5.84794">
        <ele>2092.9</ele>
        <time>2012-10-13T08:42:04Z</time>
      </trkpt>
      <trkpt lat="44.98957" lon="5.84797">
        <ele>2091.5</ele>
        <time>2012-10-13T08:42:09Z</time>
      </trkpt>
      <trkpt lat="44.98957" lon="5.84796">
        <ele>2091</ele>
        <time>2012-10-13T08:42:14Z</time>
      </trkpt>
      <trkpt lat="44.98957" lon="5.84796">
        <ele>2090.5</ele>
        <time>2012-10-13T08:42:19Z</time>
      </trkpt>
      <trkpt lat="44.98957" lon="5.84796">
        <ele>2090.5</ele>
        <time>2012-10-13T08:42:24Z</time>
      </trkpt>
      <trkpt lat="44.98957" lon="5.84796">
        <ele>2090.5</ele>
        <time>2012-10-13T08:42:29Z</time>
      </trkpt>
      <trkpt lat="44.98957" lon="5.84796">
        <ele>2090.5</ele>
        <time>2012-10-13T08:42:34Z</time>
      </trkpt>
      <trkpt lat="44.98957" lon="5.84796">
        <ele>2090.5</ele>
        <time>2012-10-13T08:42:39Z</time>
      </trkpt>
      <trkpt lat="44.98957" lon="5.84796">
        <ele>2090.5</ele>
        <time>2012-10-13T08:42:44Z</time>
      </trkpt>
      <trkpt lat="44.98957" lon="5.84796">
        <ele>2090.5</ele>
        <time>2012-10-13T08:42:49Z</time>
      </trkpt>
      <trkpt lat="44.98958" lon="5.84796">
        <ele>2090.5</ele>
        <time>2012-10-13T08:42:54Z</time>
      </trkpt>
      <trkpt lat="44.98957" lon="5.84796">
        <ele>2091</ele>
        <time>2012-10-13T08:42:59Z</time>
      </trkpt>
      <trkpt lat="44.98956" lon="5.84795">
        <ele>2091</ele>
        <time>2012-10-13T08:43:04Z</time>
      </trkpt>
      <trkpt lat="44.98957" lon="5.84791">
        <ele>2092</ele>
        <time>2012-10-13T08:43:09Z</time>
      </trkpt>
      <trkpt lat="44.98957" lon="5.84789">
        <ele>2092.9</ele>
        <time>2012-10-13T08:43:14Z</time>
      </trkpt>
      <trkpt lat="44.98958" lon="5.84789">
        <ele>2093.4</ele>
        <time>2012-10-13T08:43:19Z</time>
      </trkpt>
      <trkpt lat="44.98959" lon="5.84788">
        <ele>2093.4</ele>
        <time>2012-10-13T08:43:24Z</time>
      </trkpt>
      <trkpt lat="44.98959" lon="5.84785">
        <ele>2093.9</ele>
        <time>2012-10-13T08:43:29Z</time>
      </trkpt>
      <trkpt lat="44.98959" lon="5.84783">
        <ele>2094.9</ele>
        <time>2012-10-13T08:43:34Z</time>
      </trkpt>
      <trkpt lat="44.98957" lon="5.8478">
        <ele>2096.3</ele>
        <time>2012-10-13T08:43:39Z</time>
      </trkpt>
      <trkpt lat="44.98956" lon="5.8478">
        <ele>2097.3</ele>
        <time>2012-10-13T08:43:44Z</time>
      </trkpt>
      <trkpt lat="44.98954" lon="5.84779">
        <ele>2097.7</ele>
        <time>2012-10-13T08:43:49Z</time>
      </trkpt>
      <trkpt lat="44.98954" lon="5.84776">
        <ele>2098.7</ele>
        <time>2012-10-13T08:43:54Z</time>
      </trkpt>
      <trkpt lat="44.98956" lon="5.84774">
        <ele>2099.7</ele>
        <time>2012-10-13T08:43:59Z</time>
      </trkpt>
      <trkpt lat="44.98959" lon="5.84773">
        <ele>2100.6</ele>
        <time>2012-10-13T08:44:04Z</time>
      </trkpt>
      <trkpt lat="44.98961" lon="5.8477">
        <ele>2101.1</ele>
        <time>2012-10-13T08:44:09Z</time>
      </trkpt>
      <trkpt lat="44.98963" lon="5.84767">
        <ele>2102.5</ele>
        <time>2012-10-13T08:44:14Z</time>
      </trkpt>
      <trkpt lat="44.98963" lon="5.84766">
        <ele>2102.5</ele>
        <time>2012-10-13T08:44:19Z</time>
      </trkpt>
      <trkpt lat="44.98965" lon="5.84765">
        <ele>2103</ele>
        <time>2012-10-13T08:44:24Z</time>
      </trkpt>
      <trkpt lat="44.98966" lon="5.84764">
        <ele>2103</ele>
        <time>2012-10-13T08:44:29Z</time>
      </trkpt>
      <trkpt lat="44.98967" lon="5.84762">
        <ele>2104</ele>
        <time>2012-10-13T08:44:34Z</time>
      </trkpt>
      <trkpt lat="44.98968" lon="5.84759">
        <ele>2105.4</ele>
        <time>2012-10-13T08:44:39Z</time>
      </trkpt>
      <trkpt lat="44.9897" lon="5.84756">
        <ele>2107.3</ele>
        <time>2012-10-13T08:44:44Z</time>
      </trkpt>
      <trkpt lat="44.98972" lon="5.84755">
        <ele>2108.3</ele>
        <time>2012-10-13T08:44:49Z</time>
      </trkpt>
      <trkpt lat="44.98974" lon="5.84752">
        <ele>2108.8</ele>
        <time>2012-10-13T08:44:54Z</time>
      </trkpt>
      <trkpt lat="44.98973" lon="5.84751">
        <ele>2109.3</ele>
        <time>2012-10-13T08:44:59Z</time>
      </trkpt>
      <trkpt lat="44.98974" lon="5.84748">
        <ele>2110.7</ele>
        <time>2012-10-13T08:45:04Z</time>
      </trkpt>
      <trkpt lat="44.98976" lon="5.84745">
        <ele>2111.7</ele>
        <time>2012-10-13T08:45:09Z</time>
      </trkpt>
      <trkpt lat="44.98976" lon="5.84744">
        <ele>2112.2</ele>
        <time>2012-10-13T08:45:14Z</time>
      </trkpt>
      <trkpt lat="44.98977" lon="5.84741">
        <ele>2113.6</ele>
        <time>2012-10-13T08:45:19Z</time>
      </trkpt>
      <trkpt lat="44.98978" lon="5.84739">
        <ele>2114.6</ele>
        <time>2012-10-13T08:45:24Z</time>
      </trkpt>
      <trkpt lat="44.9898" lon="5.84737">
        <ele>2114.6</ele>
        <time>2012-10-13T08:45:29Z</time>
      </trkpt>
      <trkpt lat="44.98981" lon="5.84735">
        <ele>2115</ele>
        <time>2012-10-13T08:45:34Z</time>
      </trkpt>
      <trkpt lat="44.98982" lon="5.84735">
        <ele>2116</ele>
        <time>2012-10-13T08:45:39Z</time>
      </trkpt>
      <trkpt lat="44.98983" lon="5.84732">
        <ele>2117</ele>
        <time>2012-10-13T08:45:44Z</time>
      </trkpt>
      <trkpt lat="44.98986" lon="5.84731">
        <ele>2118.4</ele>
        <time>2012-10-13T08:45:49Z</time>
      </trkpt>
      <trkpt lat="44.98986" lon="5.8473">
        <ele>2119.4</ele>
        <time>2012-10-13T08:45:54Z</time>
      </trkpt>
      <trkpt lat="44.98987" lon="5.84729">
        <ele>2119.4</ele>
        <time>2012-10-13T08:45:59Z</time>
      </trkpt>
      <trkpt lat="44.98988" lon="5.84728">
        <ele>2119.4</ele>
        <time>2012-10-13T08:46:04Z</time>
      </trkpt>
      <trkpt lat="44.98989" lon="5.84728">
        <ele>2119.4</ele>
        <time>2012-10-13T08:46:09Z</time>
      </trkpt>
      <trkpt lat="44.98989" lon="5.84728">
        <ele>2119.4</ele>
        <time>2012-10-13T08:46:14Z</time>
      </trkpt>
      <trkpt lat="44.9899" lon="5.84726">
        <ele>2119.8</ele>
        <time>2012-10-13T08:46:19Z</time>
      </trkpt>
      <trkpt lat="44.9899" lon="5.84726">
        <ele>2119.8</ele>
        <time>2012-10-13T08:46:24Z</time>
      </trkpt>
      <trkpt lat="44.98991" lon="5.84724">
        <ele>2120.8</ele>
        <time>2012-10-13T08:46:29Z</time>
      </trkpt>
      <trkpt lat="44.98992" lon="5.84722">
        <ele>2121.3</ele>
        <time>2012-10-13T08:46:34Z</time>
      </trkpt>
      <trkpt lat="44.98993" lon="5.84721">
        <ele>2121.8</ele>
        <time>2012-10-13T08:46:39Z</time>
      </trkpt>
      <trkpt lat="44.98997" lon="5.84717">
        <ele>2122.7</ele>
        <time>2012-10-13T08:46:44Z</time>
      </trkpt>
      <trkpt lat="44.98999" lon="5.84715">
        <ele>2124.2</ele>
        <time>2012-10-13T08:46:49Z</time>
      </trkpt>
      <trkpt lat="44.99002" lon="5.84712">
        <ele>2126.6</ele>
        <time>2012-10-13T08:46:54Z</time>
      </trkpt>
      <trkpt lat="44.99003" lon="5.84709">
        <ele>2129.5</ele>
        <time>2012-10-13T08:46:59Z</time>
      </trkpt>
      <trkpt lat="44.99005" lon="5.84707">
        <ele>2132.8</ele>
        <time>2012-10-13T08:47:04Z</time>
      </trkpt>
      <trkpt lat="44.99006" lon="5.84705">
        <ele>2135.2</ele>
        <time>2012-10-13T08:47:09Z</time>
      </trkpt>
      <trkpt lat="44.99008" lon="5.84703">
        <ele>2135.7</ele>
        <time>2012-10-13T08:47:14Z</time>
      </trkpt>
      <trkpt lat="44.99009" lon="5.84702">
        <ele>2135.2</ele>
        <time>2012-10-13T08:47:19Z</time>
      </trkpt>
      <trkpt lat="44.9901" lon="5.84701">
        <ele>2135.7</ele>
        <time>2012-10-13T08:47:24Z</time>
      </trkpt>
      <trkpt lat="44.99012" lon="5.84699">
        <ele>2136.2</ele>
        <time>2012-10-13T08:47:29Z</time>
      </trkpt>
      <trkpt lat="44.99012" lon="5.84699">
        <ele>2136.2</ele>
        <time>2012-10-13T08:47:34Z</time>
      </trkpt>
      <trkpt lat="44.99014" lon="5.84697">
        <ele>2136.2</ele>
        <time>2012-10-13T08:47:39Z</time>
      </trkpt>
      <trkpt lat="44.99014" lon="5.84695">
        <ele>2136.2</ele>
        <time>2012-10-13T08:47:44Z</time>
      </trkpt>
      <trkpt lat="44.99015" lon="5.84692">
        <ele>2136.2</ele>
        <time>2012-10-13T08:47:49Z</time>
      </trkpt>
      <trkpt lat="44.99016" lon="5.84689">
        <ele>2136.7</ele>
        <time>2012-10-13T08:47:54Z</time>
      </trkpt>
      <trkpt lat="44.99017" lon="5.84688">
        <ele>2136.2</ele>
        <time>2012-10-13T08:47:59Z</time>
      </trkpt>
      <trkpt lat="44.99018" lon="5.84685">
        <ele>2136.2</ele>
        <time>2012-10-13T08:48:04Z</time>
      </trkpt>
      <trkpt lat="44.99019" lon="5.84683">
        <ele>2137.1</ele>
        <time>2012-10-13T08:48:09Z</time>
      </trkpt>
      <trkpt lat="44.99021" lon="5.84683">
        <ele>2136.7</ele>
        <time>2012-10-13T08:48:14Z</time>
      </trkpt>
      <trkpt lat="44.9902" lon="5.84681">
        <ele>2135.7</ele>
        <time>2012-10-13T08:48:19Z</time>
      </trkpt>
      <trkpt lat="44.99019" lon="5.84681">
        <ele>2135.7</ele>
        <time>2012-10-13T08:48:24Z</time>
      </trkpt>
      <trkpt lat="44.9902" lon="5.8468">
        <ele>2136.2</ele>
        <time>2012-10-13T08:48:29Z</time>
      </trkpt>
      <trkpt lat="44.99021" lon="5.84677">
        <ele>2137.6</ele>
        <time>2012-10-13T08:48:34Z</time>
      </trkpt>
      <trkpt lat="44.99022" lon="5.84675">
        <ele>2138.6</ele>
        <time>2012-10-13T08:48:39Z</time>
      </trkpt>
      <trkpt lat="44.99023" lon="5.84674">
        <ele>2139.1</ele>
        <time>2012-10-13T08:48:44Z</time>
      </trkpt>
      <trkpt lat="44.99024" lon="5.84672">
        <ele>2141</ele>
        <time>2012-10-13T08:48:49Z</time>
      </trkpt>
      <trkpt lat="44.99024" lon="5.84672">
        <ele>2141</ele>
        <time>2012-10-13T08:48:54Z</time>
      </trkpt>
      <trkpt lat="44.99021" lon="5.8467">
        <ele>2142.4</ele>
        <time>2012-10-13T08:48:59Z</time>
      </trkpt>
      <trkpt lat="44.99018" lon="5.84668">
        <ele>2143.4</ele>
        <time>2012-10-13T08:49:04Z</time>
      </trkpt>
      <trkpt lat="44.99016" lon="5.84667">
        <ele>2143.4</ele>
        <time>2012-10-13T08:49:09Z</time>
      </trkpt>
      <trkpt lat="44.99017" lon="5.84666">
        <ele>2143.9</ele>
        <time>2012-10-13T08:49:14Z</time>
      </trkpt>
      <trkpt lat="44.99019" lon="5.84664">
        <ele>2144.4</ele>
        <time>2012-10-13T08:49:19Z</time>
      </trkpt>
      <trkpt lat="44.99022" lon="5.84662">
        <ele>2145.8</ele>
        <time>2012-10-13T08:49:24Z</time>
      </trkpt>
      <trkpt lat="44.99023" lon="5.84658">
        <ele>2146.8</ele>
        <time>2012-10-13T08:49:29Z</time>
      </trkpt>
      <trkpt lat="44.99024" lon="5.84656">
        <ele>2148.2</ele>
        <time>2012-10-13T08:49:34Z</time>
      </trkpt>
      <trkpt lat="44.99025" lon="5.84653">
        <ele>2149.2</ele>
        <time>2012-10-13T08:49:39Z</time>
      </trkpt>
      <trkpt lat="44.99027" lon="5.84651">
        <ele>2151.1</ele>
        <time>2012-10-13T08:49:44Z</time>
      </trkpt>
      <trkpt lat="44.99028" lon="5.8465">
        <ele>2151.6</ele>
        <time>2012-10-13T08:49:49Z</time>
      </trkpt>
      <trkpt lat="44.9903" lon="5.84647">
        <ele>2152</ele>
        <time>2012-10-13T08:49:54Z</time>
      </trkpt>
      <trkpt lat="44.9903" lon="5.84647">
        <ele>2152.5</ele>
        <time>2012-10-13T08:49:59Z</time>
      </trkpt>
      <trkpt lat="44.99031" lon="5.84647">
        <ele>2152.5</ele>
        <time>2012-10-13T08:50:04Z</time>
      </trkpt>
      <trkpt lat="44.99035" lon="5.84643">
        <ele>2154</ele>
        <time>2012-10-13T08:50:09Z</time>
      </trkpt>
      <trkpt lat="44.99034" lon="5.8464">
        <ele>2155.9</ele>
        <time>2012-10-13T08:50:14Z</time>
      </trkpt>
      <trkpt lat="44.99035" lon="5.84639">
        <ele>2156.4</ele>
        <time>2012-10-13T08:50:19Z</time>
      </trkpt>
      <trkpt lat="44.99038" lon="5.84637">
        <ele>2156.9</ele>
        <time>2012-10-13T08:50:24Z</time>
      </trkpt>
      <trkpt lat="44.99038" lon="5.84634">
        <ele>2156.9</ele>
        <time>2012-10-13T08:50:29Z</time>
      </trkpt>
      <trkpt lat="44.99039" lon="5.84634">
        <ele>2157.3</ele>
        <time>2012-10-13T08:50:34Z</time>
      </trkpt>
      <trkpt lat="44.99039" lon="5.84633">
        <ele>2157.8</ele>
        <time>2012-10-13T08:50:39Z</time>
      </trkpt>
      <trkpt lat="44.99039" lon="5.84633">
        <ele>2157.8</ele>
        <time>2012-10-13T08:50:44Z</time>
      </trkpt>
      <trkpt lat="44.99039" lon="5.84633">
        <ele>2157.8</ele>
        <time>2012-10-13T08:50:49Z</time>
      </trkpt>
      <trkpt lat="44.99039" lon="5.84633">
        <ele>2157.8</ele>
        <time>2012-10-13T08:50:54Z</time>
      </trkpt>
      <trkpt lat="44.99039" lon="5.84633">
        <ele>2157.8</ele>
        <time>2012-10-13T08:50:59Z</time>
      </trkpt>
      <trkpt lat="44.99039" lon="5.84633">
        <ele>2157.8</ele>
        <time>2012-10-13T08:51:04Z</time>
      </trkpt>
      <trkpt lat="44.99039" lon="5.84633">
        <ele>2157.3</ele>
        <time>2012-10-13T08:51:09Z</time>
      </trkpt>
      <trkpt lat="44.99039" lon="5.84633">
        <ele>2157.3</ele>
        <time>2012-10-13T08:51:14Z</time>
      </trkpt>
      <trkpt lat="44.99039" lon="5.84633">
        <ele>2157.3</ele>
        <time>2012-10-13T08:51:19Z</time>
      </trkpt>
      <trkpt lat="44.99039" lon="5.84633">
        <ele>2157.3</ele>
        <time>2012-10-13T08:51:24Z</time>
      </trkpt>
      <trkpt lat="44.99039" lon="5.84633">
        <ele>2157.3</ele>
        <time>2012-10-13T08:51:29Z</time>
      </trkpt>
      <trkpt lat="44.99039" lon="5.84633">
        <ele>2157.3</ele>
        <time>2012-10-13T08:51:34Z</time>
      </trkpt>
      <trkpt lat="44.99039" lon="5.84633">
        <ele>2157.3</ele>
        <time>2012-10-13T08:51:39Z</time>
      </trkpt>
      <trkpt lat="44.99039" lon="5.84633">
        <ele>2157.3</ele>
        <time>2012-10-13T08:51:44Z</time>
      </trkpt>
      <trkpt lat="44.99039" lon="5.84633">
        <ele>2157.8</ele>
        <time>2012-10-13T08:51:49Z</time>
      </trkpt>
      <trkpt lat="44.99037" lon="5.84628">
        <ele>2158.3</ele>
        <time>2012-10-13T08:51:54Z</time>
      </trkpt>
      <trkpt lat="44.99037" lon="5.84626">
        <ele>2159.3</ele>
        <time>2012-10-13T08:51:59Z</time>
      </trkpt>
      <trkpt lat="44.99039" lon="5.84624">
        <ele>2161.2</ele>
        <time>2012-10-13T08:52:04Z</time>
      </trkpt>
      <trkpt lat="44.9904" lon="5.84623">
        <ele>2161.2</ele>
        <time>2012-10-13T08:52:09Z</time>
      </trkpt>
      <trkpt lat="44.99041" lon="5.84622">
        <ele>2161.2</ele>
        <time>2012-10-13T08:52:14Z</time>
      </trkpt>
      <trkpt lat="44.99044" lon="5.8462">
        <ele>2162.1</ele>
        <time>2012-10-13T08:52:19Z</time>
      </trkpt>
      <trkpt lat="44.99046" lon="5.84618">
        <ele>2162.6</ele>
        <time>2012-10-13T08:52:24Z</time>
      </trkpt>
      <trkpt lat="44.99049" lon="5.84616">
        <ele>2163.6</ele>
        <time>2012-10-13T08:52:29Z</time>
      </trkpt>
      <trkpt lat="44.99051" lon="5.84614">
        <ele>2164.1</ele>
        <time>2012-10-13T08:52:34Z</time>
      </trkpt>
      <trkpt lat="44.99053" lon="5.84611">
        <ele>2165</ele>
        <time>2012-10-13T08:52:39Z</time>
      </trkpt>
      <trkpt lat="44.99054" lon="5.84607">
        <ele>2166</ele>
        <time>2012-10-13T08:52:44Z</time>
      </trkpt>
      <trkpt lat="44.99057" lon="5.84603">
        <ele>2167.9</ele>
        <time>2012-10-13T08:52:49Z</time>
      </trkpt>
      <trkpt lat="44.9906" lon="5.84598">
        <ele>2169.8</ele>
        <time>2012-10-13T08:52:54Z</time>
      </trkpt>
      <trkpt lat="44.99064" lon="5.84594">
        <ele>2170.3</ele>
        <time>2012-10-13T08:52:59Z</time>
      </trkpt>
      <trkpt lat="44.99067" lon="5.84588">
        <ele>2170.8</ele>
        <time>2012-10-13T08:53:04Z</time>
      </trkpt>
      <trkpt lat="44.9907" lon="5.84582">
        <ele>2170.3</ele>
        <time>2012-10-13T08:53:09Z</time>
      </trkpt>
      <trkpt lat="44.99075" lon="5.84576">
        <ele>2170.8</ele>
        <time>2012-10-13T08:53:14Z</time>
      </trkpt>
      <trkpt lat="44.99078" lon="5.84572">
        <ele>2172.7</ele>
        <time>2012-10-13T08:53:19Z</time>
      </trkpt>
      <trkpt lat="44.99083" lon="5.84568">
        <ele>2174.2</ele>
        <time>2012-10-13T08:53:24Z</time>
      </trkpt>
      <trkpt lat="44.99086" lon="5.84564">
        <ele>2176.1</ele>
        <time>2012-10-13T08:53:29Z</time>
      </trkpt>
      <trkpt lat="44.9909" lon="5.84561">
        <ele>2176.1</ele>
        <time>2012-10-13T08:53:34Z</time>
      </trkpt>
      <trkpt lat="44.99094" lon="5.84558">
        <ele>2177.5</ele>
        <time>2012-10-13T08:53:39Z</time>
      </trkpt>
      <trkpt lat="44.99096" lon="5.84556">
        <ele>2178</ele>
        <time>2012-10-13T08:53:44Z</time>
      </trkpt>
      <trkpt lat="44.99096" lon="5.84556">
        <ele>2178</ele>
        <time>2012-10-13T08:53:49Z</time>
      </trkpt>
      <trkpt lat="44.99096" lon="5.84556">
        <ele>2178</ele>
        <time>2012-10-13T08:53:54Z</time>
      </trkpt>
      <trkpt lat="44.99097" lon="5.84556">
        <ele>2178</ele>
        <time>2012-10-13T08:53:59Z</time>
      </trkpt>
      <trkpt lat="44.99097" lon="5.84554">
        <ele>2179</ele>
        <time>2012-10-13T08:54:04Z</time>
      </trkpt>
      <trkpt lat="44.99097" lon="5.84554">
        <ele>2179</ele>
        <time>2012-10-13T08:54:09Z</time>
      </trkpt>
      <trkpt lat="44.99097" lon="5.84554">
        <ele>2179</ele>
        <time>2012-10-13T08:54:14Z</time>
      </trkpt>
      <trkpt lat="44.99097" lon="5.84554">
        <ele>2179.4</ele>
        <time>2012-10-13T08:54:19Z</time>
      </trkpt>
      <trkpt lat="44.99097" lon="5.84554">
        <ele>2179.4</ele>
        <time>2012-10-13T08:54:24Z</time>
      </trkpt>
      <trkpt lat="44.99097" lon="5.84554">
        <ele>2179.4</ele>
        <time>2012-10-13T08:54:29Z</time>
      </trkpt>
      <trkpt lat="44.99097" lon="5.84554">
        <ele>2179.4</ele>
        <time>2012-10-13T08:54:34Z</time>
      </trkpt>
      <trkpt lat="44.99097" lon="5.84554">
        <ele>2179.4</ele>
        <time>2012-10-13T08:54:39Z</time>
      </trkpt>
      <trkpt lat="44.99097" lon="5.84554">
        <ele>2179.4</ele>
        <time>2012-10-13T08:54:44Z</time>
      </trkpt>
      <trkpt lat="44.99097" lon="5.84554">
        <ele>2179.4</ele>
        <time>2012-10-13T08:54:49Z</time>
      </trkpt>
      <trkpt lat="44.99097" lon="5.84554">
        <ele>2179.4</ele>
        <time>2012-10-13T08:54:54Z</time>
      </trkpt>
      <trkpt lat="44.99097" lon="5.84554">
        <ele>2179.9</ele>
        <time>2012-10-13T08:54:59Z</time>
      </trkpt>
      <trkpt lat="44.99097" lon="5.84554">
        <ele>2179.9</ele>
        <time>2012-10-13T08:55:04Z</time>
      </trkpt>
      <trkpt lat="44.99097" lon="5.84554">
        <ele>2179.9</ele>
        <time>2012-10-13T08:55:09Z</time>
      </trkpt>
      <trkpt lat="44.99097" lon="5.84554">
        <ele>2179.9</ele>
        <time>2012-10-13T08:55:14Z</time>
      </trkpt>
      <trkpt lat="44.99097" lon="5.84554">
        <ele>2179.9</ele>
        <time>2012-10-13T08:55:19Z</time>
      </trkpt>
      <trkpt lat="44.99097" lon="5.84554">
        <ele>2179.9</ele>
        <time>2012-10-13T08:55:24Z</time>
      </trkpt>
      <trkpt lat="44.99097" lon="5.84554">
        <ele>2179.9</ele>
        <time>2012-10-13T08:55:29Z</time>
      </trkpt>
      <trkpt lat="44.99097" lon="5.84554">
        <ele>2179.9</ele>
        <time>2012-10-13T08:55:34Z</time>
      </trkpt>
      <trkpt lat="44.99097" lon="5.84554">
        <ele>2179.9</ele>
        <time>2012-10-13T08:55:39Z</time>
      </trkpt>
      <trkpt lat="44.99097" lon="5.84554">
        <ele>2179.9</ele>
        <time>2012-10-13T08:55:44Z</time>
      </trkpt>
      <trkpt lat="44.99097" lon="5.84554">
        <ele>2179.9</ele>
        <time>2012-10-13T08:55:49Z</time>
      </trkpt>
      <trkpt lat="44.99097" lon="5.84554">
        <ele>2179.9</ele>
        <time>2012-10-13T08:55:54Z</time>
      </trkpt>
      <trkpt lat="44.99097" lon="5.84554">
        <ele>2179.9</ele>
        <time>2012-10-13T08:55:59Z</time>
      </trkpt>
      <trkpt lat="44.99097" lon="5.84554">
        <ele>2179.9</ele>
        <time>2012-10-13T08:56:04Z</time>
      </trkpt>
      <trkpt lat="44.99097" lon="5.84554">
        <ele>2179.9</ele>
        <time>2012-10-13T08:56:09Z</time>
      </trkpt>
      <trkpt lat="44.99097" lon="5.84554">
        <ele>2179.9</ele>
        <time>2012-10-13T08:56:14Z</time>
      </trkpt>
      <trkpt lat="44.99097" lon="5.84554">
        <ele>2180.4</ele>
        <time>2012-10-13T08:56:19Z</time>
      </trkpt>
      <trkpt lat="44.99097" lon="5.84554">
        <ele>2180.4</ele>
        <time>2012-10-13T08:56:24Z</time>
      </trkpt>
      <trkpt lat="44.99097" lon="5.84554">
        <ele>2180.4</ele>
        <time>2012-10-13T08:56:29Z</time>
      </trkpt>
      <trkpt lat="44.99097" lon="5.84554">
        <ele>2180.4</ele>
        <time>2012-10-13T08:56:34Z</time>
      </trkpt>
      <trkpt lat="44.99097" lon="5.84554">
        <ele>2180.4</ele>
        <time>2012-10-13T08:56:39Z</time>
      </trkpt>
      <trkpt lat="44.99097" lon="5.84554">
        <ele>2180.4</ele>
        <time>2012-10-13T08:56:44Z</time>
      </trkpt>
      <trkpt lat="44.99097" lon="5.84554">
        <ele>2180.4</ele>
        <time>2012-10-13T08:56:49Z</time>
      </trkpt>
      <trkpt lat="44.99097" lon="5.84554">
        <ele>2180.4</ele>
        <time>2012-10-13T08:56:54Z</time>
      </trkpt>
      <trkpt lat="44.99097" lon="5.84554">
        <ele>2180.4</ele>
        <time>2012-10-13T08:56:59Z</time>
      </trkpt>
      <trkpt lat="44.99097" lon="5.84554">
        <ele>2180.4</ele>
        <time>2012-10-13T08:57:04Z</time>
      </trkpt>
      <trkpt lat="44.99097" lon="5.84554">
        <ele>2180.4</ele>
        <time>2012-10-13T08:57:09Z</time>
      </trkpt>
      <trkpt lat="44.99097" lon="5.84554">
        <ele>2180.4</ele>
        <time>2012-10-13T08:57:14Z</time>
      </trkpt>
      <trkpt lat="44.99097" lon="5.84554">
        <ele>2180.4</ele>
        <time>2012-10-13T08:57:19Z</time>
      </trkpt>
      <trkpt lat="44.99097" lon="5.84554">
        <ele>2180.4</ele>
        <time>2012-10-13T08:57:24Z</time>
      </trkpt>
      <trkpt lat="44.99097" lon="5.84554">
        <ele>2180.4</ele>
        <time>2012-10-13T08:57:29Z</time>
      </trkpt>
      <trkpt lat="44.99097" lon="5.84554">
        <ele>2180.4</ele>
        <time>2012-10-13T08:57:34Z</time>
      </trkpt>
      <trkpt lat="44.99097" lon="5.84554">
        <ele>2180.4</ele>
        <time>2012-10-13T08:57:39Z</time>
      </trkpt>
      <trkpt lat="44.99097" lon="5.84554">
        <ele>2180.4</ele>
        <time>2012-10-13T08:57:44Z</time>
      </trkpt>
      <trkpt lat="44.99097" lon="5.84554">
        <ele>2180.4</ele>
        <time>2012-10-13T08:57:49Z</time>
      </trkpt>
      <trkpt lat="44.99097" lon="5.84554">
        <ele>2180.4</ele>
        <time>2012-10-13T08:57:54Z</time>
      </trkpt>
      <trkpt lat="44.99097" lon="5.84554">
        <ele>2180.4</ele>
        <time>2012-10-13T08:57:59Z</time>
      </trkpt>
      <trkpt lat="44.99097" lon="5.84554">
        <ele>2180.4</ele>
        <time>2012-10-13T08:58:04Z</time>
      </trkpt>
      <trkpt lat="44.99097" lon="5.84554">
        <ele>2180.4</ele>
        <time>2012-10-13T08:58:09Z</time>
      </trkpt>
      <trkpt lat="44.99097" lon="5.84554">
        <ele>2180.4</ele>
        <time>2012-10-13T08:58:14Z</time>
      </trkpt>
      <trkpt lat="44.99097" lon="5.84554">
        <ele>2180.4</ele>
        <time>2012-10-13T08:58:19Z</time>
      </trkpt>
      <trkpt lat="44.99097" lon="5.84554">
        <ele>2180.4</ele>
        <time>2012-10-13T08:58:24Z</time>
      </trkpt>
      <trkpt lat="44.99097" lon="5.84554">
        <ele>2180.4</ele>
        <time>2012-10-13T08:58:29Z</time>
      </trkpt>
      <trkpt lat="44.99097" lon="5.84554">
        <ele>2180.4</ele>
        <time>2012-10-13T08:58:34Z</time>
      </trkpt>
      <trkpt lat="44.99097" lon="5.84554">
        <ele>2180.4</ele>
        <time>2012-10-13T08:58:39Z</time>
      </trkpt>
      <trkpt lat="44.99097" lon="5.84554">
        <ele>2180.4</ele>
        <time>2012-10-13T08:58:44Z</time>
      </trkpt>
      <trkpt lat="44.99097" lon="5.84554">
        <ele>2180.4</ele>
        <time>2012-10-13T08:58:49Z</time>
      </trkpt>
      <trkpt lat="44.99097" lon="5.84554">
        <ele>2180.4</ele>
        <time>2012-10-13T08:58:54Z</time>
      </trkpt>
      <trkpt lat="44.99097" lon="5.84554">
        <ele>2180.4</ele>
        <time>2012-10-13T08:58:59Z</time>
      </trkpt>
      <trkpt lat="44.99097" lon="5.84554">
        <ele>2180.4</ele>
        <time>2012-10-13T08:59:04Z</time>
      </trkpt>
      <trkpt lat="44.99097" lon="5.84554">
        <ele>2180.4</ele>
        <time>2012-10-13T08:59:09Z</time>
      </trkpt>
      <trkpt lat="44.99097" lon="5.84554">
        <ele>2180.4</ele>
        <time>2012-10-13T08:59:14Z</time>
      </trkpt>
      <trkpt lat="44.99097" lon="5.84554">
        <ele>2180.4</ele>
        <time>2012-10-13T08:59:19Z</time>
      </trkpt>
      <trkpt lat="44.99097" lon="5.84554">
        <ele>2180.9</ele>
        <time>2012-10-13T08:59:24Z</time>
      </trkpt>
      <trkpt lat="44.99097" lon="5.84554">
        <ele>2180.9</ele>
        <time>2012-10-13T08:59:29Z</time>
      </trkpt>
      <trkpt lat="44.99097" lon="5.84554">
        <ele>2180.9</ele>
        <time>2012-10-13T08:59:34Z</time>
      </trkpt>
      <trkpt lat="44.99097" lon="5.84554">
        <ele>2180.9</ele>
        <time>2012-10-13T08:59:39Z</time>
      </trkpt>
      <trkpt lat="44.99097" lon="5.84554">
        <ele>2180.9</ele>
        <time>2012-10-13T08:59:44Z</time>
      </trkpt>
      <trkpt lat="44.99097" lon="5.84554">
        <ele>2180.9</ele>
        <time>2012-10-13T08:59:49Z</time>
      </trkpt>
      <trkpt lat="44.99097" lon="5.84554">
        <ele>2180.9</ele>
        <time>2012-10-13T08:59:54Z</time>
      </trkpt>
      <trkpt lat="44.99097" lon="5.84554">
        <ele>2180.9</ele>
        <time>2012-10-13T08:59:59Z</time>
      </trkpt>
      <trkpt lat="44.99097" lon="5.84554">
        <ele>2181.4</ele>
        <time>2012-10-13T09:00:04Z</time>
      </trkpt>
      <trkpt lat="44.99097" lon="5.84554">
        <ele>2181.4</ele>
        <time>2012-10-13T09:00:09Z</time>
      </trkpt>
      <trkpt lat="44.99097" lon="5.84554">
        <ele>2181.4</ele>
        <time>2012-10-13T09:00:14Z</time>
      </trkpt>
      <trkpt lat="44.99097" lon="5.84554">
        <ele>2181.4</ele>
        <time>2012-10-13T09:00:19Z</time>
      </trkpt>
      <trkpt lat="44.99097" lon="5.84554">
        <ele>2181.4</ele>
        <time>2012-10-13T09:00:24Z</time>
      </trkpt>
      <trkpt lat="44.99097" lon="5.84554">
        <ele>2181.4</ele>
        <time>2012-10-13T09:00:29Z</time>
      </trkpt>
      <trkpt lat="44.99097" lon="5.84554">
        <ele>2181.4</ele>
        <time>2012-10-13T09:00:34Z</time>
      </trkpt>
      <trkpt lat="44.99097" lon="5.84554">
        <ele>2181.4</ele>
        <time>2012-10-13T09:00:39Z</time>
      </trkpt>
      <trkpt lat="44.99097" lon="5.84554">
        <ele>2181.4</ele>
        <time>2012-10-13T09:00:44Z</time>
      </trkpt>
      <trkpt lat="44.99097" lon="5.84554">
        <ele>2181.4</ele>
        <time>2012-10-13T09:00:49Z</time>
      </trkpt>
      <trkpt lat="44.99097" lon="5.84554">
        <ele>2181.4</ele>
        <time>2012-10-13T09:00:54Z</time>
      </trkpt>
      <trkpt lat="44.99097" lon="5.84554">
        <ele>2181.4</ele>
        <time>2012-10-13T09:00:59Z</time>
      </trkpt>
      <trkpt lat="44.99097" lon="5.84554">
        <ele>2181.4</ele>
        <time>2012-10-13T09:01:04Z</time>
      </trkpt>
      <trkpt lat="44.99097" lon="5.84554">
        <ele>2181.4</ele>
        <time>2012-10-13T09:01:09Z</time>
      </trkpt>
      <trkpt lat="44.99097" lon="5.84554">
        <ele>2181.4</ele>
        <time>2012-10-13T09:01:14Z</time>
      </trkpt>
      <trkpt lat="44.99097" lon="5.84554">
        <ele>2181.4</ele>
        <time>2012-10-13T09:01:19Z</time>
      </trkpt>
      <trkpt lat="44.99097" lon="5.84554">
        <ele>2181.8</ele>
        <time>2012-10-13T09:01:24Z</time>
      </trkpt>
      <trkpt lat="44.99097" lon="5.84554">
        <ele>2181.8</ele>
        <time>2012-10-13T09:01:29Z</time>
      </trkpt>
      <trkpt lat="44.99097" lon="5.84554">
        <ele>2181.8</ele>
        <time>2012-10-13T09:01:34Z</time>
      </trkpt>
      <trkpt lat="44.99097" lon="5.84554">
        <ele>2181.8</ele>
        <time>2012-10-13T09:01:39Z</time>
      </trkpt>
      <trkpt lat="44.99097" lon="5.84554">
        <ele>2181.8</ele>
        <time>2012-10-13T09:01:44Z</time>
      </trkpt>
      <trkpt lat="44.99097" lon="5.84554">
        <ele>2181.8</ele>
        <time>2012-10-13T09:01:49Z</time>
      </trkpt>
      <trkpt lat="44.99097" lon="5.84554">
        <ele>2181.8</ele>
        <time>2012-10-13T09:01:54Z</time>
      </trkpt>
      <trkpt lat="44.99097" lon="5.84554">
        <ele>2181.8</ele>
        <time>2012-10-13T09:01:59Z</time>
      </trkpt>
      <trkpt lat="44.99097" lon="5.84554">
        <ele>2181.8</ele>
        <time>2012-10-13T09:02:04Z</time>
      </trkpt>
      <trkpt lat="44.99097" lon="5.84554">
        <ele>2181.8</ele>
        <time>2012-10-13T09:02:09Z</time>
      </trkpt>
      <trkpt lat="44.99097" lon="5.84554">
        <ele>2181.8</ele>
        <time>2012-10-13T09:02:14Z</time>
      </trkpt>
      <trkpt lat="44.99097" lon="5.84554">
        <ele>2181.8</ele>
        <time>2012-10-13T09:02:19Z</time>
      </trkpt>
      <trkpt lat="44.99097" lon="5.84554">
        <ele>2181.8</ele>
        <time>2012-10-13T09:02:24Z</time>
      </trkpt>
      <trkpt lat="44.99097" lon="5.84554">
        <ele>2181.8</ele>
        <time>2012-10-13T09:02:29Z</time>
      </trkpt>
      <trkpt lat="44.99097" lon="5.84554">
        <ele>2181.8</ele>
        <time>2012-10-13T09:02:34Z</time>
      </trkpt>
      <trkpt lat="44.99097" lon="5.84554">
        <ele>2181.8</ele>
        <time>2012-10-13T09:02:39Z</time>
      </trkpt>
      <trkpt lat="44.99097" lon="5.84554">
        <ele>2182.3</ele>
        <time>2012-10-13T09:02:44Z</time>
      </trkpt>
      <trkpt lat="44.99097" lon="5.84554">
        <ele>2182.3</ele>
        <time>2012-10-13T09:02:49Z</time>
      </trkpt>
      <trkpt lat="44.99097" lon="5.84554">
        <ele>2182.3</ele>
        <time>2012-10-13T09:02:54Z</time>
      </trkpt>
      <trkpt lat="44.99097" lon="5.84554">
        <ele>2182.3</ele>
        <time>2012-10-13T09:02:59Z</time>
      </trkpt>
      <trkpt lat="44.99097" lon="5.84554">
        <ele>2182.3</ele>
        <time>2012-10-13T09:03:04Z</time>
      </trkpt>
      <trkpt lat="44.99097" lon="5.84554">
        <ele>2182.3</ele>
        <time>2012-10-13T09:03:09Z</time>
      </trkpt>
      <trkpt lat="44.99097" lon="5.84554">
        <ele>2182.3</ele>
        <time>2012-10-13T09:03:14Z</time>
      </trkpt>
      <trkpt lat="44.99097" lon="5.84554">
        <ele>2182.3</ele>
        <time>2012-10-13T09:03:19Z</time>
      </trkpt>
      <trkpt lat="44.99097" lon="5.84554">
        <ele>2182.3</ele>
        <time>2012-10-13T09:03:24Z</time>
      </trkpt>
      <trkpt lat="44.99097" lon="5.84554">
        <ele>2182.3</ele>
        <time>2012-10-13T09:03:29Z</time>
      </trkpt>
      <trkpt lat="44.99097" lon="5.84554">
        <ele>2182.3</ele>
        <time>2012-10-13T09:03:34Z</time>
      </trkpt>
      <trkpt lat="44.99097" lon="5.84554">
        <ele>2182.3</ele>
        <time>2012-10-13T09:03:39Z</time>
      </trkpt>
      <trkpt lat="44.99097" lon="5.84554">
        <ele>2182.3</ele>
        <time>2012-10-13T09:03:44Z</time>
      </trkpt>
      <trkpt lat="44.99097" lon="5.84554">
        <ele>2182.3</ele>
        <time>2012-10-13T09:03:49Z</time>
      </trkpt>
      <trkpt lat="44.99097" lon="5.84554">
        <ele>2182.3</ele>
        <time>2012-10-13T09:03:54Z</time>
      </trkpt>
      <trkpt lat="44.99097" lon="5.84554">
        <ele>2182.3</ele>
        <time>2012-10-13T09:03:59Z</time>
      </trkpt>
      <trkpt lat="44.99097" lon="5.84554">
        <ele>2182.3</ele>
        <time>2012-10-13T09:04:04Z</time>
      </trkpt>
      <trkpt lat="44.99097" lon="5.84554">
        <ele>2182.3</ele>
        <time>2012-10-13T09:04:09Z</time>
      </trkpt>
      <trkpt lat="44.99097" lon="5.84554">
        <ele>2182.3</ele>
        <time>2012-10-13T09:04:14Z</time>
      </trkpt>
      <trkpt lat="44.99097" lon="5.84554">
        <ele>2182.3</ele>
        <time>2012-10-13T09:04:19Z</time>
      </trkpt>
      <trkpt lat="44.99097" lon="5.84554">
        <ele>2182.3</ele>
        <time>2012-10-13T09:04:24Z</time>
      </trkpt>
      <trkpt lat="44.99097" lon="5.84554">
        <ele>2182.3</ele>
        <time>2012-10-13T09:04:29Z</time>
      </trkpt>
      <trkpt lat="44.99097" lon="5.84554">
        <ele>2182.3</ele>
        <time>2012-10-13T09:04:34Z</time>
      </trkpt>
      <trkpt lat="44.99097" lon="5.84554">
        <ele>2182.3</ele>
        <time>2012-10-13T09:04:39Z</time>
      </trkpt>
      <trkpt lat="44.99097" lon="5.84554">
        <ele>2182.8</ele>
        <time>2012-10-13T09:04:44Z</time>
      </trkpt>
      <trkpt lat="44.99097" lon="5.84554">
        <ele>2182.8</ele>
        <time>2012-10-13T09:04:49Z</time>
      </trkpt>
      <trkpt lat="44.99097" lon="5.84554">
        <ele>2182.8</ele>
        <time>2012-10-13T09:04:54Z</time>
      </trkpt>
      <trkpt lat="44.99097" lon="5.84554">
        <ele>2182.8</ele>
        <time>2012-10-13T09:04:59Z</time>
      </trkpt>
      <trkpt lat="44.99097" lon="5.84554">
        <ele>2182.8</ele>
        <time>2012-10-13T09:05:04Z</time>
      </trkpt>
      <trkpt lat="44.99097" lon="5.84554">
        <ele>2182.8</ele>
        <time>2012-10-13T09:05:09Z</time>
      </trkpt>
      <trkpt lat="44.99097" lon="5.84554">
        <ele>2182.8</ele>
        <time>2012-10-13T09:05:14Z</time>
      </trkpt>
      <trkpt lat="44.99097" lon="5.84554">
        <ele>2182.8</ele>
        <time>2012-10-13T09:05:19Z</time>
      </trkpt>
      <trkpt lat="44.99097" lon="5.84554">
        <ele>2182.8</ele>
        <time>2012-10-13T09:05:24Z</time>
      </trkpt>
      <trkpt lat="44.99097" lon="5.84554">
        <ele>2182.8</ele>
        <time>2012-10-13T09:05:29Z</time>
      </trkpt>
      <trkpt lat="44.99097" lon="5.84554">
        <ele>2182.8</ele>
        <time>2012-10-13T09:05:34Z</time>
      </trkpt>
      <trkpt lat="44.99097" lon="5.84554">
        <ele>2182.8</ele>
        <time>2012-10-13T09:05:39Z</time>
      </trkpt>
      <trkpt lat="44.99097" lon="5.84554">
        <ele>2182.8</ele>
        <time>2012-10-13T09:05:44Z</time>
      </trkpt>
      <trkpt lat="44.99097" lon="5.84554">
        <ele>2182.8</ele>
        <time>2012-10-13T09:05:49Z</time>
      </trkpt>
      <trkpt lat="44.99097" lon="5.84554">
        <ele>2182.8</ele>
        <time>2012-10-13T09:05:54Z</time>
      </trkpt>
      <trkpt lat="44.99097" lon="5.84554">
        <ele>2182.8</ele>
        <time>2012-10-13T09:05:59Z</time>
      </trkpt>
      <trkpt lat="44.99097" lon="5.84554">
        <ele>2182.8</ele>
        <time>2012-10-13T09:06:04Z</time>
      </trkpt>
      <trkpt lat="44.99097" lon="5.84554">
        <ele>2182.8</ele>
        <time>2012-10-13T09:06:09Z</time>
      </trkpt>
      <trkpt lat="44.99097" lon="5.84554">
        <ele>2182.8</ele>
        <time>2012-10-13T09:06:14Z</time>
      </trkpt>
      <trkpt lat="44.99097" lon="5.84554">
        <ele>2182.8</ele>
        <time>2012-10-13T09:06:19Z</time>
      </trkpt>
      <trkpt lat="44.99097" lon="5.84554">
        <ele>2182.8</ele>
        <time>2012-10-13T09:06:24Z</time>
      </trkpt>
      <trkpt lat="44.99097" lon="5.84554">
        <ele>2182.8</ele>
        <time>2012-10-13T09:06:29Z</time>
      </trkpt>
      <trkpt lat="44.99097" lon="5.84554">
        <ele>2182.8</ele>
        <time>2012-10-13T09:06:34Z</time>
      </trkpt>
      <trkpt lat="44.99097" lon="5.84554">
        <ele>2182.8</ele>
        <time>2012-10-13T09:06:39Z</time>
      </trkpt>
      <trkpt lat="44.99098" lon="5.84553">
        <ele>2182.8</ele>
        <time>2012-10-13T09:06:44Z</time>
      </trkpt>
      <trkpt lat="44.99098" lon="5.84553">
        <ele>2182.8</ele>
        <time>2012-10-13T09:06:49Z</time>
      </trkpt>
      <trkpt lat="44.99098" lon="5.84553">
        <ele>2182.8</ele>
        <time>2012-10-13T09:06:54Z</time>
      </trkpt>
      <trkpt lat="44.99098" lon="5.84553">
        <ele>2182.8</ele>
        <time>2012-10-13T09:06:59Z</time>
      </trkpt>
      <trkpt lat="44.99098" lon="5.84553">
        <ele>2182.8</ele>
        <time>2012-10-13T09:07:04Z</time>
      </trkpt>
      <trkpt lat="44.99098" lon="5.84553">
        <ele>2182.8</ele>
        <time>2012-10-13T09:07:09Z</time>
      </trkpt>
      <trkpt lat="44.99098" lon="5.84553">
        <ele>2182.8</ele>
        <time>2012-10-13T09:07:14Z</time>
      </trkpt>
      <trkpt lat="44.99098" lon="5.84553">
        <ele>2182.8</ele>
        <time>2012-10-13T09:07:19Z</time>
      </trkpt>
      <trkpt lat="44.99098" lon="5.84553">
        <ele>2182.8</ele>
        <time>2012-10-13T09:07:24Z</time>
      </trkpt>
      <trkpt lat="44.99098" lon="5.84553">
        <ele>2182.8</ele>
        <time>2012-10-13T09:07:29Z</time>
      </trkpt>
      <trkpt lat="44.99098" lon="5.84553">
        <ele>2182.8</ele>
        <time>2012-10-13T09:07:34Z</time>
      </trkpt>
      <trkpt lat="44.99098" lon="5.84553">
        <ele>2182.8</ele>
        <time>2012-10-13T09:07:39Z</time>
      </trkpt>
      <trkpt lat="44.99098" lon="5.84553">
        <ele>2182.8</ele>
        <time>2012-10-13T09:07:44Z</time>
      </trkpt>
      <trkpt lat="44.99098" lon="5.84553">
        <ele>2182.8</ele>
        <time>2012-10-13T09:07:49Z</time>
      </trkpt>
      <trkpt lat="44.99098" lon="5.84553">
        <ele>2182.8</ele>
        <time>2012-10-13T09:07:54Z</time>
      </trkpt>
      <trkpt lat="44.99098" lon="5.84553">
        <ele>2182.8</ele>
        <time>2012-10-13T09:07:59Z</time>
      </trkpt>
      <trkpt lat="44.99098" lon="5.84553">
        <ele>2182.3</ele>
        <time>2012-10-13T09:08:04Z</time>
      </trkpt>
      <trkpt lat="44.99098" lon="5.84553">
        <ele>2182.3</ele>
        <time>2012-10-13T09:08:09Z</time>
      </trkpt>
      <trkpt lat="44.99098" lon="5.84553">
        <ele>2182.3</ele>
        <time>2012-10-13T09:08:14Z</time>
      </trkpt>
      <trkpt lat="44.99098" lon="5.84553">
        <ele>2182.3</ele>
        <time>2012-10-13T09:08:19Z</time>
      </trkpt>
      <trkpt lat="44.99098" lon="5.84553">
        <ele>2182.3</ele>
        <time>2012-10-13T09:08:24Z</time>
      </trkpt>
      <trkpt lat="44.99098" lon="5.84553">
        <ele>2182.3</ele>
        <time>2012-10-13T09:08:29Z</time>
      </trkpt>
      <trkpt lat="44.99098" lon="5.84553">
        <ele>2182.3</ele>
        <time>2012-10-13T09:08:34Z</time>
      </trkpt>
      <trkpt lat="44.99098" lon="5.84553">
        <ele>2182.3</ele>
        <time>2012-10-13T09:08:39Z</time>
      </trkpt>
      <trkpt lat="44.99098" lon="5.84553">
        <ele>2182.3</ele>
        <time>2012-10-13T09:08:44Z</time>
      </trkpt>
      <trkpt lat="44.99098" lon="5.84553">
        <ele>2182.3</ele>
        <time>2012-10-13T09:08:49Z</time>
      </trkpt>
      <trkpt lat="44.99098" lon="5.84553">
        <ele>2182.3</ele>
        <time>2012-10-13T09:08:54Z</time>
      </trkpt>
      <trkpt lat="44.99098" lon="5.84553">
        <ele>2182.3</ele>
        <time>2012-10-13T09:08:59Z</time>
      </trkpt>
      <trkpt lat="44.99098" lon="5.84553">
        <ele>2182.3</ele>
        <time>2012-10-13T09:09:04Z</time>
      </trkpt>
      <trkpt lat="44.99098" lon="5.84553">
        <ele>2182.3</ele>
        <time>2012-10-13T09:09:09Z</time>
      </trkpt>
      <trkpt lat="44.99098" lon="5.84553">
        <ele>2182.3</ele>
        <time>2012-10-13T09:09:14Z</time>
      </trkpt>
      <trkpt lat="44.99098" lon="5.84553">
        <ele>2182.3</ele>
        <time>2012-10-13T09:09:19Z</time>
      </trkpt>
      <trkpt lat="44.99098" lon="5.84553">
        <ele>2182.3</ele>
        <time>2012-10-13T09:09:24Z</time>
      </trkpt>
      <trkpt lat="44.99098" lon="5.84553">
        <ele>2182.3</ele>
        <time>2012-10-13T09:09:29Z</time>
      </trkpt>
      <trkpt lat="44.99098" lon="5.84553">
        <ele>2182.3</ele>
        <time>2012-10-13T09:09:34Z</time>
      </trkpt>
      <trkpt lat="44.99098" lon="5.84553">
        <ele>2182.3</ele>
        <time>2012-10-13T09:09:39Z</time>
      </trkpt>
      <trkpt lat="44.99098" lon="5.84553">
        <ele>2181.8</ele>
        <time>2012-10-13T09:09:44Z</time>
      </trkpt>
      <trkpt lat="44.99098" lon="5.84553">
        <ele>2181.8</ele>
        <time>2012-10-13T09:09:49Z</time>
      </trkpt>
      <trkpt lat="44.99098" lon="5.84553">
        <ele>2181.8</ele>
        <time>2012-10-13T09:09:54Z</time>
      </trkpt>
      <trkpt lat="44.99098" lon="5.84553">
        <ele>2181.8</ele>
        <time>2012-10-13T09:09:56Z</time>
      </trkpt>
      <trkpt lat="44.991" lon="5.84553">
        <ele>2180.4</ele>
        <time>2012-10-13T09:20:47Z</time>
      </trkpt>
      <trkpt lat="44.99098" lon="5.84539">
        <ele>2180.9</ele>
        <time>2012-10-13T09:20:53Z</time>
      </trkpt>
      <trkpt lat="44.99099" lon="5.84526">
        <ele>2180.9</ele>
        <time>2012-10-13T09:21:00Z</time>
      </trkpt>
      <trkpt lat="44.99101" lon="5.84513">
        <ele>2178.5</ele>
        <time>2012-10-13T09:21:10Z</time>
      </trkpt>
      <trkpt lat="44.99101" lon="5.84499">
        <ele>2175.1</ele>
        <time>2012-10-13T09:21:19Z</time>
      </trkpt>
      <trkpt lat="44.991" lon="5.84487">
        <ele>2172.7</ele>
        <time>2012-10-13T09:21:27Z</time>
      </trkpt>
      <trkpt lat="44.99098" lon="5.84474">
        <ele>2168.9</ele>
        <time>2012-10-13T09:21:36Z</time>
      </trkpt>
      <trkpt lat="44.99096" lon="5.8446">
        <ele>2166.9</ele>
        <time>2012-10-13T09:21:45Z</time>
      </trkpt>
      <trkpt lat="44.99093" lon="5.84448">
        <ele>2165</ele>
        <time>2012-10-13T09:21:53Z</time>
      </trkpt>
      <trkpt lat="44.99092" lon="5.84435">
        <ele>2162.6</ele>
        <time>2012-10-13T09:22:02Z</time>
      </trkpt>
      <trkpt lat="44.9909" lon="5.84423">
        <ele>2158.8</ele>
        <time>2012-10-13T09:22:11Z</time>
      </trkpt>
      <trkpt lat="44.99088" lon="5.84411">
        <ele>2155.9</ele>
        <time>2012-10-13T09:22:20Z</time>
      </trkpt>
      <trkpt lat="44.99084" lon="5.844">
        <ele>2153</ele>
        <time>2012-10-13T09:22:30Z</time>
      </trkpt>
      <trkpt lat="44.99083" lon="5.84389">
        <ele>2150.6</ele>
        <time>2012-10-13T09:22:40Z</time>
      </trkpt>
      <trkpt lat="44.9908" lon="5.84377">
        <ele>2148.2</ele>
        <time>2012-10-13T09:22:51Z</time>
      </trkpt>
      <trkpt lat="44.99079" lon="5.84367">
        <ele>2144.4</ele>
        <time>2012-10-13T09:22:59Z</time>
      </trkpt>
      <trkpt lat="44.99074" lon="5.84356">
        <ele>2140.5</ele>
        <time>2012-10-13T09:23:07Z</time>
      </trkpt>
      <trkpt lat="44.99072" lon="5.84343">
        <ele>2136.7</ele>
        <time>2012-10-13T09:23:15Z</time>
      </trkpt>
      <trkpt lat="44.99068" lon="5.84331">
        <ele>2133.8</ele>
        <time>2012-10-13T09:23:23Z</time>
      </trkpt>
      <trkpt lat="44.99065" lon="5.84318">
        <ele>2130.9</ele>
        <time>2012-10-13T09:23:32Z</time>
      </trkpt>
      <trkpt lat="44.99065" lon="5.84306">
        <ele>2128</ele>
        <time>2012-10-13T09:23:41Z</time>
      </trkpt>
      <trkpt lat="44.99067" lon="5.84294">
        <ele>2124.2</ele>
        <time>2012-10-13T09:23:52Z</time>
      </trkpt>
      <trkpt lat="44.99067" lon="5.84282">
        <ele>2119.4</ele>
        <time>2012-10-13T09:24:03Z</time>
      </trkpt>
      <trkpt lat="44.99068" lon="5.84269">
        <ele>2116.5</ele>
        <time>2012-10-13T09:24:13Z</time>
      </trkpt>
      <trkpt lat="44.99066" lon="5.84255">
        <ele>2112.2</ele>
        <time>2012-10-13T09:24:23Z</time>
      </trkpt>
      <trkpt lat="44.99065" lon="5.84243">
        <ele>2109.8</ele>
        <time>2012-10-13T09:24:31Z</time>
      </trkpt>
      <trkpt lat="44.99063" lon="5.84229">
        <ele>2106.9</ele>
        <time>2012-10-13T09:24:40Z</time>
      </trkpt>
      <trkpt lat="44.99062" lon="5.84216">
        <ele>2104.9</ele>
        <time>2012-10-13T09:24:48Z</time>
      </trkpt>
      <trkpt lat="44.9906" lon="5.84203">
        <ele>2102.1</ele>
        <time>2012-10-13T09:24:56Z</time>
      </trkpt>
      <trkpt lat="44.99058" lon="5.84191">
        <ele>2099.2</ele>
        <time>2012-10-13T09:25:03Z</time>
      </trkpt>
      <trkpt lat="44.99055" lon="5.84178">
        <ele>2098.7</ele>
        <time>2012-10-13T09:25:11Z</time>
      </trkpt>
      <trkpt lat="44.99052" lon="5.84167">
        <ele>2098.2</ele>
        <time>2012-10-13T09:25:18Z</time>
      </trkpt>
      <trkpt lat="44.9905" lon="5.84154">
        <ele>2096.8</ele>
        <time>2012-10-13T09:25:25Z</time>
      </trkpt>
      <trkpt lat="44.99046" lon="5.8414">
        <ele>2096.3</ele>
        <time>2012-10-13T09:25:33Z</time>
      </trkpt>
      <trkpt lat="44.99043" lon="5.84128">
        <ele>2096.3</ele>
        <time>2012-10-13T09:25:41Z</time>
      </trkpt>
      <trkpt lat="44.9904" lon="5.84115">
        <ele>2095.3</ele>
        <time>2012-10-13T09:25:48Z</time>
      </trkpt>
      <trkpt lat="44.99039" lon="5.84103">
        <ele>2094.9</ele>
        <time>2012-10-13T09:25:55Z</time>
      </trkpt>
      <trkpt lat="44.99039" lon="5.84091">
        <ele>2093.9</ele>
        <time>2012-10-13T09:26:02Z</time>
      </trkpt>
      <trkpt lat="44.9904" lon="5.84078">
        <ele>2092.9</ele>
        <time>2012-10-13T09:26:09Z</time>
      </trkpt>
      <trkpt lat="44.99042" lon="5.84066">
        <ele>2092.9</ele>
        <time>2012-10-13T09:26:17Z</time>
      </trkpt>
      <trkpt lat="44.99043" lon="5.84054">
        <ele>2091.5</ele>
        <time>2012-10-13T09:26:25Z</time>
      </trkpt>
      <trkpt lat="44.99043" lon="5.84041">
        <ele>2091</ele>
        <time>2012-10-13T09:26:32Z</time>
      </trkpt>
      <trkpt lat="44.99045" lon="5.84029">
        <ele>2092.4</ele>
        <time>2012-10-13T09:26:40Z</time>
      </trkpt>
      <trkpt lat="44.99045" lon="5.84016">
        <ele>2093.4</ele>
        <time>2012-10-13T09:26:48Z</time>
      </trkpt>
      <trkpt lat="44.99046" lon="5.84004">
        <ele>2093.9</ele>
        <time>2012-10-13T09:26:56Z</time>
      </trkpt>
      <trkpt lat="44.99046" lon="5.8399">
        <ele>2093.4</ele>
        <time>2012-10-13T09:27:04Z</time>
      </trkpt>
      <trkpt lat="44.99046" lon="5.83976">
        <ele>2092.9</ele>
        <time>2012-10-13T09:27:12Z</time>
      </trkpt>
      <trkpt lat="44.99047" lon="5.83964">
        <ele>2093.4</ele>
        <time>2012-10-13T09:27:20Z</time>
      </trkpt>
      <trkpt lat="44.99047" lon="5.83951">
        <ele>2093.9</ele>
        <time>2012-10-13T09:27:28Z</time>
      </trkpt>
      <trkpt lat="44.99047" lon="5.83939">
        <ele>2094.4</ele>
        <time>2012-10-13T09:27:36Z</time>
      </trkpt>
      <trkpt lat="44.99048" lon="5.83926">
        <ele>2094.4</ele>
        <time>2012-10-13T09:27:44Z</time>
      </trkpt>
      <trkpt lat="44.99049" lon="5.83913">
        <ele>2094.9</ele>
        <time>2012-10-13T09:27:52Z</time>
      </trkpt>
      <trkpt lat="44.99049" lon="5.83901">
        <ele>2095.3</ele>
        <time>2012-10-13T09:28:00Z</time>
      </trkpt>
      <trkpt lat="44.9905" lon="5.83888">
        <ele>2095.3</ele>
        <time>2012-10-13T09:28:08Z</time>
      </trkpt>
      <trkpt lat="44.99051" lon="5.83874">
        <ele>2095.3</ele>
        <time>2012-10-13T09:28:16Z</time>
      </trkpt>
      <trkpt lat="44.99052" lon="5.83862">
        <ele>2094.9</ele>
        <time>2012-10-13T09:28:24Z</time>
      </trkpt>
      <trkpt lat="44.99053" lon="5.83849">
        <ele>2095.8</ele>
        <time>2012-10-13T09:28:32Z</time>
      </trkpt>
      <trkpt lat="44.99054" lon="5.83835">
        <ele>2095.8</ele>
        <time>2012-10-13T09:28:40Z</time>
      </trkpt>
      <trkpt lat="44.99055" lon="5.83822">
        <ele>2095.3</ele>
        <time>2012-10-13T09:28:48Z</time>
      </trkpt>
      <trkpt lat="44.99056" lon="5.83809">
        <ele>2095.3</ele>
        <time>2012-10-13T09:28:55Z</time>
      </trkpt>
      <trkpt lat="44.99057" lon="5.83795">
        <ele>2095.3</ele>
        <time>2012-10-13T09:29:03Z</time>
      </trkpt>
      <trkpt lat="44.99059" lon="5.83782">
        <ele>2095.3</ele>
        <time>2012-10-13T09:29:11Z</time>
      </trkpt>
      <trkpt lat="44.99059" lon="5.83768">
        <ele>2095.8</ele>
        <time>2012-10-13T09:29:19Z</time>
      </trkpt>
      <trkpt lat="44.9906" lon="5.83755">
        <ele>2094.9</ele>
        <time>2012-10-13T09:29:26Z</time>
      </trkpt>
      <trkpt lat="44.99062" lon="5.83743">
        <ele>2095.3</ele>
        <time>2012-10-13T09:29:33Z</time>
      </trkpt>
      <trkpt lat="44.99063" lon="5.83729">
        <ele>2094.9</ele>
        <time>2012-10-13T09:29:41Z</time>
      </trkpt>
      <trkpt lat="44.99064" lon="5.83715">
        <ele>2094.9</ele>
        <time>2012-10-13T09:29:50Z</time>
      </trkpt>
      <trkpt lat="44.99064" lon="5.83701">
        <ele>2095.3</ele>
        <time>2012-10-13T09:29:58Z</time>
      </trkpt>
      <trkpt lat="44.99064" lon="5.83688">
        <ele>2094.9</ele>
        <time>2012-10-13T09:30:06Z</time>
      </trkpt>
      <trkpt lat="44.99065" lon="5.83675">
        <ele>2092.4</ele>
        <time>2012-10-13T09:30:14Z</time>
      </trkpt>
      <trkpt lat="44.99065" lon="5.83662">
        <ele>2090.5</ele>
        <time>2012-10-13T09:30:22Z</time>
      </trkpt>
      <trkpt lat="44.99065" lon="5.83648">
        <ele>2090</ele>
        <time>2012-10-13T09:30:30Z</time>
      </trkpt>
      <trkpt lat="44.99065" lon="5.83635">
        <ele>2087.2</ele>
        <time>2012-10-13T09:30:38Z</time>
      </trkpt>
      <trkpt lat="44.99064" lon="5.83621">
        <ele>2084.8</ele>
        <time>2012-10-13T09:30:46Z</time>
      </trkpt>
      <trkpt lat="44.99063" lon="5.83608">
        <ele>2082.4</ele>
        <time>2012-10-13T09:30:53Z</time>
      </trkpt>
      <trkpt lat="44.99062" lon="5.83594">
        <ele>2080.9</ele>
        <time>2012-10-13T09:31:01Z</time>
      </trkpt>
      <trkpt lat="44.99062" lon="5.83581">
        <ele>2078.5</ele>
        <time>2012-10-13T09:31:08Z</time>
      </trkpt>
      <trkpt lat="44.99062" lon="5.83568">
        <ele>2076.6</ele>
        <time>2012-10-13T09:31:15Z</time>
      </trkpt>
      <trkpt lat="44.99065" lon="5.83556">
        <ele>2074.7</ele>
        <time>2012-10-13T09:31:22Z</time>
      </trkpt>
      <trkpt lat="44.99065" lon="5.83544">
        <ele>2073.7</ele>
        <time>2012-10-13T09:31:30Z</time>
      </trkpt>
      <trkpt lat="44.99064" lon="5.83532">
        <ele>2072.7</ele>
        <time>2012-10-13T09:31:38Z</time>
      </trkpt>
      <trkpt lat="44.99063" lon="5.83519">
        <ele>2071.8</ele>
        <time>2012-10-13T09:31:46Z</time>
      </trkpt>
      <trkpt lat="44.99062" lon="5.83506">
        <ele>2069.9</ele>
        <time>2012-10-13T09:31:54Z</time>
      </trkpt>
      <trkpt lat="44.99061" lon="5.83494">
        <ele>2068.4</ele>
        <time>2012-10-13T09:32:02Z</time>
      </trkpt>
      <trkpt lat="44.99061" lon="5.8348">
        <ele>2066</ele>
        <time>2012-10-13T09:32:10Z</time>
      </trkpt>
      <trkpt lat="44.99058" lon="5.83467">
        <ele>2064.6</ele>
        <time>2012-10-13T09:32:17Z</time>
      </trkpt>
      <trkpt lat="44.99057" lon="5.83454">
        <ele>2063.6</ele>
        <time>2012-10-13T09:32:24Z</time>
      </trkpt>
      <trkpt lat="44.99054" lon="5.83442">
        <ele>2060.7</ele>
        <time>2012-10-13T09:32:31Z</time>
      </trkpt>
      <trkpt lat="44.99052" lon="5.8343">
        <ele>2059.8</ele>
        <time>2012-10-13T09:32:39Z</time>
      </trkpt>
      <trkpt lat="44.9905" lon="5.83416">
        <ele>2057.4</ele>
        <time>2012-10-13T09:32:47Z</time>
      </trkpt>
      <trkpt lat="44.99049" lon="5.83404">
        <ele>2055.4</ele>
        <time>2012-10-13T09:32:54Z</time>
      </trkpt>
      <trkpt lat="44.99046" lon="5.8339">
        <ele>2052.1</ele>
        <time>2012-10-13T09:33:01Z</time>
      </trkpt>
      <trkpt lat="44.99044" lon="5.83377">
        <ele>2050.6</ele>
        <time>2012-10-13T09:33:08Z</time>
      </trkpt>
      <trkpt lat="44.99042" lon="5.83365">
        <ele>2049.2</ele>
        <time>2012-10-13T09:33:15Z</time>
      </trkpt>
      <trkpt lat="44.99039" lon="5.83352">
        <ele>2047.7</ele>
        <time>2012-10-13T09:33:23Z</time>
      </trkpt>
      <trkpt lat="44.99035" lon="5.8334">
        <ele>2046.3</ele>
        <time>2012-10-13T09:33:31Z</time>
      </trkpt>
      <trkpt lat="44.9903" lon="5.8333">
        <ele>2043.4</ele>
        <time>2012-10-13T09:33:38Z</time>
      </trkpt>
      <trkpt lat="44.99026" lon="5.83319">
        <ele>2041</ele>
        <time>2012-10-13T09:33:46Z</time>
      </trkpt>
      <trkpt lat="44.99023" lon="5.83306">
        <ele>2038.1</ele>
        <time>2012-10-13T09:33:56Z</time>
      </trkpt>
      <trkpt lat="44.99024" lon="5.83298">
        <ele>2036.7</ele>
        <time>2012-10-13T09:36:23Z</time>
      </trkpt>
      <trkpt lat="44.99028" lon="5.83287">
        <ele>2036.7</ele>
        <time>2012-10-13T09:36:34Z</time>
      </trkpt>
      <trkpt lat="44.99029" lon="5.83273">
        <ele>2035.2</ele>
        <time>2012-10-13T09:36:51Z</time>
      </trkpt>
      <trkpt lat="44.99031" lon="5.8326">
        <ele>2033.3</ele>
        <time>2012-10-13T09:37:00Z</time>
      </trkpt>
      <trkpt lat="44.99034" lon="5.83248">
        <ele>2031.4</ele>
        <time>2012-10-13T09:37:10Z</time>
      </trkpt>
      <trkpt lat="44.99035" lon="5.83236">
        <ele>2029</ele>
        <time>2012-10-13T09:37:19Z</time>
      </trkpt>
      <trkpt lat="44.99035" lon="5.83223">
        <ele>2026.6</ele>
        <time>2012-10-13T09:37:29Z</time>
      </trkpt>
      <trkpt lat="44.99037" lon="5.83211">
        <ele>2022.8</ele>
        <time>2012-10-13T09:37:37Z</time>
      </trkpt>
      <trkpt lat="44.99038" lon="5.83199">
        <ele>2018.9</ele>
        <time>2012-10-13T09:37:46Z</time>
      </trkpt>
      <trkpt lat="44.99037" lon="5.83188">
        <ele>2015.5</ele>
        <time>2012-10-13T09:37:56Z</time>
      </trkpt>
      <trkpt lat="44.99028" lon="5.8319">
        <ele>2009.8</ele>
        <time>2012-10-13T09:38:15Z</time>
      </trkpt>
      <trkpt lat="44.99024" lon="5.83181">
        <ele>2007.9</ele>
        <time>2012-10-13T09:39:37Z</time>
      </trkpt>
      <trkpt lat="44.99018" lon="5.83171">
        <ele>2005.4</ele>
        <time>2012-10-13T09:39:46Z</time>
      </trkpt>
      <trkpt lat="44.99013" lon="5.83162">
        <ele>2003.5</ele>
        <time>2012-10-13T09:39:55Z</time>
      </trkpt>
      <trkpt lat="44.99008" lon="5.83153">
        <ele>1999.7</ele>
        <time>2012-10-13T09:40:06Z</time>
      </trkpt>
      <trkpt lat="44.99004" lon="5.83143">
        <ele>1996.3</ele>
        <time>2012-10-13T09:40:18Z</time>
      </trkpt>
      <trkpt lat="44.99003" lon="5.8313">
        <ele>1993.4</ele>
        <time>2012-10-13T09:40:26Z</time>
      </trkpt>
      <trkpt lat="44.99005" lon="5.83119">
        <ele>1991</ele>
        <time>2012-10-13T09:40:33Z</time>
      </trkpt>
      <trkpt lat="44.99006" lon="5.83105">
        <ele>1988.6</ele>
        <time>2012-10-13T09:40:42Z</time>
      </trkpt>
      <trkpt lat="44.99007" lon="5.83093">
        <ele>1984.8</ele>
        <time>2012-10-13T09:40:50Z</time>
      </trkpt>
      <trkpt lat="44.98998" lon="5.83093">
        <ele>1980.5</ele>
        <time>2012-10-13T09:40:59Z</time>
      </trkpt>
      <trkpt lat="44.98989" lon="5.83092">
        <ele>1976.6</ele>
        <time>2012-10-13T09:41:07Z</time>
      </trkpt>
      <trkpt lat="44.98992" lon="5.8308">
        <ele>1973.2</ele>
        <time>2012-10-13T09:41:15Z</time>
      </trkpt>
      <trkpt lat="44.98993" lon="5.83067">
        <ele>1968.9</ele>
        <time>2012-10-13T09:41:23Z</time>
      </trkpt>
      <trkpt lat="44.98997" lon="5.83053">
        <ele>1965.1</ele>
        <time>2012-10-13T09:41:32Z</time>
      </trkpt>
      <trkpt lat="44.99" lon="5.8304">
        <ele>1962.2</ele>
        <time>2012-10-13T09:41:39Z</time>
      </trkpt>
      <trkpt lat="44.99003" lon="5.83027">
        <ele>1960.7</ele>
        <time>2012-10-13T09:41:47Z</time>
      </trkpt>
      <trkpt lat="44.98997" lon="5.83024">
        <ele>1957.9</ele>
        <time>2012-10-13T09:41:57Z</time>
      </trkpt>
      <trkpt lat="44.98988" lon="5.83021">
        <ele>1956.4</ele>
        <time>2012-10-13T09:42:04Z</time>
      </trkpt>
      <trkpt lat="44.9898" lon="5.83017">
        <ele>1952.1</ele>
        <time>2012-10-13T09:42:12Z</time>
      </trkpt>
      <trkpt lat="44.98972" lon="5.83019">
        <ele>1947.8</ele>
        <time>2012-10-13T09:42:20Z</time>
      </trkpt>
      <trkpt lat="44.98962" lon="5.83023">
        <ele>1943.9</ele>
        <time>2012-10-13T09:42:29Z</time>
      </trkpt>
      <trkpt lat="44.98956" lon="5.83017">
        <ele>1942</ele>
        <time>2012-10-13T09:42:38Z</time>
      </trkpt>
      <trkpt lat="44.98957" lon="5.83005">
        <ele>1938.6</ele>
        <time>2012-10-13T09:42:46Z</time>
      </trkpt>
      <trkpt lat="44.98958" lon="5.82991">
        <ele>1934.8</ele>
        <time>2012-10-13T09:42:55Z</time>
      </trkpt>
      <trkpt lat="44.9896" lon="5.82977">
        <ele>1929.5</ele>
        <time>2012-10-13T09:43:04Z</time>
      </trkpt>
      <trkpt lat="44.98963" lon="5.82965">
        <ele>1925.7</ele>
        <time>2012-10-13T09:43:13Z</time>
      </trkpt>
      <trkpt lat="44.98957" lon="5.82957">
        <ele>1921.3</ele>
        <time>2012-10-13T09:43:25Z</time>
      </trkpt>
      <trkpt lat="44.98948" lon="5.82957">
        <ele>1918</ele>
        <time>2012-10-13T09:43:33Z</time>
      </trkpt>
      <trkpt lat="44.98939" lon="5.82955">
        <ele>1913.6</ele>
        <time>2012-10-13T09:43:41Z</time>
      </trkpt>
      <trkpt lat="44.9893" lon="5.82956">
        <ele>1908.8</ele>
        <time>2012-10-13T09:43:49Z</time>
      </trkpt>
      <trkpt lat="44.9892" lon="5.82959">
        <ele>1903.5</ele>
        <time>2012-10-13T09:43:58Z</time>
      </trkpt>
      <trkpt lat="44.98921" lon="5.82946">
        <ele>1899.2</ele>
        <time>2012-10-13T09:44:06Z</time>
      </trkpt>
      <trkpt lat="44.98923" lon="5.82932">
        <ele>1897.3</ele>
        <time>2012-10-13T09:44:14Z</time>
      </trkpt>
      <trkpt lat="44.98927" lon="5.8292">
        <ele>1894.4</ele>
        <time>2012-10-13T09:44:22Z</time>
      </trkpt>
      <trkpt lat="44.98919" lon="5.82916">
        <ele>1891.5</ele>
        <time>2012-10-13T09:44:31Z</time>
      </trkpt>
      <trkpt lat="44.98913" lon="5.82909">
        <ele>1887.7</ele>
        <time>2012-10-13T09:44:42Z</time>
      </trkpt>
      <trkpt lat="44.98905" lon="5.82905">
        <ele>1884.3</ele>
        <time>2012-10-13T09:44:51Z</time>
      </trkpt>
      <trkpt lat="44.98896" lon="5.82906">
        <ele>1881</ele>
        <time>2012-10-13T09:44:59Z</time>
      </trkpt>
      <trkpt lat="44.98889" lon="5.82904">
        <ele>1878.1</ele>
        <time>2012-10-13T09:45:08Z</time>
      </trkpt>
      <trkpt lat="44.98891" lon="5.82891">
        <ele>1876.6</ele>
        <time>2012-10-13T09:45:15Z</time>
      </trkpt>
      <trkpt lat="44.98893" lon="5.82879">
        <ele>1873.3</ele>
        <time>2012-10-13T09:45:24Z</time>
      </trkpt>
      <trkpt lat="44.98896" lon="5.82867">
        <ele>1869.4</ele>
        <time>2012-10-13T09:45:33Z</time>
      </trkpt>
      <trkpt lat="44.98899" lon="5.82853">
        <ele>1864.6</ele>
        <time>2012-10-13T09:45:41Z</time>
      </trkpt>
      <trkpt lat="44.98903" lon="5.82842">
        <ele>1860.3</ele>
        <time>2012-10-13T09:45:49Z</time>
      </trkpt>
      <trkpt lat="44.98907" lon="5.8283">
        <ele>1857.9</ele>
        <time>2012-10-13T09:45:57Z</time>
      </trkpt>
      <trkpt lat="44.98905" lon="5.82826">
        <ele>1855</ele>
        <time>2012-10-13T09:46:06Z</time>
      </trkpt>
      <trkpt lat="44.98897" lon="5.82827">
        <ele>1852.1</ele>
        <time>2012-10-13T09:46:13Z</time>
      </trkpt>
      <trkpt lat="44.98888" lon="5.82825">
        <ele>1849.2</ele>
        <time>2012-10-13T09:46:21Z</time>
      </trkpt>
      <trkpt lat="44.98886" lon="5.82817">
        <ele>1845.9</ele>
        <time>2012-10-13T09:46:33Z</time>
      </trkpt>
      <trkpt lat="44.98887" lon="5.82804">
        <ele>1841.5</ele>
        <time>2012-10-13T09:46:43Z</time>
      </trkpt>
      <trkpt lat="44.98891" lon="5.82792">
        <ele>1838.7</ele>
        <time>2012-10-13T09:46:53Z</time>
      </trkpt>
      <trkpt lat="44.98896" lon="5.8278">
        <ele>1836.7</ele>
        <time>2012-10-13T09:47:02Z</time>
      </trkpt>
      <trkpt lat="44.9889" lon="5.82776">
        <ele>1834.3</ele>
        <time>2012-10-13T09:47:21Z</time>
      </trkpt>
      <trkpt lat="44.98888" lon="5.82768">
        <ele>1831</ele>
        <time>2012-10-13T09:47:29Z</time>
      </trkpt>
      <trkpt lat="44.98891" lon="5.82754">
        <ele>1829</ele>
        <time>2012-10-13T09:47:38Z</time>
      </trkpt>
      <trkpt lat="44.98896" lon="5.82743">
        <ele>1827.6</ele>
        <time>2012-10-13T09:47:47Z</time>
      </trkpt>
      <trkpt lat="44.98898" lon="5.82735">
        <ele>1823.8</ele>
        <time>2012-10-13T09:47:55Z</time>
      </trkpt>
      <trkpt lat="44.9889" lon="5.82734">
        <ele>1819</ele>
        <time>2012-10-13T09:48:04Z</time>
      </trkpt>
      <trkpt lat="44.98893" lon="5.82721">
        <ele>1815.6</ele>
        <time>2012-10-13T09:48:12Z</time>
      </trkpt>
      <trkpt lat="44.98897" lon="5.8271">
        <ele>1812.7</ele>
        <time>2012-10-13T09:48:20Z</time>
      </trkpt>
      <trkpt lat="44.98894" lon="5.82703">
        <ele>1810.3</ele>
        <time>2012-10-13T09:48:27Z</time>
      </trkpt>
      <trkpt lat="44.98885" lon="5.82701">
        <ele>1807.9</ele>
        <time>2012-10-13T09:48:35Z</time>
      </trkpt>
      <trkpt lat="44.98875" lon="5.82703">
        <ele>1804.5</ele>
        <time>2012-10-13T09:48:43Z</time>
      </trkpt>
      <trkpt lat="44.98866" lon="5.82701">
        <ele>1800.7</ele>
        <time>2012-10-13T09:49:05Z</time>
      </trkpt>
      <trkpt lat="44.98859" lon="5.82693">
        <ele>1795.4</ele>
        <time>2012-10-13T09:49:16Z</time>
      </trkpt>
      <trkpt lat="44.9886" lon="5.82679">
        <ele>1792</ele>
        <time>2012-10-13T09:49:39Z</time>
      </trkpt>
      <trkpt lat="44.98858" lon="5.82666">
        <ele>1789.6</ele>
        <time>2012-10-13T09:49:58Z</time>
      </trkpt>
      <trkpt lat="44.98854" lon="5.82654">
        <ele>1786.7</ele>
        <time>2012-10-13T09:50:09Z</time>
      </trkpt>
      <trkpt lat="44.98855" lon="5.82641">
        <ele>1784.3</ele>
        <time>2012-10-13T09:50:25Z</time>
      </trkpt>
      <trkpt lat="44.98854" lon="5.82628">
        <ele>1782.4</ele>
        <time>2012-10-13T09:50:35Z</time>
      </trkpt>
      <trkpt lat="44.98853" lon="5.82626">
        <ele>1783.4</ele>
        <time>2012-10-13T10:07:48Z</time>
      </trkpt>
      <trkpt lat="44.98856" lon="5.8262">
        <ele>1794.9</ele>
        <time>2012-10-13T10:11:47Z</time>
      </trkpt>
      <trkpt lat="44.98849" lon="5.82612">
        <ele>1789.6</ele>
        <time>2012-10-13T10:12:00Z</time>
      </trkpt>
      <trkpt lat="44.98845" lon="5.82602">
        <ele>1786.7</ele>
        <time>2012-10-13T10:12:16Z</time>
      </trkpt>
      <trkpt lat="44.98841" lon="5.82591">
        <ele>1787.2</ele>
        <time>2012-10-13T10:12:25Z</time>
      </trkpt>
      <trkpt lat="44.98835" lon="5.82579">
        <ele>1788.2</ele>
        <time>2012-10-13T10:12:33Z</time>
      </trkpt>
      <trkpt lat="44.98832" lon="5.8257">
        <ele>1791.1</ele>
        <time>2012-10-13T10:13:23Z</time>
      </trkpt>
      <trkpt lat="44.9884" lon="5.82565">
        <ele>1789.2</ele>
        <time>2012-10-13T10:13:33Z</time>
      </trkpt>
      <trkpt lat="44.9885" lon="5.82563">
        <ele>1787.7</ele>
        <time>2012-10-13T10:13:41Z</time>
      </trkpt>
      <trkpt lat="44.98859" lon="5.82563">
        <ele>1786.3</ele>
        <time>2012-10-13T10:13:48Z</time>
      </trkpt>
      <trkpt lat="44.98869" lon="5.82565">
        <ele>1785.3</ele>
        <time>2012-10-13T10:13:56Z</time>
      </trkpt>
      <trkpt lat="44.98869" lon="5.82558">
        <ele>1784.3</ele>
        <time>2012-10-13T10:14:06Z</time>
      </trkpt>
      <trkpt lat="44.9886" lon="5.82553">
        <ele>1782.4</ele>
        <time>2012-10-13T10:14:20Z</time>
      </trkpt>
      <trkpt lat="44.98852" lon="5.82545">
        <ele>1780</ele>
        <time>2012-10-13T10:14:27Z</time>
      </trkpt>
      <trkpt lat="44.98844" lon="5.8254">
        <ele>1778.1</ele>
        <time>2012-10-13T10:14:34Z</time>
      </trkpt>
      <trkpt lat="44.98837" lon="5.82531">
        <ele>1777.6</ele>
        <time>2012-10-13T10:14:41Z</time>
      </trkpt>
      <trkpt lat="44.98828" lon="5.82525">
        <ele>1777.1</ele>
        <time>2012-10-13T10:14:48Z</time>
      </trkpt>
      <trkpt lat="44.9882" lon="5.82518">
        <ele>1776.7</ele>
        <time>2012-10-13T10:14:55Z</time>
      </trkpt>
      <trkpt lat="44.98813" lon="5.82511">
        <ele>1774.3</ele>
        <time>2012-10-13T10:15:13Z</time>
      </trkpt>
      <trkpt lat="44.98808" lon="5.82502">
        <ele>1773.8</ele>
        <time>2012-10-13T10:15:57Z</time>
      </trkpt>
      <trkpt lat="44.98802" lon="5.82495">
        <ele>1772.8</ele>
        <time>2012-10-13T10:16:07Z</time>
      </trkpt>
      <trkpt lat="44.98794" lon="5.82491">
        <ele>1771.4</ele>
        <time>2012-10-13T10:16:20Z</time>
      </trkpt>
      <trkpt lat="44.98797" lon="5.82481">
        <ele>1770.9</ele>
        <time>2012-10-13T10:16:28Z</time>
      </trkpt>
      <trkpt lat="44.98807" lon="5.82479">
        <ele>1769</ele>
        <time>2012-10-13T10:16:37Z</time>
      </trkpt>
      <trkpt lat="44.98816" lon="5.82478">
        <ele>1767</ele>
        <time>2012-10-13T10:16:47Z</time>
      </trkpt>
      <trkpt lat="44.98825" lon="5.82477">
        <ele>1765.6</ele>
        <time>2012-10-13T10:16:57Z</time>
      </trkpt>
      <trkpt lat="44.98834" lon="5.82476">
        <ele>1763.7</ele>
        <time>2012-10-13T10:17:07Z</time>
      </trkpt>
      <trkpt lat="44.98843" lon="5.82477">
        <ele>1762.2</ele>
        <time>2012-10-13T10:17:15Z</time>
      </trkpt>
      <trkpt lat="44.98853" lon="5.82477">
        <ele>1760.3</ele>
        <time>2012-10-13T10:17:24Z</time>
      </trkpt>
      <trkpt lat="44.98862" lon="5.82479">
        <ele>1759.8</ele>
        <time>2012-10-13T10:17:31Z</time>
      </trkpt>
      <trkpt lat="44.98872" lon="5.82481">
        <ele>1758.4</ele>
        <time>2012-10-13T10:17:39Z</time>
      </trkpt>
      <trkpt lat="44.98881" lon="5.82487">
        <ele>1757.9</ele>
        <time>2012-10-13T10:17:46Z</time>
      </trkpt>
      <trkpt lat="44.9889" lon="5.8249">
        <ele>1757.9</ele>
        <time>2012-10-13T10:17:53Z</time>
      </trkpt>
      <trkpt lat="44.98888" lon="5.82482">
        <ele>1755.5</ele>
        <time>2012-10-13T10:18:01Z</time>
      </trkpt>
      <trkpt lat="44.98881" lon="5.82473">
        <ele>1753.1</ele>
        <time>2012-10-13T10:18:09Z</time>
      </trkpt>
      <trkpt lat="44.98871" lon="5.82468">
        <ele>1751.2</ele>
        <time>2012-10-13T10:18:16Z</time>
      </trkpt>
      <trkpt lat="44.98865" lon="5.82458">
        <ele>1750.7</ele>
        <time>2012-10-13T10:18:23Z</time>
      </trkpt>
      <trkpt lat="44.98858" lon="5.8245">
        <ele>1749.3</ele>
        <time>2012-10-13T10:18:30Z</time>
      </trkpt>
      <trkpt lat="44.9885" lon="5.82444">
        <ele>1747.8</ele>
        <time>2012-10-13T10:18:36Z</time>
      </trkpt>
      <trkpt lat="44.98843" lon="5.82435">
        <ele>1746.4</ele>
        <time>2012-10-13T10:18:43Z</time>
      </trkpt>
      <trkpt lat="44.98836" lon="5.82426">
        <ele>1744.9</ele>
        <time>2012-10-13T10:18:51Z</time>
      </trkpt>
      <trkpt lat="44.98829" lon="5.8242">
        <ele>1744</ele>
        <time>2012-10-13T10:18:58Z</time>
      </trkpt>
      <trkpt lat="44.98821" lon="5.82411">
        <ele>1742.5</ele>
        <time>2012-10-13T10:19:06Z</time>
      </trkpt>
      <trkpt lat="44.98812" lon="5.82405">
        <ele>1740.6</ele>
        <time>2012-10-13T10:19:14Z</time>
      </trkpt>
      <trkpt lat="44.98805" lon="5.82397">
        <ele>1738.2</ele>
        <time>2012-10-13T10:19:21Z</time>
      </trkpt>
      <trkpt lat="44.98797" lon="5.82389">
        <ele>1736.8</ele>
        <time>2012-10-13T10:19:28Z</time>
      </trkpt>
      <trkpt lat="44.9879" lon="5.82382">
        <ele>1735.8</ele>
        <time>2012-10-13T10:19:35Z</time>
      </trkpt>
      <trkpt lat="44.9878" lon="5.82377">
        <ele>1733.4</ele>
        <time>2012-10-13T10:19:42Z</time>
      </trkpt>
      <trkpt lat="44.98772" lon="5.82369">
        <ele>1731.5</ele>
        <time>2012-10-13T10:19:49Z</time>
      </trkpt>
      <trkpt lat="44.98765" lon="5.82364">
        <ele>1730.5</ele>
        <time>2012-10-13T10:19:56Z</time>
      </trkpt>
      <trkpt lat="44.98757" lon="5.82358">
        <ele>1727.1</ele>
        <time>2012-10-13T10:20:03Z</time>
      </trkpt>
      <trkpt lat="44.98748" lon="5.82351">
        <ele>1723.3</ele>
        <time>2012-10-13T10:20:11Z</time>
      </trkpt>
      <trkpt lat="44.9874" lon="5.82344">
        <ele>1721.4</ele>
        <time>2012-10-13T10:20:18Z</time>
      </trkpt>
      <trkpt lat="44.98731" lon="5.82338">
        <ele>1719.5</ele>
        <time>2012-10-13T10:20:26Z</time>
      </trkpt>
      <trkpt lat="44.98722" lon="5.82333">
        <ele>1717.5</ele>
        <time>2012-10-13T10:20:34Z</time>
      </trkpt>
      <trkpt lat="44.98712" lon="5.82329">
        <ele>1716.1</ele>
        <time>2012-10-13T10:20:42Z</time>
      </trkpt>
      <trkpt lat="44.98703" lon="5.82324">
        <ele>1715.6</ele>
        <time>2012-10-13T10:20:49Z</time>
      </trkpt>
      <trkpt lat="44.98694" lon="5.82325">
        <ele>1714.2</ele>
        <time>2012-10-13T10:20:56Z</time>
      </trkpt>
      <trkpt lat="44.98685" lon="5.82321">
        <ele>1713.2</ele>
        <time>2012-10-13T10:21:02Z</time>
      </trkpt>
      <trkpt lat="44.98676" lon="5.8232">
        <ele>1711.8</ele>
        <time>2012-10-13T10:21:09Z</time>
      </trkpt>
      <trkpt lat="44.98666" lon="5.82317">
        <ele>1709.4</ele>
        <time>2012-10-13T10:21:17Z</time>
      </trkpt>
      <trkpt lat="44.98656" lon="5.82316">
        <ele>1707.4</ele>
        <time>2012-10-13T10:21:25Z</time>
      </trkpt>
      <trkpt lat="44.98646" lon="5.82313">
        <ele>1706</ele>
        <time>2012-10-13T10:21:33Z</time>
      </trkpt>
      <trkpt lat="44.98637" lon="5.82315">
        <ele>1704.6</ele>
        <time>2012-10-13T10:21:40Z</time>
      </trkpt>
      <trkpt lat="44.98627" lon="5.82312">
        <ele>1703.1</ele>
        <time>2012-10-13T10:21:47Z</time>
      </trkpt>
      <trkpt lat="44.98618" lon="5.8231">
        <ele>1701.7</ele>
        <time>2012-10-13T10:21:54Z</time>
      </trkpt>
      <trkpt lat="44.98609" lon="5.82309">
        <ele>1699.7</ele>
        <time>2012-10-13T10:22:01Z</time>
      </trkpt>
      <trkpt lat="44.986" lon="5.82307">
        <ele>1697.8</ele>
        <time>2012-10-13T10:22:08Z</time>
      </trkpt>
      <trkpt lat="44.98591" lon="5.82308">
        <ele>1696.9</ele>
        <time>2012-10-13T10:22:15Z</time>
      </trkpt>
      <trkpt lat="44.98581" lon="5.82304">
        <ele>1694.9</ele>
        <time>2012-10-13T10:22:22Z</time>
      </trkpt>
      <trkpt lat="44.98572" lon="5.82304">
        <ele>1693.5</ele>
        <time>2012-10-13T10:22:29Z</time>
      </trkpt>
      <trkpt lat="44.98562" lon="5.82301">
        <ele>1692.1</ele>
        <time>2012-10-13T10:22:36Z</time>
      </trkpt>
      <trkpt lat="44.98553" lon="5.82296">
        <ele>1690.6</ele>
        <time>2012-10-13T10:22:43Z</time>
      </trkpt>
      <trkpt lat="44.98543" lon="5.823">
        <ele>1688.7</ele>
        <time>2012-10-13T10:22:50Z</time>
      </trkpt>
      <trkpt lat="44.98537" lon="5.82307">
        <ele>1686.3</ele>
        <time>2012-10-13T10:22:57Z</time>
      </trkpt>
      <trkpt lat="44.9854" lon="5.8232">
        <ele>1684.4</ele>
        <time>2012-10-13T10:23:04Z</time>
      </trkpt>
      <trkpt lat="44.98543" lon="5.82332">
        <ele>1683.9</ele>
        <time>2012-10-13T10:23:11Z</time>
      </trkpt>
      <trkpt lat="44.98547" lon="5.82345">
        <ele>1682.9</ele>
        <time>2012-10-13T10:23:20Z</time>
      </trkpt>
      <trkpt lat="44.98552" lon="5.82355">
        <ele>1681.5</ele>
        <time>2012-10-13T10:23:27Z</time>
      </trkpt>
      <trkpt lat="44.98555" lon="5.82368">
        <ele>1680</ele>
        <time>2012-10-13T10:23:35Z</time>
      </trkpt>
      <trkpt lat="44.9856" lon="5.82379">
        <ele>1677.6</ele>
        <time>2012-10-13T10:23:43Z</time>
      </trkpt>
      <trkpt lat="44.98565" lon="5.82391">
        <ele>1675.7</ele>
        <time>2012-10-13T10:23:51Z</time>
      </trkpt>
      <trkpt lat="44.98569" lon="5.82403">
        <ele>1673.3</ele>
        <time>2012-10-13T10:23:59Z</time>
      </trkpt>
      <trkpt lat="44.98572" lon="5.8241">
        <ele>1671.4</ele>
        <time>2012-10-13T10:25:31Z</time>
      </trkpt>
      <trkpt lat="44.98575" lon="5.82424">
        <ele>1673.3</ele>
        <time>2012-10-13T10:26:58Z</time>
      </trkpt>
      <trkpt lat="44.98579" lon="5.82437">
        <ele>1672.8</ele>
        <time>2012-10-13T10:27:06Z</time>
      </trkpt>
      <trkpt lat="44.98583" lon="5.8245">
        <ele>1672.8</ele>
        <time>2012-10-13T10:27:14Z</time>
      </trkpt>
      <trkpt lat="44.98588" lon="5.82461">
        <ele>1672.4</ele>
        <time>2012-10-13T10:27:21Z</time>
      </trkpt>
      <trkpt lat="44.98593" lon="5.82473">
        <ele>1671.9</ele>
        <time>2012-10-13T10:27:30Z</time>
      </trkpt>
      <trkpt lat="44.98595" lon="5.82486">
        <ele>1671.4</ele>
        <time>2012-10-13T10:27:38Z</time>
      </trkpt>
      <trkpt lat="44.986" lon="5.825">
        <ele>1670.9</ele>
        <time>2012-10-13T10:27:46Z</time>
      </trkpt>
      <trkpt lat="44.98603" lon="5.82512">
        <ele>1670.9</ele>
        <time>2012-10-13T10:27:53Z</time>
      </trkpt>
      <trkpt lat="44.98605" lon="5.82525">
        <ele>1669.5</ele>
        <time>2012-10-13T10:28:01Z</time>
      </trkpt>
      <trkpt lat="44.98607" lon="5.82537">
        <ele>1668</ele>
        <time>2012-10-13T10:28:08Z</time>
      </trkpt>
      <trkpt lat="44.98608" lon="5.8255">
        <ele>1666.6</ele>
        <time>2012-10-13T10:28:16Z</time>
      </trkpt>
      <trkpt lat="44.98609" lon="5.82562">
        <ele>1664.2</ele>
        <time>2012-10-13T10:28:23Z</time>
      </trkpt>
      <trkpt lat="44.98612" lon="5.82575">
        <ele>1662.7</ele>
        <time>2012-10-13T10:28:30Z</time>
      </trkpt>
      <trkpt lat="44.98614" lon="5.82588">
        <ele>1660.3</ele>
        <time>2012-10-13T10:28:37Z</time>
      </trkpt>
      <trkpt lat="44.98614" lon="5.82601">
        <ele>1659.4</ele>
        <time>2012-10-13T10:28:44Z</time>
      </trkpt>
      <trkpt lat="44.98616" lon="5.82614">
        <ele>1657</ele>
        <time>2012-10-13T10:28:51Z</time>
      </trkpt>
      <trkpt lat="44.98615" lon="5.82626">
        <ele>1655</ele>
        <time>2012-10-13T10:28:58Z</time>
      </trkpt>
      <trkpt lat="44.98615" lon="5.82639">
        <ele>1652.2</ele>
        <time>2012-10-13T10:29:06Z</time>
      </trkpt>
      <trkpt lat="44.98613" lon="5.82652">
        <ele>1650.2</ele>
        <time>2012-10-13T10:29:14Z</time>
      </trkpt>
      <trkpt lat="44.98608" lon="5.82662">
        <ele>1649.3</ele>
        <time>2012-10-13T10:29:21Z</time>
      </trkpt>
      <trkpt lat="44.98605" lon="5.82675">
        <ele>1648.8</ele>
        <time>2012-10-13T10:29:28Z</time>
      </trkpt>
      <trkpt lat="44.986" lon="5.82686">
        <ele>1647.4</ele>
        <time>2012-10-13T10:29:35Z</time>
      </trkpt>
      <trkpt lat="44.98595" lon="5.82697">
        <ele>1645.4</ele>
        <time>2012-10-13T10:29:42Z</time>
      </trkpt>
      <trkpt lat="44.98588" lon="5.82707">
        <ele>1643.5</ele>
        <time>2012-10-13T10:29:49Z</time>
      </trkpt>
      <trkpt lat="44.98581" lon="5.82715">
        <ele>1641.6</ele>
        <time>2012-10-13T10:29:56Z</time>
      </trkpt>
      <trkpt lat="44.98576" lon="5.82725">
        <ele>1640.1</ele>
        <time>2012-10-13T10:30:02Z</time>
      </trkpt>
      <trkpt lat="44.98571" lon="5.82736">
        <ele>1638.7</ele>
        <time>2012-10-13T10:30:09Z</time>
      </trkpt>
      <trkpt lat="44.98566" lon="5.82747">
        <ele>1638.2</ele>
        <time>2012-10-13T10:30:16Z</time>
      </trkpt>
      <trkpt lat="44.98562" lon="5.82758">
        <ele>1637.3</ele>
        <time>2012-10-13T10:30:23Z</time>
      </trkpt>
      <trkpt lat="44.98559" lon="5.82771">
        <ele>1636.8</ele>
        <time>2012-10-13T10:30:30Z</time>
      </trkpt>
      <trkpt lat="44.98555" lon="5.82783">
        <ele>1635.3</ele>
        <time>2012-10-13T10:30:38Z</time>
      </trkpt>
      <trkpt lat="44.98546" lon="5.82791">
        <ele>1632.9</ele>
        <time>2012-10-13T10:30:46Z</time>
      </trkpt>
      <trkpt lat="44.98537" lon="5.82793">
        <ele>1631</ele>
        <time>2012-10-13T10:30:53Z</time>
      </trkpt>
      <trkpt lat="44.98529" lon="5.82797">
        <ele>1630.5</ele>
        <time>2012-10-13T10:31:00Z</time>
      </trkpt>
      <trkpt lat="44.9852" lon="5.82802">
        <ele>1631</ele>
        <time>2012-10-13T10:31:07Z</time>
      </trkpt>
      <trkpt lat="44.98514" lon="5.8281">
        <ele>1631</ele>
        <time>2012-10-13T10:31:15Z</time>
      </trkpt>
      <trkpt lat="44.98505" lon="5.82815">
        <ele>1631</ele>
        <time>2012-10-13T10:31:22Z</time>
      </trkpt>
      <trkpt lat="44.98496" lon="5.82816">
        <ele>1629.6</ele>
        <time>2012-10-13T10:31:29Z</time>
      </trkpt>
      <trkpt lat="44.98487" lon="5.82822">
        <ele>1628.1</ele>
        <time>2012-10-13T10:31:37Z</time>
      </trkpt>
      <trkpt lat="44.98479" lon="5.82826">
        <ele>1627.2</ele>
        <time>2012-10-13T10:31:43Z</time>
      </trkpt>
      <trkpt lat="44.98469" lon="5.82831">
        <ele>1625.2</ele>
        <time>2012-10-13T10:31:50Z</time>
      </trkpt>
      <trkpt lat="44.98459" lon="5.82835">
        <ele>1623.8</ele>
        <time>2012-10-13T10:31:57Z</time>
      </trkpt>
      <trkpt lat="44.9845" lon="5.82837">
        <ele>1621.4</ele>
        <time>2012-10-13T10:32:04Z</time>
      </trkpt>
      <trkpt lat="44.98441" lon="5.82843">
        <ele>1620</ele>
        <time>2012-10-13T10:32:11Z</time>
      </trkpt>
      <trkpt lat="44.98433" lon="5.82847">
        <ele>1617.6</ele>
        <time>2012-10-13T10:32:18Z</time>
      </trkpt>
      <trkpt lat="44.98425" lon="5.82853">
        <ele>1614.2</ele>
        <time>2012-10-13T10:32:24Z</time>
      </trkpt>
      <trkpt lat="44.98416" lon="5.82857">
        <ele>1609.9</ele>
        <time>2012-10-13T10:32:31Z</time>
      </trkpt>
      <trkpt lat="44.98407" lon="5.82864">
        <ele>1607.5</ele>
        <time>2012-10-13T10:32:39Z</time>
      </trkpt>
      <trkpt lat="44.98396" lon="5.82868">
        <ele>1606.5</ele>
        <time>2012-10-13T10:32:46Z</time>
      </trkpt>
      <trkpt lat="44.98387" lon="5.82869">
        <ele>1605.1</ele>
        <time>2012-10-13T10:32:53Z</time>
      </trkpt>
      <trkpt lat="44.98379" lon="5.82877">
        <ele>1603.6</ele>
        <time>2012-10-13T10:33:00Z</time>
      </trkpt>
      <trkpt lat="44.98369" lon="5.82882">
        <ele>1602.7</ele>
        <time>2012-10-13T10:33:07Z</time>
      </trkpt>
      <trkpt lat="44.9836" lon="5.82887">
        <ele>1601.7</ele>
        <time>2012-10-13T10:33:14Z</time>
      </trkpt>
      <trkpt lat="44.98353" lon="5.82894">
        <ele>1601.7</ele>
        <time>2012-10-13T10:33:21Z</time>
      </trkpt>
      <trkpt lat="44.98343" lon="5.82898">
        <ele>1599.3</ele>
        <time>2012-10-13T10:33:28Z</time>
      </trkpt>
      <trkpt lat="44.98335" lon="5.82905">
        <ele>1598.3</ele>
        <time>2012-10-13T10:33:35Z</time>
      </trkpt>
      <trkpt lat="44.98326" lon="5.82913">
        <ele>1595.9</ele>
        <time>2012-10-13T10:33:42Z</time>
      </trkpt>
      <trkpt lat="44.98318" lon="5.82919">
        <ele>1592.1</ele>
        <time>2012-10-13T10:33:49Z</time>
      </trkpt>
      <trkpt lat="44.9831" lon="5.82926">
        <ele>1590.6</ele>
        <time>2012-10-13T10:33:57Z</time>
      </trkpt>
      <trkpt lat="44.98301" lon="5.82933">
        <ele>1588.7</ele>
        <time>2012-10-13T10:34:04Z</time>
      </trkpt>
      <trkpt lat="44.98293" lon="5.82939">
        <ele>1586.8</ele>
        <time>2012-10-13T10:34:11Z</time>
      </trkpt>
      <trkpt lat="44.98284" lon="5.82944">
        <ele>1586.3</ele>
        <time>2012-10-13T10:34:19Z</time>
      </trkpt>
      <trkpt lat="44.98274" lon="5.82949">
        <ele>1586.3</ele>
        <time>2012-10-13T10:34:26Z</time>
      </trkpt>
      <trkpt lat="44.98267" lon="5.82957">
        <ele>1586.3</ele>
        <time>2012-10-13T10:34:33Z</time>
      </trkpt>
      <trkpt lat="44.98258" lon="5.82962">
        <ele>1587.3</ele>
        <time>2012-10-13T10:34:40Z</time>
      </trkpt>
      <trkpt lat="44.98251" lon="5.82971">
        <ele>1586.3</ele>
        <time>2012-10-13T10:34:47Z</time>
      </trkpt>
      <trkpt lat="44.98246" lon="5.82984">
        <ele>1585.8</ele>
        <time>2012-10-13T10:34:55Z</time>
      </trkpt>
      <trkpt lat="44.98247" lon="5.82998">
        <ele>1583.9</ele>
        <time>2012-10-13T10:35:03Z</time>
      </trkpt>
      <trkpt lat="44.98249" lon="5.83013">
        <ele>1582.5</ele>
        <time>2012-10-13T10:35:10Z</time>
      </trkpt>
      <trkpt lat="44.98254" lon="5.83025">
        <ele>1582.5</ele>
        <time>2012-10-13T10:35:17Z</time>
      </trkpt>
      <trkpt lat="44.98257" lon="5.83038">
        <ele>1582</ele>
        <time>2012-10-13T10:35:24Z</time>
      </trkpt>
      <trkpt lat="44.98261" lon="5.8305">
        <ele>1581</ele>
        <time>2012-10-13T10:35:31Z</time>
      </trkpt>
      <trkpt lat="44.98265" lon="5.83065">
        <ele>1581.5</ele>
        <time>2012-10-13T10:35:39Z</time>
      </trkpt>
      <trkpt lat="44.98267" lon="5.83078">
        <ele>1582</ele>
        <time>2012-10-13T10:35:46Z</time>
      </trkpt>
      <trkpt lat="44.9827" lon="5.83091">
        <ele>1581.5</ele>
        <time>2012-10-13T10:35:53Z</time>
      </trkpt>
      <trkpt lat="44.98273" lon="5.83104">
        <ele>1580.5</ele>
        <time>2012-10-13T10:36:00Z</time>
      </trkpt>
      <trkpt lat="44.98276" lon="5.83116">
        <ele>1579.1</ele>
        <time>2012-10-13T10:36:07Z</time>
      </trkpt>
      <trkpt lat="44.98279" lon="5.83129">
        <ele>1578.6</ele>
        <time>2012-10-13T10:36:14Z</time>
      </trkpt>
      <trkpt lat="44.98283" lon="5.83142">
        <ele>1577.7</ele>
        <time>2012-10-13T10:36:22Z</time>
      </trkpt>
      <trkpt lat="44.98284" lon="5.83155">
        <ele>1575.7</ele>
        <time>2012-10-13T10:36:29Z</time>
      </trkpt>
      <trkpt lat="44.98286" lon="5.83169">
        <ele>1573.8</ele>
        <time>2012-10-13T10:36:37Z</time>
      </trkpt>
      <trkpt lat="44.9829" lon="5.83182">
        <ele>1573.3</ele>
        <time>2012-10-13T10:36:43Z</time>
      </trkpt>
      <trkpt lat="44.98294" lon="5.83194">
        <ele>1572.4</ele>
        <time>2012-10-13T10:36:50Z</time>
      </trkpt>
      <trkpt lat="44.98299" lon="5.83206">
        <ele>1571.4</ele>
        <time>2012-10-13T10:36:57Z</time>
      </trkpt>
      <trkpt lat="44.98303" lon="5.83219">
        <ele>1570</ele>
        <time>2012-10-13T10:37:04Z</time>
      </trkpt>
      <trkpt lat="44.98301" lon="5.83234">
        <ele>1567.6</ele>
        <time>2012-10-13T10:37:12Z</time>
      </trkpt>
      <trkpt lat="44.98297" lon="5.83247">
        <ele>1566.1</ele>
        <time>2012-10-13T10:37:18Z</time>
      </trkpt>
      <trkpt lat="44.98296" lon="5.83258">
        <ele>1565.2</ele>
        <time>2012-10-13T10:37:25Z</time>
      </trkpt>
      <trkpt lat="44.98301" lon="5.83271">
        <ele>1565.2</ele>
        <time>2012-10-13T10:37:32Z</time>
      </trkpt>
      <trkpt lat="44.98304" lon="5.83284">
        <ele>1565.6</ele>
        <time>2012-10-13T10:37:39Z</time>
      </trkpt>
      <trkpt lat="44.983" lon="5.83295">
        <ele>1568</ele>
        <time>2012-10-13T10:37:47Z</time>
      </trkpt>
      <trkpt lat="44.98291" lon="5.83297">
        <ele>1568.5</ele>
        <time>2012-10-13T10:37:55Z</time>
      </trkpt>
      <trkpt lat="44.98283" lon="5.83295">
        <ele>1567.6</ele>
        <time>2012-10-13T10:38:07Z</time>
      </trkpt>
      <trkpt lat="44.98275" lon="5.833">
        <ele>1567.1</ele>
        <time>2012-10-13T10:38:19Z</time>
      </trkpt>
      <trkpt lat="44.98266" lon="5.83307">
        <ele>1566.6</ele>
        <time>2012-10-13T10:38:27Z</time>
      </trkpt>
      <trkpt lat="44.98258" lon="5.83315">
        <ele>1565.2</ele>
        <time>2012-10-13T10:38:35Z</time>
      </trkpt>
      <trkpt lat="44.98251" lon="5.83321">
        <ele>1563.7</ele>
        <time>2012-10-13T10:38:44Z</time>
      </trkpt>
      <trkpt lat="44.98242" lon="5.83322">
        <ele>1562.8</ele>
        <time>2012-10-13T10:38:52Z</time>
      </trkpt>
      <trkpt lat="44.98233" lon="5.83323">
        <ele>1562.3</ele>
        <time>2012-10-13T10:39:00Z</time>
      </trkpt>
      <trkpt lat="44.98224" lon="5.83321">
        <ele>1562.3</ele>
        <time>2012-10-13T10:39:07Z</time>
      </trkpt>
      <trkpt lat="44.98215" lon="5.83317">
        <ele>1562.3</ele>
        <time>2012-10-13T10:39:14Z</time>
      </trkpt>
      <trkpt lat="44.98205" lon="5.83313">
        <ele>1561.3</ele>
        <time>2012-10-13T10:39:21Z</time>
      </trkpt>
      <trkpt lat="44.98196" lon="5.83312">
        <ele>1560.4</ele>
        <time>2012-10-13T10:39:28Z</time>
      </trkpt>
      <trkpt lat="44.98186" lon="5.83309">
        <ele>1559.9</ele>
        <time>2012-10-13T10:39:35Z</time>
      </trkpt>
      <trkpt lat="44.98176" lon="5.83307">
        <ele>1558.9</ele>
        <time>2012-10-13T10:39:42Z</time>
      </trkpt>
      <trkpt lat="44.98166" lon="5.83308">
        <ele>1558.4</ele>
        <time>2012-10-13T10:39:49Z</time>
      </trkpt>
      <trkpt lat="44.98158" lon="5.83308">
        <ele>1557</ele>
        <time>2012-10-13T10:39:55Z</time>
      </trkpt>
      <trkpt lat="44.98148" lon="5.83305">
        <ele>1556</ele>
        <time>2012-10-13T10:40:02Z</time>
      </trkpt>
      <trkpt lat="44.98139" lon="5.83304">
        <ele>1554.6</ele>
        <time>2012-10-13T10:40:09Z</time>
      </trkpt>
      <trkpt lat="44.98129" lon="5.83305">
        <ele>1553.6</ele>
        <time>2012-10-13T10:40:16Z</time>
      </trkpt>
      <trkpt lat="44.98121" lon="5.83301">
        <ele>1552.7</ele>
        <time>2012-10-13T10:40:23Z</time>
      </trkpt>
      <trkpt lat="44.98111" lon="5.83301">
        <ele>1552.7</ele>
        <time>2012-10-13T10:40:31Z</time>
      </trkpt>
      <trkpt lat="44.98099" lon="5.83302">
        <ele>1549.3</ele>
        <time>2012-10-13T10:40:45Z</time>
      </trkpt>
      <trkpt lat="44.98089" lon="5.83303">
        <ele>1547.4</ele>
        <time>2012-10-13T10:40:52Z</time>
      </trkpt>
      <trkpt lat="44.98079" lon="5.83306">
        <ele>1545.9</ele>
        <time>2012-10-13T10:40:59Z</time>
      </trkpt>
      <trkpt lat="44.98069" lon="5.83309">
        <ele>1544.5</ele>
        <time>2012-10-13T10:41:07Z</time>
      </trkpt>
      <trkpt lat="44.98058" lon="5.83312">
        <ele>1543.1</ele>
        <time>2012-10-13T10:41:15Z</time>
      </trkpt>
      <trkpt lat="44.98047" lon="5.83314">
        <ele>1542.1</ele>
        <time>2012-10-13T10:41:22Z</time>
      </trkpt>
      <trkpt lat="44.98038" lon="5.83315">
        <ele>1540.2</ele>
        <time>2012-10-13T10:41:29Z</time>
      </trkpt>
      <trkpt lat="44.98029" lon="5.83315">
        <ele>1538.7</ele>
        <time>2012-10-13T10:41:36Z</time>
      </trkpt>
      <trkpt lat="44.98019" lon="5.83316">
        <ele>1536.8</ele>
        <time>2012-10-13T10:41:43Z</time>
      </trkpt>
      <trkpt lat="44.98009" lon="5.83317">
        <ele>1533.4</ele>
        <time>2012-10-13T10:41:51Z</time>
      </trkpt>
      <trkpt lat="44.98" lon="5.83317">
        <ele>1531.5</ele>
        <time>2012-10-13T10:41:58Z</time>
      </trkpt>
      <trkpt lat="44.97991" lon="5.83316">
        <ele>1528.6</ele>
        <time>2012-10-13T10:42:04Z</time>
      </trkpt>
      <trkpt lat="44.97982" lon="5.83317">
        <ele>1524.8</ele>
        <time>2012-10-13T10:42:11Z</time>
      </trkpt>
      <trkpt lat="44.97973" lon="5.83314">
        <ele>1522.4</ele>
        <time>2012-10-13T10:42:18Z</time>
      </trkpt>
      <trkpt lat="44.97964" lon="5.83315">
        <ele>1520</ele>
        <time>2012-10-13T10:42:25Z</time>
      </trkpt>
      <trkpt lat="44.97955" lon="5.83316">
        <ele>1518.5</ele>
        <time>2012-10-13T10:42:31Z</time>
      </trkpt>
      <trkpt lat="44.97945" lon="5.83318">
        <ele>1517.1</ele>
        <time>2012-10-13T10:42:38Z</time>
      </trkpt>
      <trkpt lat="44.97935" lon="5.83315">
        <ele>1515.7</ele>
        <time>2012-10-13T10:42:45Z</time>
      </trkpt>
      <trkpt lat="44.97925" lon="5.83316">
        <ele>1515.2</ele>
        <time>2012-10-13T10:42:52Z</time>
      </trkpt>
      <trkpt lat="44.97916" lon="5.83318">
        <ele>1514.2</ele>
        <time>2012-10-13T10:42:58Z</time>
      </trkpt>
      <trkpt lat="44.97907" lon="5.83321">
        <ele>1513.3</ele>
        <time>2012-10-13T10:43:05Z</time>
      </trkpt>
      <trkpt lat="44.97899" lon="5.83328">
        <ele>1511.8</ele>
        <time>2012-10-13T10:43:12Z</time>
      </trkpt>
      <trkpt lat="44.9789" lon="5.83335">
        <ele>1510.4</ele>
        <time>2012-10-13T10:43:19Z</time>
      </trkpt>
      <trkpt lat="44.97881" lon="5.83344">
        <ele>1509.4</ele>
        <time>2012-10-13T10:43:36Z</time>
      </trkpt>
      <trkpt lat="44.97872" lon="5.83349">
        <ele>1508</ele>
        <time>2012-10-13T10:43:43Z</time>
      </trkpt>
      <trkpt lat="44.97863" lon="5.83353">
        <ele>1506.5</ele>
        <time>2012-10-13T10:43:50Z</time>
      </trkpt>
      <trkpt lat="44.97854" lon="5.83358">
        <ele>1505.1</ele>
        <time>2012-10-13T10:43:57Z</time>
      </trkpt>
      <trkpt lat="44.97845" lon="5.8336">
        <ele>1504.1</ele>
        <time>2012-10-13T10:44:04Z</time>
      </trkpt>
      <trkpt lat="44.97835" lon="5.8336">
        <ele>1503.2</ele>
        <time>2012-10-13T10:44:11Z</time>
      </trkpt>
      <trkpt lat="44.97825" lon="5.8336">
        <ele>1500.8</ele>
        <time>2012-10-13T10:44:18Z</time>
      </trkpt>
      <trkpt lat="44.97816" lon="5.83356">
        <ele>1500.3</ele>
        <time>2012-10-13T10:44:25Z</time>
      </trkpt>
      <trkpt lat="44.97806" lon="5.83354">
        <ele>1498.4</ele>
        <time>2012-10-13T10:44:31Z</time>
      </trkpt>
      <trkpt lat="44.97797" lon="5.83348">
        <ele>1497.4</ele>
        <time>2012-10-13T10:44:38Z</time>
      </trkpt>
      <trkpt lat="44.9779" lon="5.83337">
        <ele>1495.9</ele>
        <time>2012-10-13T10:44:45Z</time>
      </trkpt>
      <trkpt lat="44.97783" lon="5.83329">
        <ele>1495</ele>
        <time>2012-10-13T10:44:52Z</time>
      </trkpt>
      <trkpt lat="44.97774" lon="5.83324">
        <ele>1494</ele>
        <time>2012-10-13T10:44:59Z</time>
      </trkpt>
      <trkpt lat="44.97766" lon="5.83314">
        <ele>1492.6</ele>
        <time>2012-10-13T10:45:06Z</time>
      </trkpt>
      <trkpt lat="44.9776" lon="5.83296">
        <ele>1490.2</ele>
        <time>2012-10-13T10:45:26Z</time>
      </trkpt>
      <trkpt lat="44.97759" lon="5.83283">
        <ele>1491.6</ele>
        <time>2012-10-13T10:45:34Z</time>
      </trkpt>
      <trkpt lat="44.97754" lon="5.8326">
        <ele>1491.6</ele>
        <time>2012-10-13T10:45:44Z</time>
      </trkpt>
      <trkpt lat="44.97752" lon="5.83246">
        <ele>1491.6</ele>
        <time>2012-10-13T10:45:51Z</time>
      </trkpt>
      <trkpt lat="44.97753" lon="5.8323">
        <ele>1492.1</ele>
        <time>2012-10-13T10:45:59Z</time>
      </trkpt>
      <trkpt lat="44.97751" lon="5.83214">
        <ele>1494.5</ele>
        <time>2012-10-13T10:46:08Z</time>
      </trkpt>
      <trkpt lat="44.97745" lon="5.83199">
        <ele>1495.5</ele>
        <time>2012-10-13T10:46:15Z</time>
      </trkpt>
      <trkpt lat="44.97739" lon="5.83182">
        <ele>1493.1</ele>
        <time>2012-10-13T10:46:24Z</time>
      </trkpt>
      <trkpt lat="44.9773" lon="5.83167">
        <ele>1491.1</ele>
        <time>2012-10-13T10:46:32Z</time>
      </trkpt>
      <trkpt lat="44.97722" lon="5.8315">
        <ele>1490.7</ele>
        <time>2012-10-13T10:46:43Z</time>
      </trkpt>
      <trkpt lat="44.97713" lon="5.83135">
        <ele>1486.8</ele>
        <time>2012-10-13T10:46:51Z</time>
      </trkpt>
      <trkpt lat="44.97706" lon="5.83115">
        <ele>1485.4</ele>
        <time>2012-10-13T10:47:06Z</time>
      </trkpt>
      <trkpt lat="44.97695" lon="5.83098">
        <ele>1484.4</ele>
        <time>2012-10-13T10:47:16Z</time>
      </trkpt>
      <trkpt lat="44.97682" lon="5.83085">
        <ele>1482.5</ele>
        <time>2012-10-13T10:47:23Z</time>
      </trkpt>
      <trkpt lat="44.97671" lon="5.83077">
        <ele>1481</ele>
        <time>2012-10-13T10:47:30Z</time>
      </trkpt>
      <trkpt lat="44.9766" lon="5.8307">
        <ele>1480.6</ele>
        <time>2012-10-13T10:47:37Z</time>
      </trkpt>
      <trkpt lat="44.9765" lon="5.83064">
        <ele>1479.6</ele>
        <time>2012-10-13T10:47:46Z</time>
      </trkpt>
      <trkpt lat="44.97641" lon="5.83053">
        <ele>1478.2</ele>
        <time>2012-10-13T10:47:54Z</time>
      </trkpt>
      <trkpt lat="44.97635" lon="5.83041">
        <ele>1476.2</ele>
        <time>2012-10-13T10:48:02Z</time>
      </trkpt>
      <trkpt lat="44.97632" lon="5.83027">
        <ele>1474.8</ele>
        <time>2012-10-13T10:48:09Z</time>
      </trkpt>
      <trkpt lat="44.97628" lon="5.83013">
        <ele>1472.9</ele>
        <time>2012-10-13T10:48:16Z</time>
      </trkpt>
      <trkpt lat="44.97623" lon="5.83002">
        <ele>1471.4</ele>
        <time>2012-10-13T10:48:23Z</time>
      </trkpt>
      <trkpt lat="44.97619" lon="5.82989">
        <ele>1469.5</ele>
        <time>2012-10-13T10:48:30Z</time>
      </trkpt>
      <trkpt lat="44.97614" lon="5.82978">
        <ele>1467.1</ele>
        <time>2012-10-13T10:48:37Z</time>
      </trkpt>
      <trkpt lat="44.97608" lon="5.82965">
        <ele>1465.2</ele>
        <time>2012-10-13T10:48:44Z</time>
      </trkpt>
      <trkpt lat="44.97604" lon="5.82953">
        <ele>1464.2</ele>
        <time>2012-10-13T10:48:51Z</time>
      </trkpt>
      <trkpt lat="44.97602" lon="5.8294">
        <ele>1464.2</ele>
        <time>2012-10-13T10:48:58Z</time>
      </trkpt>
      <trkpt lat="44.97598" lon="5.82929">
        <ele>1464.7</ele>
        <time>2012-10-13T10:49:06Z</time>
      </trkpt>
      <trkpt lat="44.97594" lon="5.82917">
        <ele>1465.2</ele>
        <time>2012-10-13T10:49:14Z</time>
      </trkpt>
      <trkpt lat="44.97589" lon="5.82905">
        <ele>1465.2</ele>
        <time>2012-10-13T10:49:22Z</time>
      </trkpt>
      <trkpt lat="44.97584" lon="5.82893">
        <ele>1466.1</ele>
        <time>2012-10-13T10:49:29Z</time>
      </trkpt>
      <trkpt lat="44.97577" lon="5.82882">
        <ele>1466.6</ele>
        <time>2012-10-13T10:49:36Z</time>
      </trkpt>
      <trkpt lat="44.97571" lon="5.82872">
        <ele>1467.6</ele>
        <time>2012-10-13T10:49:44Z</time>
      </trkpt>
      <trkpt lat="44.97562" lon="5.82862">
        <ele>1467.6</ele>
        <time>2012-10-13T10:49:52Z</time>
      </trkpt>
      <trkpt lat="44.97554" lon="5.82852">
        <ele>1467.6</ele>
        <time>2012-10-13T10:50:00Z</time>
      </trkpt>
      <trkpt lat="44.97546" lon="5.82844">
        <ele>1468.1</ele>
        <time>2012-10-13T10:50:08Z</time>
      </trkpt>
      <trkpt lat="44.97538" lon="5.82835">
        <ele>1467.6</ele>
        <time>2012-10-13T10:50:16Z</time>
      </trkpt>
      <trkpt lat="44.9753" lon="5.82827">
        <ele>1468.1</ele>
        <time>2012-10-13T10:50:24Z</time>
      </trkpt>
      <trkpt lat="44.9752" lon="5.8282">
        <ele>1468.1</ele>
        <time>2012-10-13T10:50:32Z</time>
      </trkpt>
      <trkpt lat="44.97511" lon="5.82814">
        <ele>1469</ele>
        <time>2012-10-13T10:50:39Z</time>
      </trkpt>
      <trkpt lat="44.97502" lon="5.82806">
        <ele>1469.5</ele>
        <time>2012-10-13T10:50:47Z</time>
      </trkpt>
      <trkpt lat="44.97492" lon="5.82799">
        <ele>1471.4</ele>
        <time>2012-10-13T10:50:55Z</time>
      </trkpt>
      <trkpt lat="44.97484" lon="5.82792">
        <ele>1474.3</ele>
        <time>2012-10-13T10:51:03Z</time>
      </trkpt>
      <trkpt lat="44.97475" lon="5.82784">
        <ele>1477.2</ele>
        <time>2012-10-13T10:51:11Z</time>
      </trkpt>
      <trkpt lat="44.97465" lon="5.82778">
        <ele>1478.2</ele>
        <time>2012-10-13T10:51:19Z</time>
      </trkpt>
      <trkpt lat="44.97456" lon="5.82771">
        <ele>1479.1</ele>
        <time>2012-10-13T10:51:28Z</time>
      </trkpt>
      <trkpt lat="44.97447" lon="5.82763">
        <ele>1478.2</ele>
        <time>2012-10-13T10:51:36Z</time>
      </trkpt>
      <trkpt lat="44.97439" lon="5.82754">
        <ele>1478.2</ele>
        <time>2012-10-13T10:51:45Z</time>
      </trkpt>
      <trkpt lat="44.9743" lon="5.82746">
        <ele>1480.1</ele>
        <time>2012-10-13T10:51:53Z</time>
      </trkpt>
      <trkpt lat="44.97421" lon="5.82738">
        <ele>1481.5</ele>
        <time>2012-10-13T10:52:02Z</time>
      </trkpt>
      <trkpt lat="44.97411" lon="5.82725">
        <ele>1482.5</ele>
        <time>2012-10-13T10:52:14Z</time>
      </trkpt>
      <trkpt lat="44.974" lon="5.82707">
        <ele>1484.9</ele>
        <time>2012-10-13T10:52:30Z</time>
      </trkpt>
      <trkpt lat="44.97389" lon="5.82694">
        <ele>1485.9</ele>
        <time>2012-10-13T10:52:42Z</time>
      </trkpt>
      <trkpt lat="44.9738" lon="5.82684">
        <ele>1487.3</ele>
        <time>2012-10-13T10:52:52Z</time>
      </trkpt>
      <trkpt lat="44.97371" lon="5.82671">
        <ele>1486.8</ele>
        <time>2012-10-13T10:53:01Z</time>
      </trkpt>
      <trkpt lat="44.97363" lon="5.82659">
        <ele>1489.2</ele>
        <time>2012-10-13T10:53:09Z</time>
      </trkpt>
      <trkpt lat="44.97355" lon="5.82649">
        <ele>1490.7</ele>
        <time>2012-10-13T10:53:16Z</time>
      </trkpt>
      <trkpt lat="44.97347" lon="5.82639">
        <ele>1493.1</ele>
        <time>2012-10-13T10:53:23Z</time>
      </trkpt>
      <trkpt lat="44.97339" lon="5.82628">
        <ele>1495.9</ele>
        <time>2012-10-13T10:53:31Z</time>
      </trkpt>
      <trkpt lat="44.97332" lon="5.82618">
        <ele>1497.4</ele>
        <time>2012-10-13T10:53:38Z</time>
      </trkpt>
      <trkpt lat="44.97325" lon="5.82607">
        <ele>1497.9</ele>
        <time>2012-10-13T10:53:46Z</time>
      </trkpt>
      <trkpt lat="44.97318" lon="5.82598">
        <ele>1497.9</ele>
        <time>2012-10-13T10:53:54Z</time>
      </trkpt>
      <trkpt lat="44.97308" lon="5.82593">
        <ele>1498.8</ele>
        <time>2012-10-13T10:54:03Z</time>
      </trkpt>
      <trkpt lat="44.97299" lon="5.82591">
        <ele>1499.8</ele>
        <time>2012-10-13T10:54:11Z</time>
      </trkpt>
      <trkpt lat="44.9729" lon="5.82587">
        <ele>1502.2</ele>
        <time>2012-10-13T10:54:20Z</time>
      </trkpt>
      <trkpt lat="44.97281" lon="5.82584">
        <ele>1504.6</ele>
        <time>2012-10-13T10:54:28Z</time>
      </trkpt>
      <trkpt lat="44.97272" lon="5.82581">
        <ele>1505.1</ele>
        <time>2012-10-13T10:54:37Z</time>
      </trkpt>
      <trkpt lat="44.97263" lon="5.82579">
        <ele>1505.1</ele>
        <time>2012-10-13T10:54:45Z</time>
      </trkpt>
      <trkpt lat="44.97256" lon="5.82569">
        <ele>1505.1</ele>
        <time>2012-10-13T10:54:53Z</time>
      </trkpt>
      <trkpt lat="44.9726" lon="5.8256">
        <ele>1507.5</ele>
        <time>2012-10-13T10:55:09Z</time>
      </trkpt>
      <trkpt lat="44.97267" lon="5.82548">
        <ele>1511.8</ele>
        <time>2012-10-13T10:55:24Z</time>
      </trkpt>
      <trkpt lat="44.97273" lon="5.82537">
        <ele>1512.8</ele>
        <time>2012-10-13T10:55:34Z</time>
      </trkpt>
      <trkpt lat="44.97278" lon="5.82526">
        <ele>1513.7</ele>
        <time>2012-10-13T10:55:46Z</time>
      </trkpt>
      <trkpt lat="44.97283" lon="5.8252">
        <ele>1513.7</ele>
        <time>2012-10-13T10:56:42Z</time>
      </trkpt>
      <trkpt lat="44.97281" lon="5.8252">
        <ele>1512.8</ele>
        <time>2012-10-13T10:57:45Z</time>
      </trkpt>
      <trkpt lat="44.9728" lon="5.82521">
        <ele>1510.4</ele>
        <time>2012-10-13T10:58:08Z</time>
      </trkpt>
    </trkseg>
  </trk>
</gpx>